<?xml version="1.0" encoding="UTF-8"?><gpx xmlns="http://www.topografix.com/GPX/1/1" version="1.1" creator="iOrient"><trk><name>Мини-рогейн "Закат лета" (Томск)</name><trkseg><trkpt lat="56.5143267" lon="85.0712009"><time>2023-08-20T04:20:43.430</time></trkpt><trkpt lat="56.5144174" lon="85.0712674"><time>2023-08-20T04:20:44.430</time></trkpt><trkpt lat="56.5143724" lon="85.0712680"><time>2023-08-20T04:20:52.437</time></trkpt><trkpt lat="56.5143182" lon="85.0713232"><time>2023-08-20T04:20:55.437</time></trkpt><trkpt lat="56.5142762" lon="85.0713642"><time>2023-08-20T04:20:57.910</time></trkpt><trkpt lat="56.5142232" lon="85.0713996"><time>2023-08-20T04:20:59.417</time></trkpt><trkpt lat="56.5142014" lon="85.0714197"><time>2023-08-20T04:25:29.317</time></trkpt><trkpt lat="56.5125040" lon="85.0663023"><time>2023-08-20T04:25:31.470</time></trkpt><trkpt lat="56.5125469" lon="85.0663773"><time>2023-08-20T04:25:32.477</time></trkpt><trkpt lat="56.5126034" lon="85.0663770"><time>2023-08-20T04:25:35.483</time></trkpt><trkpt lat="56.5126476" lon="85.0662978"><time>2023-08-20T04:25:42.483</time></trkpt><trkpt lat="56.5127011" lon="85.0662857"><time>2023-08-20T04:25:45.763</time></trkpt><trkpt lat="56.5127619" lon="85.0662582"><time>2023-08-20T04:25:48.467</time></trkpt><trkpt lat="56.5127984" lon="85.0662078"><time>2023-08-20T04:25:50.477</time></trkpt><trkpt lat="56.5128159" lon="85.0661286"><time>2023-08-20T04:25:52.473</time></trkpt><trkpt lat="56.5128340" lon="85.0660314"><time>2023-08-20T04:25:54.473</time></trkpt><trkpt lat="56.5127968" lon="85.0659703"><time>2023-08-20T04:26:00.473</time></trkpt><trkpt lat="56.5127843" lon="85.0658619"><time>2023-08-20T04:26:05.477</time></trkpt><trkpt lat="56.5127593" lon="85.0657415"><time>2023-08-20T04:26:08.477</time></trkpt><trkpt lat="56.5127423" lon="85.0656521"><time>2023-08-20T04:26:11.473</time></trkpt><trkpt lat="56.5127179" lon="85.0655542"><time>2023-08-20T04:26:14.473</time></trkpt><trkpt lat="56.5126822" lon="85.0655038"><time>2023-08-20T04:26:16.467</time></trkpt><trkpt lat="56.5126367" lon="85.0654557"><time>2023-08-20T04:26:18.467</time></trkpt><trkpt lat="56.5125905" lon="85.0654106"><time>2023-08-20T04:26:20.467</time></trkpt><trkpt lat="56.5125426" lon="85.0653497"><time>2023-08-20T04:26:22.477</time></trkpt><trkpt lat="56.5124656" lon="85.0653262"><time>2023-08-20T04:26:24.477</time></trkpt><trkpt lat="56.5124121" lon="85.0652952"><time>2023-08-20T04:26:26.467</time></trkpt><trkpt lat="56.5123644" lon="85.0652586"><time>2023-08-20T04:26:28.467</time></trkpt><trkpt lat="56.5123203" lon="85.0652149"><time>2023-08-20T04:26:30.473</time></trkpt><trkpt lat="56.5122592" lon="85.0651612"><time>2023-08-20T04:26:32.467</time></trkpt><trkpt lat="56.5122046" lon="85.0651127"><time>2023-08-20T04:26:35.477</time></trkpt><trkpt lat="56.5121691" lon="85.0650621"><time>2023-08-20T04:26:37.463</time></trkpt><trkpt lat="56.5121168" lon="85.0650267"><time>2023-08-20T04:26:39.467</time></trkpt><trkpt lat="56.5120566" lon="85.0649774"><time>2023-08-20T04:26:41.467</time></trkpt><trkpt lat="56.5119996" lon="85.0649021"><time>2023-08-20T04:26:43.467</time></trkpt><trkpt lat="56.5119284" lon="85.0648430"><time>2023-08-20T04:26:45.460</time></trkpt><trkpt lat="56.5118721" lon="85.0647638"><time>2023-08-20T04:26:47.467</time></trkpt><trkpt lat="56.5118045" lon="85.0646771"><time>2023-08-20T04:26:49.467</time></trkpt><trkpt lat="56.5117419" lon="85.0645864"><time>2023-08-20T04:26:51.470</time></trkpt><trkpt lat="56.5116930" lon="85.0644777"><time>2023-08-20T04:26:55.260</time></trkpt><trkpt lat="56.5116651" lon="85.0643763"><time>2023-08-20T04:26:55.490</time></trkpt><trkpt lat="56.5116369" lon="85.0642700"><time>2023-08-20T04:26:57.477</time></trkpt><trkpt lat="56.5116192" lon="85.0641414"><time>2023-08-20T04:26:59.473</time></trkpt><trkpt lat="56.5115967" lon="85.0640232"><time>2023-08-20T04:27:01.490</time></trkpt><trkpt lat="56.5115474" lon="85.0639591"><time>2023-08-20T04:27:03.477</time></trkpt><trkpt lat="56.5114935" lon="85.0639252"><time>2023-08-20T04:27:05.483</time></trkpt><trkpt lat="56.5114407" lon="85.0638854"><time>2023-08-20T04:27:07.473</time></trkpt><trkpt lat="56.5113806" lon="85.0638270"><time>2023-08-20T04:27:09.463</time></trkpt><trkpt lat="56.5113306" lon="85.0637567"><time>2023-08-20T04:27:11.473</time></trkpt><trkpt lat="56.5112617" lon="85.0636658"><time>2023-08-20T04:27:13.480</time></trkpt><trkpt lat="56.5112205" lon="85.0635604"><time>2023-08-20T04:27:15.477</time></trkpt><trkpt lat="56.5111625" lon="85.0634648"><time>2023-08-20T04:27:17.467</time></trkpt><trkpt lat="56.5111162" lon="85.0633640"><time>2023-08-20T04:27:19.473</time></trkpt><trkpt lat="56.5110718" lon="85.0633271"><time>2023-08-20T04:27:21.473</time></trkpt><trkpt lat="56.5110061" lon="85.0632978"><time>2023-08-20T04:27:23.480</time></trkpt><trkpt lat="56.5109499" lon="85.0632588"><time>2023-08-20T04:27:25.470</time></trkpt><trkpt lat="56.5108807" lon="85.0631851"><time>2023-08-20T04:27:27.470</time></trkpt><trkpt lat="56.5108198" lon="85.0631129"><time>2023-08-20T04:27:29.473</time></trkpt><trkpt lat="56.5107716" lon="85.0630525"><time>2023-08-20T04:27:31.467</time></trkpt><trkpt lat="56.5107211" lon="85.0629956"><time>2023-08-20T04:27:34.513</time></trkpt><trkpt lat="56.5106810" lon="85.0629271"><time>2023-08-20T04:27:36.490</time></trkpt><trkpt lat="56.5106345" lon="85.0628445"><time>2023-08-20T04:27:38.497</time></trkpt><trkpt lat="56.5105937" lon="85.0627363"><time>2023-08-20T04:27:40.497</time></trkpt><trkpt lat="56.5105488" lon="85.0626318"><time>2023-08-20T04:27:42.487</time></trkpt><trkpt lat="56.5105120" lon="85.0625351"><time>2023-08-20T04:27:44.477</time></trkpt><trkpt lat="56.5104649" lon="85.0624591"><time>2023-08-20T04:27:46.480</time></trkpt><trkpt lat="56.5104159" lon="85.0624141"><time>2023-08-20T04:27:48.490</time></trkpt><trkpt lat="56.5103599" lon="85.0624368"><time>2023-08-20T04:27:50.490</time></trkpt><trkpt lat="56.5103260" lon="85.0623326"><time>2023-08-20T04:27:52.487</time></trkpt><trkpt lat="56.5103088" lon="85.0622175"><time>2023-08-20T04:27:54.473</time></trkpt><trkpt lat="56.5102844" lon="85.0621234"><time>2023-08-20T04:27:56.473</time></trkpt><trkpt lat="56.5102337" lon="85.0620505"><time>2023-08-20T04:27:58.470</time></trkpt><trkpt lat="56.5101874" lon="85.0619614"><time>2023-08-20T04:28:00.480</time></trkpt><trkpt lat="56.5101480" lon="85.0619140"><time>2023-08-20T04:28:02.487</time></trkpt><trkpt lat="56.5100906" lon="85.0618535"><time>2023-08-20T04:28:04.477</time></trkpt><trkpt lat="56.5100555" lon="85.0617771"><time>2023-08-20T04:28:06.477</time></trkpt><trkpt lat="56.5100086" lon="85.0617025"><time>2023-08-20T04:28:08.487</time></trkpt><trkpt lat="56.5099627" lon="85.0616285"><time>2023-08-20T04:28:10.497</time></trkpt><trkpt lat="56.5099280" lon="85.0615376"><time>2023-08-20T04:28:12.483</time></trkpt><trkpt lat="56.5098868" lon="85.0614659"><time>2023-08-20T04:28:14.483</time></trkpt><trkpt lat="56.5098529" lon="85.0613795"><time>2023-08-20T04:28:16.493</time></trkpt><trkpt lat="56.5098177" lon="85.0612886"><time>2023-08-20T04:28:18.497</time></trkpt><trkpt lat="56.5097807" lon="85.0611732"><time>2023-08-20T04:28:20.497</time></trkpt><trkpt lat="56.5097612" lon="85.0610618"><time>2023-08-20T04:28:22.487</time></trkpt><trkpt lat="56.5097333" lon="85.0609412"><time>2023-08-20T04:28:24.487</time></trkpt><trkpt lat="56.5097088" lon="85.0608372"><time>2023-08-20T04:28:26.487</time></trkpt><trkpt lat="56.5096997" lon="85.0607344"><time>2023-08-20T04:28:29.487</time></trkpt><trkpt lat="56.5096772" lon="85.0606364"><time>2023-08-20T04:28:32.490</time></trkpt><trkpt lat="56.5096580" lon="85.0605462"><time>2023-08-20T04:28:34.487</time></trkpt><trkpt lat="56.5096303" lon="85.0604571"><time>2023-08-20T04:28:36.490</time></trkpt><trkpt lat="56.5096050" lon="85.0603611"><time>2023-08-20T04:28:38.487</time></trkpt><trkpt lat="56.5095741" lon="85.0602758"><time>2023-08-20T04:28:40.487</time></trkpt><trkpt lat="56.5095397" lon="85.0602045"><time>2023-08-20T04:28:42.467</time></trkpt><trkpt lat="56.5095037" lon="85.0601300"><time>2023-08-20T04:28:45.483</time></trkpt><trkpt lat="56.5094835" lon="85.0600434"><time>2023-08-20T04:28:47.487</time></trkpt><trkpt lat="56.5094638" lon="85.0599446"><time>2023-08-20T04:28:49.487</time></trkpt><trkpt lat="56.5094365" lon="85.0598597"><time>2023-08-20T04:28:51.487</time></trkpt><trkpt lat="56.5094161" lon="85.0597484"><time>2023-08-20T04:28:54.477</time></trkpt><trkpt lat="56.5094028" lon="85.0596592"><time>2023-08-20T04:28:56.473</time></trkpt><trkpt lat="56.5093788" lon="85.0595683"><time>2023-08-20T04:28:58.470</time></trkpt><trkpt lat="56.5093521" lon="85.0594615"><time>2023-08-20T04:29:00.487</time></trkpt><trkpt lat="56.5092942" lon="85.0593506"><time>2023-08-20T04:29:02.477</time></trkpt><trkpt lat="56.5092458" lon="85.0592781"><time>2023-08-20T04:29:04.470</time></trkpt><trkpt lat="56.5092011" lon="85.0591990"><time>2023-08-20T04:29:06.477</time></trkpt><trkpt lat="56.5091589" lon="85.0590975"><time>2023-08-20T04:29:08.467</time></trkpt><trkpt lat="56.5091147" lon="85.0590223"><time>2023-08-20T04:29:10.463</time></trkpt><trkpt lat="56.5090663" lon="85.0589200"><time>2023-08-20T04:29:12.467</time></trkpt><trkpt lat="56.5090426" lon="85.0588447"><time>2023-08-20T04:29:15.467</time></trkpt><trkpt lat="56.5090865" lon="85.0588958"><time>2023-08-20T04:29:21.470</time></trkpt><trkpt lat="56.5090834" lon="85.0589863"><time>2023-08-20T04:29:25.470</time></trkpt><trkpt lat="56.5090499" lon="85.0590509"><time>2023-08-20T04:29:30.470</time></trkpt><trkpt lat="56.5090990" lon="85.0589908"><time>2023-08-20T04:29:34.487</time></trkpt><trkpt lat="56.5090987" lon="85.0588795"><time>2023-08-20T04:29:37.473</time></trkpt><trkpt lat="56.5090574" lon="85.0588388"><time>2023-08-20T04:29:39.467</time></trkpt><trkpt lat="56.5090089" lon="85.0588875"><time>2023-08-20T04:29:42.480</time></trkpt><trkpt lat="56.5089888" lon="85.0587974"><time>2023-08-20T04:29:49.463</time></trkpt><trkpt lat="56.5089459" lon="85.0587026"><time>2023-08-20T04:29:52.470</time></trkpt><trkpt lat="56.5089188" lon="85.0586295"><time>2023-08-20T04:29:54.470</time></trkpt><trkpt lat="56.5088936" lon="85.0585455"><time>2023-08-20T04:29:56.477</time></trkpt><trkpt lat="56.5088684" lon="85.0584731"><time>2023-08-20T04:29:58.470</time></trkpt><trkpt lat="56.5088492" lon="85.0583742"><time>2023-08-20T04:30:01.470</time></trkpt><trkpt lat="56.5088297" lon="85.0582651"><time>2023-08-20T04:30:04.470</time></trkpt><trkpt lat="56.5088027" lon="85.0581584"><time>2023-08-20T04:30:07.470</time></trkpt><trkpt lat="56.5087482" lon="85.0581425"><time>2023-08-20T04:30:09.490</time></trkpt><trkpt lat="56.5087701" lon="85.0579958"><time>2023-08-20T04:30:11.487</time></trkpt><trkpt lat="56.5087800" lon="85.0578925"><time>2023-08-20T04:30:13.467</time></trkpt><trkpt lat="56.5087873" lon="85.0578061"><time>2023-08-20T04:30:15.473</time></trkpt><trkpt lat="56.5087858" lon="85.0577005"><time>2023-08-20T04:30:39.487</time></trkpt><trkpt lat="56.5087509" lon="85.0575833"><time>2023-08-20T04:30:41.477</time></trkpt><trkpt lat="56.5087038" lon="85.0574636"><time>2023-08-20T04:30:43.487</time></trkpt><trkpt lat="56.5086546" lon="85.0573456"><time>2023-08-20T04:30:45.470</time></trkpt><trkpt lat="56.5086085" lon="85.0572451"><time>2023-08-20T04:30:47.463</time></trkpt><trkpt lat="56.5085941" lon="85.0571662"><time>2023-08-20T04:30:49.470</time></trkpt><trkpt lat="56.5085451" lon="85.0571312"><time>2023-08-20T04:30:55.477</time></trkpt><trkpt lat="56.5085102" lon="85.0571940"><time>2023-08-20T04:30:57.477</time></trkpt><trkpt lat="56.5085033" lon="85.0573062"><time>2023-08-20T04:30:59.490</time></trkpt><trkpt lat="56.5084775" lon="85.0574017"><time>2023-08-20T04:31:01.493</time></trkpt><trkpt lat="56.5084350" lon="85.0574722"><time>2023-08-20T04:31:03.480</time></trkpt><trkpt lat="56.5083885" lon="85.0575330"><time>2023-08-20T04:31:05.480</time></trkpt><trkpt lat="56.5083296" lon="85.0575458"><time>2023-08-20T04:31:07.473</time></trkpt><trkpt lat="56.5082555" lon="85.0575552"><time>2023-08-20T04:31:09.477</time></trkpt><trkpt lat="56.5082119" lon="85.0575337"><time>2023-08-20T04:31:11.463</time></trkpt><trkpt lat="56.5081659" lon="85.0575604"><time>2023-08-20T04:31:15.490</time></trkpt><trkpt lat="56.5081130" lon="85.0576032"><time>2023-08-20T04:31:18.470</time></trkpt><trkpt lat="56.5080548" lon="85.0576131"><time>2023-08-20T04:31:21.470</time></trkpt><trkpt lat="56.5080065" lon="85.0576140"><time>2023-08-20T04:31:25.477</time></trkpt><trkpt lat="56.5080010" lon="85.0575179"><time>2023-08-20T04:31:33.473</time></trkpt><trkpt lat="56.5079657" lon="85.0575988"><time>2023-08-20T04:31:39.487</time></trkpt><trkpt lat="56.5079319" lon="85.0576786"><time>2023-08-20T04:31:43.477</time></trkpt><trkpt lat="56.5079158" lon="85.0577861"><time>2023-08-20T04:31:46.477</time></trkpt><trkpt lat="56.5079309" lon="85.0578716"><time>2023-08-20T04:31:48.527</time></trkpt><trkpt lat="56.5079316" lon="85.0579645"><time>2023-08-20T04:31:51.477</time></trkpt><trkpt lat="56.5079116" lon="85.0580728"><time>2023-08-20T04:31:54.493</time></trkpt><trkpt lat="56.5078878" lon="85.0581653"><time>2023-08-20T04:31:57.470</time></trkpt><trkpt lat="56.5078677" lon="85.0582429"><time>2023-08-20T04:32:00.467</time></trkpt><trkpt lat="56.5078213" lon="85.0582376"><time>2023-08-20T04:32:06.470</time></trkpt><trkpt lat="56.5077687" lon="85.0581798"><time>2023-08-20T04:32:09.480</time></trkpt><trkpt lat="56.5077323" lon="85.0581186"><time>2023-08-20T04:32:12.480</time></trkpt><trkpt lat="56.5076817" lon="85.0581377"><time>2023-08-20T04:32:24.483</time></trkpt><trkpt lat="56.5077403" lon="85.0581708"><time>2023-08-20T04:32:32.483</time></trkpt><trkpt lat="56.5076988" lon="85.0581247"><time>2023-08-20T04:32:38.473</time></trkpt><trkpt lat="56.5077040" lon="85.0580426"><time>2023-08-20T04:32:41.473</time></trkpt><trkpt lat="56.5076962" lon="85.0579448"><time>2023-08-20T04:32:47.473</time></trkpt><trkpt lat="56.5077081" lon="85.0578582"><time>2023-08-20T04:32:51.473</time></trkpt><trkpt lat="56.5077225" lon="85.0577674"><time>2023-08-20T04:32:55.490</time></trkpt><trkpt lat="56.5077313" lon="85.0576827"><time>2023-08-20T04:33:02.500</time></trkpt><trkpt lat="56.5077764" lon="85.0576380"><time>2023-08-20T04:33:08.523</time></trkpt><trkpt lat="56.5077976" lon="85.0575619"><time>2023-08-20T04:33:17.477</time></trkpt><trkpt lat="56.5078176" lon="85.0574875"><time>2023-08-20T04:33:32.467</time></trkpt><trkpt lat="56.5078521" lon="85.0574208"><time>2023-08-20T04:33:45.470</time></trkpt><trkpt lat="56.5079003" lon="85.0574171"><time>2023-08-20T04:34:14.467</time></trkpt><trkpt lat="56.5079328" lon="85.0574733"><time>2023-08-20T04:34:21.477</time></trkpt><trkpt lat="56.5079834" lon="85.0574509"><time>2023-08-20T04:34:28.473</time></trkpt><trkpt lat="56.5080136" lon="85.0573882"><time>2023-08-20T04:34:36.477</time></trkpt><trkpt lat="56.5080480" lon="85.0572983"><time>2023-08-20T04:34:43.473</time></trkpt><trkpt lat="56.5080727" lon="85.0571961"><time>2023-08-20T04:34:46.467</time></trkpt><trkpt lat="56.5080731" lon="85.0570725"><time>2023-08-20T04:34:49.470</time></trkpt><trkpt lat="56.5080554" lon="85.0569664"><time>2023-08-20T04:34:52.473</time></trkpt><trkpt lat="56.5080254" lon="85.0568951"><time>2023-08-20T04:34:56.497</time></trkpt><trkpt lat="56.5080380" lon="85.0568073"><time>2023-08-20T04:35:05.470</time></trkpt><trkpt lat="56.5080405" lon="85.0567241"><time>2023-08-20T04:35:12.473</time></trkpt><trkpt lat="56.5080021" lon="85.0566686"><time>2023-08-20T04:35:27.507</time></trkpt><trkpt lat="56.5079590" lon="85.0566314"><time>2023-08-20T04:35:29.480</time></trkpt><trkpt lat="56.5078960" lon="85.0565857"><time>2023-08-20T04:35:31.493</time></trkpt><trkpt lat="56.5078347" lon="85.0566138"><time>2023-08-20T04:35:33.477</time></trkpt><trkpt lat="56.5077773" lon="85.0566715"><time>2023-08-20T04:35:35.470</time></trkpt><trkpt lat="56.5077395" lon="85.0567496"><time>2023-08-20T04:35:37.473</time></trkpt><trkpt lat="56.5076851" lon="85.0567631"><time>2023-08-20T04:35:39.470</time></trkpt><trkpt lat="56.5076315" lon="85.0567651"><time>2023-08-20T04:35:41.470</time></trkpt><trkpt lat="56.5075729" lon="85.0567433"><time>2023-08-20T04:35:43.477</time></trkpt><trkpt lat="56.5075220" lon="85.0567475"><time>2023-08-20T04:35:46.467</time></trkpt><trkpt lat="56.5075152" lon="85.0566522"><time>2023-08-20T04:35:53.480</time></trkpt><trkpt lat="56.5074593" lon="85.0566206"><time>2023-08-20T04:36:05.470</time></trkpt><trkpt lat="56.5074103" lon="85.0566427"><time>2023-08-20T04:36:08.467</time></trkpt><trkpt lat="56.5073521" lon="85.0566645"><time>2023-08-20T04:36:11.470</time></trkpt><trkpt lat="56.5072847" lon="85.0566704"><time>2023-08-20T04:36:14.473</time></trkpt><trkpt lat="56.5072347" lon="85.0567435"><time>2023-08-20T04:36:16.483</time></trkpt><trkpt lat="56.5071743" lon="85.0567943"><time>2023-08-20T04:36:18.470</time></trkpt><trkpt lat="56.5071190" lon="85.0567892"><time>2023-08-20T04:36:20.473</time></trkpt><trkpt lat="56.5070744" lon="85.0568157"><time>2023-08-20T04:36:22.467</time></trkpt><trkpt lat="56.5070273" lon="85.0568418"><time>2023-08-20T04:36:25.500</time></trkpt><trkpt lat="56.5069758" lon="85.0568900"><time>2023-08-20T04:36:28.470</time></trkpt><trkpt lat="56.5069315" lon="85.0569313"><time>2023-08-20T04:36:30.480</time></trkpt><trkpt lat="56.5068656" lon="85.0569390"><time>2023-08-20T04:36:33.470</time></trkpt><trkpt lat="56.5067960" lon="85.0569034"><time>2023-08-20T04:36:36.463</time></trkpt><trkpt lat="56.5067519" lon="85.0568789"><time>2023-08-20T04:36:37.467</time></trkpt><trkpt lat="56.5066798" lon="85.0568753"><time>2023-08-20T04:36:39.470</time></trkpt><trkpt lat="56.5066269" lon="85.0568688"><time>2023-08-20T04:36:41.483</time></trkpt><trkpt lat="56.5066003" lon="85.0569550"><time>2023-08-20T04:36:44.473</time></trkpt><trkpt lat="56.5066326" lon="85.0570370"><time>2023-08-20T04:36:46.497</time></trkpt><trkpt lat="56.5066683" lon="85.0571019"><time>2023-08-20T04:36:49.470</time></trkpt><trkpt lat="56.5067113" lon="85.0571456"><time>2023-08-20T04:36:52.470</time></trkpt><trkpt lat="56.5067555" lon="85.0571783"><time>2023-08-20T04:36:54.483</time></trkpt><trkpt lat="56.5067102" lon="85.0572128"><time>2023-08-20T04:36:59.483</time></trkpt><trkpt lat="56.5067202" lon="85.0571235"><time>2023-08-20T04:37:10.477</time></trkpt><trkpt lat="56.5067202" lon="85.0571235"><time>2023-08-20T04:37:10.817</time></trkpt><trkpt lat="56.5067561" lon="85.0570390"><time>2023-08-20T04:37:17.470</time></trkpt><trkpt lat="56.5067310" lon="85.0569688"><time>2023-08-20T04:37:19.467</time></trkpt><trkpt lat="56.5066830" lon="85.0569237"><time>2023-08-20T04:37:22.473</time></trkpt><trkpt lat="56.5066310" lon="85.0569155"><time>2023-08-20T04:37:34.490</time></trkpt><trkpt lat="56.5065715" lon="85.0569468"><time>2023-08-20T04:37:37.490</time></trkpt><trkpt lat="56.5065188" lon="85.0569225"><time>2023-08-20T04:37:40.473</time></trkpt><trkpt lat="56.5064668" lon="85.0569314"><time>2023-08-20T04:37:42.467</time></trkpt><trkpt lat="56.5064155" lon="85.0569194"><time>2023-08-20T04:37:44.487</time></trkpt><trkpt lat="56.5063591" lon="85.0569439"><time>2023-08-20T04:37:46.473</time></trkpt><trkpt lat="56.5062941" lon="85.0569901"><time>2023-08-20T04:37:48.493</time></trkpt><trkpt lat="56.5062279" lon="85.0570218"><time>2023-08-20T04:37:50.487</time></trkpt><trkpt lat="56.5061701" lon="85.0570541"><time>2023-08-20T04:37:52.473</time></trkpt><trkpt lat="56.5061255" lon="85.0571006"><time>2023-08-20T04:37:54.477</time></trkpt><trkpt lat="56.5060659" lon="85.0570795"><time>2023-08-20T04:37:56.470</time></trkpt><trkpt lat="56.5059907" lon="85.0570536"><time>2023-08-20T04:37:58.467</time></trkpt><trkpt lat="56.5059268" lon="85.0571037"><time>2023-08-20T04:38:00.480</time></trkpt><trkpt lat="56.5058701" lon="85.0571254"><time>2023-08-20T04:38:02.473</time></trkpt><trkpt lat="56.5058254" lon="85.0571447"><time>2023-08-20T04:38:04.467</time></trkpt><trkpt lat="56.5057685" lon="85.0571416"><time>2023-08-20T04:38:07.487</time></trkpt><trkpt lat="56.5057092" lon="85.0571893"><time>2023-08-20T04:38:10.483</time></trkpt><trkpt lat="56.5056758" lon="85.0572673"><time>2023-08-20T04:38:12.493</time></trkpt><trkpt lat="56.5056257" lon="85.0573486"><time>2023-08-20T04:38:14.470</time></trkpt><trkpt lat="56.5055698" lon="85.0574297"><time>2023-08-20T04:38:16.467</time></trkpt><trkpt lat="56.5055338" lon="85.0575126"><time>2023-08-20T04:38:18.467</time></trkpt><trkpt lat="56.5054874" lon="85.0576136"><time>2023-08-20T04:38:20.463</time></trkpt><trkpt lat="56.5054418" lon="85.0576980"><time>2023-08-20T04:38:22.470</time></trkpt><trkpt lat="56.5053982" lon="85.0577519"><time>2023-08-20T04:38:24.473</time></trkpt><trkpt lat="56.5053504" lon="85.0578056"><time>2023-08-20T04:38:26.473</time></trkpt><trkpt lat="56.5052946" lon="85.0578970"><time>2023-08-20T04:38:29.487</time></trkpt><trkpt lat="56.5052499" lon="85.0579858"><time>2023-08-20T04:38:31.497</time></trkpt><trkpt lat="56.5052234" lon="85.0580865"><time>2023-08-20T04:38:33.533</time></trkpt><trkpt lat="56.5052328" lon="85.0581934"><time>2023-08-20T04:38:35.467</time></trkpt><trkpt lat="56.5052587" lon="85.0582746"><time>2023-08-20T04:38:37.463</time></trkpt><trkpt lat="56.5052752" lon="85.0583531"><time>2023-08-20T04:38:39.477</time></trkpt><trkpt lat="56.5052609" lon="85.0584343"><time>2023-08-20T04:38:41.480</time></trkpt><trkpt lat="56.5052325" lon="85.0585213"><time>2023-08-20T04:38:44.477</time></trkpt><trkpt lat="56.5052809" lon="85.0585930"><time>2023-08-20T04:38:47.493</time></trkpt><trkpt lat="56.5052618" lon="85.0586827"><time>2023-08-20T04:38:50.487</time></trkpt><trkpt lat="56.5052069" lon="85.0587268"><time>2023-08-20T04:38:52.467</time></trkpt><trkpt lat="56.5051625" lon="85.0587407"><time>2023-08-20T04:38:54.477</time></trkpt><trkpt lat="56.5051310" lon="85.0588228"><time>2023-08-20T04:38:57.487</time></trkpt><trkpt lat="56.5051465" lon="85.0589064"><time>2023-08-20T04:39:03.487</time></trkpt><trkpt lat="56.5051021" lon="85.0588729"><time>2023-08-20T04:39:11.490</time></trkpt><trkpt lat="56.5050644" lon="85.0589248"><time>2023-08-20T04:39:24.477</time></trkpt><trkpt lat="56.5050187" lon="85.0589544"><time>2023-08-20T04:39:32.487</time></trkpt><trkpt lat="56.5050226" lon="85.0590390"><time>2023-08-20T04:39:38.470</time></trkpt><trkpt lat="56.5049837" lon="85.0590921"><time>2023-08-20T04:39:51.470</time></trkpt><trkpt lat="56.5050011" lon="85.0591686"><time>2023-08-20T04:39:53.487</time></trkpt><trkpt lat="56.5050081" lon="85.0592605"><time>2023-08-20T04:39:55.470</time></trkpt><trkpt lat="56.5050045" lon="85.0593541"><time>2023-08-20T04:39:57.493</time></trkpt><trkpt lat="56.5050069" lon="85.0594656"><time>2023-08-20T04:39:59.490</time></trkpt><trkpt lat="56.5050186" lon="85.0595720"><time>2023-08-20T04:40:01.490</time></trkpt><trkpt lat="56.5050252" lon="85.0596783"><time>2023-08-20T04:40:03.473</time></trkpt><trkpt lat="56.5050201" lon="85.0597726"><time>2023-08-20T04:40:10.467</time></trkpt><trkpt lat="56.5050220" lon="85.0598579"><time>2023-08-20T04:40:12.470</time></trkpt><trkpt lat="56.5050263" lon="85.0599649"><time>2023-08-20T04:40:15.470</time></trkpt><trkpt lat="56.5050471" lon="85.0600711"><time>2023-08-20T04:40:18.473</time></trkpt><trkpt lat="56.5050556" lon="85.0601716"><time>2023-08-20T04:40:23.490</time></trkpt><trkpt lat="56.5050707" lon="85.0602782"><time>2023-08-20T04:40:26.483</time></trkpt><trkpt lat="56.5050769" lon="85.0603790"><time>2023-08-20T04:40:29.480</time></trkpt><trkpt lat="56.5050775" lon="85.0604614"><time>2023-08-20T04:40:31.480</time></trkpt><trkpt lat="56.5050565" lon="85.0605700"><time>2023-08-20T04:40:34.467</time></trkpt><trkpt lat="56.5050559" lon="85.0606700"><time>2023-08-20T04:40:36.493</time></trkpt><trkpt lat="56.5050672" lon="85.0607567"><time>2023-08-20T04:40:38.487</time></trkpt><trkpt lat="56.5050691" lon="85.0608654"><time>2023-08-20T04:40:41.470</time></trkpt><trkpt lat="56.5050748" lon="85.0609503"><time>2023-08-20T04:40:43.477</time></trkpt><trkpt lat="56.5050812" lon="85.0610311"><time>2023-08-20T04:40:45.473</time></trkpt><trkpt lat="56.5050919" lon="85.0611121"><time>2023-08-20T04:40:47.473</time></trkpt><trkpt lat="56.5051015" lon="85.0612257"><time>2023-08-20T04:40:50.487</time></trkpt><trkpt lat="56.5050875" lon="85.0613353"><time>2023-08-20T04:40:53.477</time></trkpt><trkpt lat="56.5050907" lon="85.0614493"><time>2023-08-20T04:40:56.480</time></trkpt><trkpt lat="56.5051045" lon="85.0615305"><time>2023-08-20T04:40:58.490</time></trkpt><trkpt lat="56.5051110" lon="85.0616372"><time>2023-08-20T04:41:01.487</time></trkpt><trkpt lat="56.5051173" lon="85.0617188"><time>2023-08-20T04:41:03.473</time></trkpt><trkpt lat="56.5051235" lon="85.0618054"><time>2023-08-20T04:41:05.490</time></trkpt><trkpt lat="56.5051269" lon="85.0618940"><time>2023-08-20T04:41:07.477</time></trkpt><trkpt lat="56.5051413" lon="85.0619849"><time>2023-08-20T04:41:09.483</time></trkpt><trkpt lat="56.5051737" lon="85.0620712"><time>2023-08-20T04:41:11.477</time></trkpt><trkpt lat="56.5051947" lon="85.0621602"><time>2023-08-20T04:41:13.487</time></trkpt><trkpt lat="56.5052147" lon="85.0622441"><time>2023-08-20T04:41:15.483</time></trkpt><trkpt lat="56.5052240" lon="85.0623509"><time>2023-08-20T04:41:17.480</time></trkpt><trkpt lat="56.5052284" lon="85.0624467"><time>2023-08-20T04:41:19.477</time></trkpt><trkpt lat="56.5052642" lon="85.0625297"><time>2023-08-20T04:41:22.473</time></trkpt><trkpt lat="56.5052858" lon="85.0626303"><time>2023-08-20T04:41:25.470</time></trkpt><trkpt lat="56.5052812" lon="85.0627245"><time>2023-08-20T04:41:27.467</time></trkpt><trkpt lat="56.5052461" lon="85.0628210"><time>2023-08-20T04:41:29.470</time></trkpt><trkpt lat="56.5052219" lon="85.0629019"><time>2023-08-20T04:41:31.467</time></trkpt><trkpt lat="56.5052191" lon="85.0629831"><time>2023-08-20T04:41:33.473</time></trkpt><trkpt lat="56.5052386" lon="85.0630958"><time>2023-08-20T04:41:36.470</time></trkpt><trkpt lat="56.5052574" lon="85.0632068"><time>2023-08-20T04:41:39.470</time></trkpt><trkpt lat="56.5052643" lon="85.0632975"><time>2023-08-20T04:41:41.470</time></trkpt><trkpt lat="56.5052828" lon="85.0634184"><time>2023-08-20T04:41:44.487</time></trkpt><trkpt lat="56.5052940" lon="85.0635118"><time>2023-08-20T04:41:46.553</time></trkpt><trkpt lat="56.5052995" lon="85.0636069"><time>2023-08-20T04:41:48.463</time></trkpt><trkpt lat="56.5052920" lon="85.0637095"><time>2023-08-20T04:41:50.470</time></trkpt><trkpt lat="56.5052930" lon="85.0638248"><time>2023-08-20T04:41:53.487</time></trkpt><trkpt lat="56.5053052" lon="85.0639337"><time>2023-08-20T04:41:55.487</time></trkpt><trkpt lat="56.5052992" lon="85.0640192"><time>2023-08-20T04:41:57.490</time></trkpt><trkpt lat="56.5053031" lon="85.0641401"><time>2023-08-20T04:42:00.470</time></trkpt><trkpt lat="56.5053054" lon="85.0642363"><time>2023-08-20T04:42:02.483</time></trkpt><trkpt lat="56.5053074" lon="85.0643312"><time>2023-08-20T04:42:04.487</time></trkpt><trkpt lat="56.5053193" lon="85.0644310"><time>2023-08-20T04:42:06.487</time></trkpt><trkpt lat="56.5053171" lon="85.0645199"><time>2023-08-20T04:42:08.470</time></trkpt><trkpt lat="56.5053222" lon="85.0646331"><time>2023-08-20T04:42:11.470</time></trkpt><trkpt lat="56.5053299" lon="85.0647529"><time>2023-08-20T04:42:14.473</time></trkpt><trkpt lat="56.5053394" lon="85.0648334"><time>2023-08-20T04:42:16.477</time></trkpt><trkpt lat="56.5053463" lon="85.0649253"><time>2023-08-20T04:42:18.467</time></trkpt><trkpt lat="56.5053432" lon="85.0650287"><time>2023-08-20T04:42:20.470</time></trkpt><trkpt lat="56.5053579" lon="85.0651287"><time>2023-08-20T04:42:22.490</time></trkpt><trkpt lat="56.5053724" lon="85.0652239"><time>2023-08-20T04:42:24.483</time></trkpt><trkpt lat="56.5053717" lon="85.0653154"><time>2023-08-20T04:42:26.487</time></trkpt><trkpt lat="56.5053511" lon="85.0654041"><time>2023-08-20T04:42:28.490</time></trkpt><trkpt lat="56.5053525" lon="85.0654969"><time>2023-08-20T04:42:30.490</time></trkpt><trkpt lat="56.5053442" lon="85.0655835"><time>2023-08-20T04:42:32.467</time></trkpt><trkpt lat="56.5053510" lon="85.0656719"><time>2023-08-20T04:42:34.477</time></trkpt><trkpt lat="56.5053415" lon="85.0657697"><time>2023-08-20T04:42:36.480</time></trkpt><trkpt lat="56.5053355" lon="85.0658666"><time>2023-08-20T04:42:38.477</time></trkpt><trkpt lat="56.5053365" lon="85.0659612"><time>2023-08-20T04:42:40.477</time></trkpt><trkpt lat="56.5053391" lon="85.0660591"><time>2023-08-20T04:42:42.487</time></trkpt><trkpt lat="56.5053509" lon="85.0661507"><time>2023-08-20T04:42:44.490</time></trkpt><trkpt lat="56.5053636" lon="85.0662593"><time>2023-08-20T04:42:46.480</time></trkpt><trkpt lat="56.5053687" lon="85.0663770"><time>2023-08-20T04:42:48.487</time></trkpt><trkpt lat="56.5053719" lon="85.0665053"><time>2023-08-20T04:42:50.477</time></trkpt><trkpt lat="56.5053740" lon="85.0666057"><time>2023-08-20T04:42:52.473</time></trkpt><trkpt lat="56.5053737" lon="85.0666980"><time>2023-08-20T04:42:54.470</time></trkpt><trkpt lat="56.5053685" lon="85.0667885"><time>2023-08-20T04:42:56.470</time></trkpt><trkpt lat="56.5053706" lon="85.0668721"><time>2023-08-20T04:42:58.470</time></trkpt><trkpt lat="56.5053671" lon="85.0669596"><time>2023-08-20T04:43:00.463</time></trkpt><trkpt lat="56.5053595" lon="85.0670413"><time>2023-08-20T04:43:02.477</time></trkpt><trkpt lat="56.5053829" lon="85.0671136"><time>2023-08-20T04:43:04.483</time></trkpt><trkpt lat="56.5054065" lon="85.0671840"><time>2023-08-20T04:43:08.480</time></trkpt><trkpt lat="56.5053957" lon="85.0673013"><time>2023-08-20T04:43:11.477</time></trkpt><trkpt lat="56.5054018" lon="85.0673824"><time>2023-08-20T04:43:13.470</time></trkpt><trkpt lat="56.5054078" lon="85.0674762"><time>2023-08-20T04:43:15.477</time></trkpt><trkpt lat="56.5054147" lon="85.0675696"><time>2023-08-20T04:43:17.473</time></trkpt><trkpt lat="56.5054202" lon="85.0676552"><time>2023-08-20T04:43:19.467</time></trkpt><trkpt lat="56.5054170" lon="85.0677547"><time>2023-08-20T04:43:22.487</time></trkpt><trkpt lat="56.5054297" lon="85.0678449"><time>2023-08-20T04:43:25.490</time></trkpt><trkpt lat="56.5054430" lon="85.0679556"><time>2023-08-20T04:43:28.473</time></trkpt><trkpt lat="56.5054353" lon="85.0680515"><time>2023-08-20T04:43:30.490</time></trkpt><trkpt lat="56.5054230" lon="85.0681838"><time>2023-08-20T04:43:32.477</time></trkpt><trkpt lat="56.5054679" lon="85.0682429"><time>2023-08-20T04:43:34.473</time></trkpt><trkpt lat="56.5054558" lon="85.0683598"><time>2023-08-20T04:43:37.483</time></trkpt><trkpt lat="56.5054428" lon="85.0684480"><time>2023-08-20T04:43:39.483</time></trkpt><trkpt lat="56.5054421" lon="85.0685512"><time>2023-08-20T04:43:41.470</time></trkpt><trkpt lat="56.5054437" lon="85.0686443"><time>2023-08-20T04:43:43.467</time></trkpt><trkpt lat="56.5054359" lon="85.0687357"><time>2023-08-20T04:43:50.467</time></trkpt><trkpt lat="56.5054212" lon="85.0688337"><time>2023-08-20T04:44:00.493</time></trkpt><trkpt lat="56.5054248" lon="85.0689497"><time>2023-08-20T04:44:02.483</time></trkpt><trkpt lat="56.5054028" lon="85.0690378"><time>2023-08-20T04:44:04.513</time></trkpt><trkpt lat="56.5054021" lon="85.0691193"><time>2023-08-20T04:44:06.490</time></trkpt><trkpt lat="56.5054006" lon="85.0692090"><time>2023-08-20T04:44:08.477</time></trkpt><trkpt lat="56.5053887" lon="85.0692942"><time>2023-08-20T04:44:10.470</time></trkpt><trkpt lat="56.5053921" lon="85.0693948"><time>2023-08-20T04:44:12.480</time></trkpt><trkpt lat="56.5053753" lon="85.0694780"><time>2023-08-20T04:44:14.477</time></trkpt><trkpt lat="56.5053567" lon="85.0695636"><time>2023-08-20T04:44:16.473</time></trkpt><trkpt lat="56.5053623" lon="85.0696574"><time>2023-08-20T04:44:18.477</time></trkpt><trkpt lat="56.5053957" lon="85.0697442"><time>2023-08-20T04:44:20.470</time></trkpt><trkpt lat="56.5053992" lon="85.0698608"><time>2023-08-20T04:44:22.473</time></trkpt><trkpt lat="56.5054084" lon="85.0699541"><time>2023-08-20T04:44:24.467</time></trkpt><trkpt lat="56.5053998" lon="85.0700451"><time>2023-08-20T04:44:26.467</time></trkpt><trkpt lat="56.5054001" lon="85.0701423"><time>2023-08-20T04:44:28.473</time></trkpt><trkpt lat="56.5054027" lon="85.0702366"><time>2023-08-20T04:44:30.470</time></trkpt><trkpt lat="56.5054100" lon="85.0703421"><time>2023-08-20T04:44:32.473</time></trkpt><trkpt lat="56.5054172" lon="85.0704317"><time>2023-08-20T04:44:34.470</time></trkpt><trkpt lat="56.5054230" lon="85.0705381"><time>2023-08-20T04:44:36.470</time></trkpt><trkpt lat="56.5054265" lon="85.0706443"><time>2023-08-20T04:44:38.470</time></trkpt><trkpt lat="56.5054311" lon="85.0707396"><time>2023-08-20T04:44:40.470</time></trkpt><trkpt lat="56.5054303" lon="85.0708283"><time>2023-08-20T04:44:42.467</time></trkpt><trkpt lat="56.5054043" lon="85.0708972"><time>2023-08-20T04:44:46.470</time></trkpt><trkpt lat="56.5054606" lon="85.0709486"><time>2023-08-20T04:44:52.477</time></trkpt><trkpt lat="56.5054707" lon="85.0710590"><time>2023-08-20T04:44:55.480</time></trkpt><trkpt lat="56.5054659" lon="85.0711405"><time>2023-08-20T04:44:57.473</time></trkpt><trkpt lat="56.5054562" lon="85.0712340"><time>2023-08-20T04:44:59.493</time></trkpt><trkpt lat="56.5054511" lon="85.0713312"><time>2023-08-20T04:45:01.480</time></trkpt><trkpt lat="56.5054367" lon="85.0714143"><time>2023-08-20T04:45:03.477</time></trkpt><trkpt lat="56.5054530" lon="85.0714968"><time>2023-08-20T04:45:05.470</time></trkpt><trkpt lat="56.5054617" lon="85.0715875"><time>2023-08-20T04:45:07.477</time></trkpt><trkpt lat="56.5054735" lon="85.0716759"><time>2023-08-20T04:45:09.487</time></trkpt><trkpt lat="56.5054858" lon="85.0717915"><time>2023-08-20T04:45:12.490</time></trkpt><trkpt lat="56.5054897" lon="85.0718769"><time>2023-08-20T04:45:16.477</time></trkpt><trkpt lat="56.5054552" lon="85.0719411"><time>2023-08-20T04:45:21.473</time></trkpt><trkpt lat="56.5054599" lon="85.0720367"><time>2023-08-20T04:45:27.487</time></trkpt><trkpt lat="56.5054678" lon="85.0721338"><time>2023-08-20T04:45:30.470</time></trkpt><trkpt lat="56.5055094" lon="85.0722175"><time>2023-08-20T04:45:33.477</time></trkpt><trkpt lat="56.5055404" lon="85.0723088"><time>2023-08-20T04:45:36.470</time></trkpt><trkpt lat="56.5055740" lon="85.0723865"><time>2023-08-20T04:45:39.477</time></trkpt><trkpt lat="56.5055906" lon="85.0724721"><time>2023-08-20T04:45:43.477</time></trkpt><trkpt lat="56.5056006" lon="85.0725662"><time>2023-08-20T04:45:46.470</time></trkpt><trkpt lat="56.5056076" lon="85.0726664"><time>2023-08-20T04:45:50.467</time></trkpt><trkpt lat="56.5056547" lon="85.0727227"><time>2023-08-20T04:45:53.473</time></trkpt><trkpt lat="56.5056583" lon="85.0728201"><time>2023-08-20T04:45:56.467</time></trkpt><trkpt lat="56.5056944" lon="85.0728738"><time>2023-08-20T04:45:58.473</time></trkpt><trkpt lat="56.5057318" lon="85.0729695"><time>2023-08-20T04:46:01.473</time></trkpt><trkpt lat="56.5057770" lon="85.0729968"><time>2023-08-20T04:46:03.470</time></trkpt><trkpt lat="56.5058079" lon="85.0730585"><time>2023-08-20T04:46:05.470</time></trkpt><trkpt lat="56.5058410" lon="85.0731478"><time>2023-08-20T04:46:08.470</time></trkpt><trkpt lat="56.5058689" lon="85.0732177"><time>2023-08-20T04:46:10.480</time></trkpt><trkpt lat="56.5059013" lon="85.0732941"><time>2023-08-20T04:46:12.470</time></trkpt><trkpt lat="56.5059303" lon="85.0733824"><time>2023-08-20T04:46:15.487</time></trkpt><trkpt lat="56.5059485" lon="85.0734810"><time>2023-08-20T04:46:18.473</time></trkpt><trkpt lat="56.5059677" lon="85.0735851"><time>2023-08-20T04:46:21.473</time></trkpt><trkpt lat="56.5060010" lon="85.0736767"><time>2023-08-20T04:46:24.470</time></trkpt><trkpt lat="56.5060250" lon="85.0737905"><time>2023-08-20T04:46:27.467</time></trkpt><trkpt lat="56.5060510" lon="85.0738863"><time>2023-08-20T04:46:30.467</time></trkpt><trkpt lat="56.5060792" lon="85.0739556"><time>2023-08-20T04:46:34.470</time></trkpt><trkpt lat="56.5061094" lon="85.0740327"><time>2023-08-20T04:46:38.480</time></trkpt><trkpt lat="56.5061414" lon="85.0741170"><time>2023-08-20T04:46:42.483</time></trkpt><trkpt lat="56.5061398" lon="85.0742047"><time>2023-08-20T04:46:47.470</time></trkpt><trkpt lat="56.5061025" lon="85.0741191"><time>2023-08-20T04:46:50.467</time></trkpt><trkpt lat="56.5060540" lon="85.0741434"><time>2023-08-20T04:47:00.473</time></trkpt><trkpt lat="56.5060181" lon="85.0740790"><time>2023-08-20T04:47:07.493</time></trkpt><trkpt lat="56.5059730" lon="85.0740228"><time>2023-08-20T04:47:10.473</time></trkpt><trkpt lat="56.5059174" lon="85.0740531"><time>2023-08-20T04:47:13.487</time></trkpt><trkpt lat="56.5058668" lon="85.0740577"><time>2023-08-20T04:47:19.493</time></trkpt><trkpt lat="56.5058640" lon="85.0739576"><time>2023-08-20T04:47:23.470</time></trkpt><trkpt lat="56.5058680" lon="85.0738594"><time>2023-08-20T04:47:26.470</time></trkpt><trkpt lat="56.5058534" lon="85.0739540"><time>2023-08-20T04:47:40.483</time></trkpt><trkpt lat="56.5058484" lon="85.0740500"><time>2023-08-20T04:47:44.470</time></trkpt><trkpt lat="56.5058210" lon="85.0741168"><time>2023-08-20T04:47:48.470</time></trkpt><trkpt lat="56.5058131" lon="85.0742061"><time>2023-08-20T04:47:53.557</time></trkpt><trkpt lat="56.5057691" lon="85.0742365"><time>2023-08-20T04:47:56.477</time></trkpt><trkpt lat="56.5057461" lon="85.0741453"><time>2023-08-20T04:47:59.487</time></trkpt><trkpt lat="56.5056859" lon="85.0741664"><time>2023-08-20T04:48:01.490</time></trkpt><trkpt lat="56.5056434" lon="85.0741940"><time>2023-08-20T04:48:04.487</time></trkpt><trkpt lat="56.5055901" lon="85.0741893"><time>2023-08-20T04:48:10.480</time></trkpt><trkpt lat="56.5055439" lon="85.0741820"><time>2023-08-20T04:48:14.500</time></trkpt><trkpt lat="56.5055062" lon="85.0741292"><time>2023-08-20T04:48:19.483</time></trkpt><trkpt lat="56.5054587" lon="85.0741069"><time>2023-08-20T04:48:23.483</time></trkpt><trkpt lat="56.5054087" lon="85.0740618"><time>2023-08-20T04:48:28.490</time></trkpt><trkpt lat="56.5053743" lon="85.0741263"><time>2023-08-20T04:48:35.480</time></trkpt><trkpt lat="56.5053790" lon="85.0741704"><time>2023-08-20T04:48:39.350</time></trkpt><trkpt lat="56.5053277" lon="85.0741661"><time>2023-08-20T04:48:48.473</time></trkpt><trkpt lat="56.5052974" lon="85.0741002"><time>2023-08-20T04:48:51.507</time></trkpt><trkpt lat="56.5052469" lon="85.0740459"><time>2023-08-20T04:48:54.467</time></trkpt><trkpt lat="56.5051871" lon="85.0740125"><time>2023-08-20T04:48:57.480</time></trkpt><trkpt lat="56.5051513" lon="85.0739553"><time>2023-08-20T04:48:59.483</time></trkpt><trkpt lat="56.5050909" lon="85.0739312"><time>2023-08-20T04:49:02.470</time></trkpt><trkpt lat="56.5050410" lon="85.0739343"><time>2023-08-20T04:49:05.463</time></trkpt><trkpt lat="56.5049914" lon="85.0739447"><time>2023-08-20T04:49:08.477</time></trkpt><trkpt lat="56.5049384" lon="85.0739514"><time>2023-08-20T04:49:11.483</time></trkpt><trkpt lat="56.5048826" lon="85.0739502"><time>2023-08-20T04:49:14.487</time></trkpt><trkpt lat="56.5048308" lon="85.0739764"><time>2023-08-20T04:49:17.487</time></trkpt><trkpt lat="56.5047747" lon="85.0739812"><time>2023-08-20T04:49:20.473</time></trkpt><trkpt lat="56.5047205" lon="85.0739779"><time>2023-08-20T04:49:23.467</time></trkpt><trkpt lat="56.5046960" lon="85.0738998"><time>2023-08-20T04:49:29.503</time></trkpt><trkpt lat="56.5046720" lon="85.0738186"><time>2023-08-20T04:49:32.463</time></trkpt><trkpt lat="56.5046436" lon="85.0737402"><time>2023-08-20T04:49:34.473</time></trkpt><trkpt lat="56.5046106" lon="85.0736841"><time>2023-08-20T04:49:36.477</time></trkpt><trkpt lat="56.5045692" lon="85.0736149"><time>2023-08-20T04:49:38.473</time></trkpt><trkpt lat="56.5045331" lon="85.0735489"><time>2023-08-20T04:49:40.483</time></trkpt><trkpt lat="56.5045015" lon="85.0734638"><time>2023-08-20T04:49:43.467</time></trkpt><trkpt lat="56.5044539" lon="85.0734541"><time>2023-08-20T04:49:46.477</time></trkpt><trkpt lat="56.5044060" lon="85.0734117"><time>2023-08-20T04:49:49.497</time></trkpt><trkpt lat="56.5043702" lon="85.0732983"><time>2023-08-20T04:49:52.487</time></trkpt><trkpt lat="56.5043222" lon="85.0732298"><time>2023-08-20T04:49:54.467</time></trkpt><trkpt lat="56.5042687" lon="85.0732592"><time>2023-08-20T04:49:56.490</time></trkpt><trkpt lat="56.5042116" lon="85.0732869"><time>2023-08-20T04:49:58.487</time></trkpt><trkpt lat="56.5041782" lon="85.0733430"><time>2023-08-20T04:50:00.493</time></trkpt><trkpt lat="56.5041326" lon="85.0733584"><time>2023-08-20T04:50:02.490</time></trkpt><trkpt lat="56.5040873" lon="85.0733998"><time>2023-08-20T04:50:04.483</time></trkpt><trkpt lat="56.5040535" lon="85.0734625"><time>2023-08-20T04:50:06.537</time></trkpt><trkpt lat="56.5040083" lon="85.0735299"><time>2023-08-20T04:50:10.473</time></trkpt><trkpt lat="56.5039463" lon="85.0735847"><time>2023-08-20T04:50:13.470</time></trkpt><trkpt lat="56.5038869" lon="85.0736408"><time>2023-08-20T04:50:15.487</time></trkpt><trkpt lat="56.5038291" lon="85.0736665"><time>2023-08-20T04:50:17.490</time></trkpt><trkpt lat="56.5037812" lon="85.0737056"><time>2023-08-20T04:50:19.487</time></trkpt><trkpt lat="56.5037309" lon="85.0737391"><time>2023-08-20T04:50:21.487</time></trkpt><trkpt lat="56.5036823" lon="85.0737584"><time>2023-08-20T04:50:23.487</time></trkpt><trkpt lat="56.5036315" lon="85.0737944"><time>2023-08-20T04:50:25.487</time></trkpt><trkpt lat="56.5035849" lon="85.0738284"><time>2023-08-20T04:50:27.487</time></trkpt><trkpt lat="56.5035345" lon="85.0738527"><time>2023-08-20T04:50:29.487</time></trkpt><trkpt lat="56.5034879" lon="85.0738747"><time>2023-08-20T04:50:31.487</time></trkpt><trkpt lat="56.5034453" lon="85.0739069"><time>2023-08-20T04:50:33.490</time></trkpt><trkpt lat="56.5033848" lon="85.0739054"><time>2023-08-20T04:50:35.493</time></trkpt><trkpt lat="56.5033333" lon="85.0738786"><time>2023-08-20T04:50:37.483</time></trkpt><trkpt lat="56.5033148" lon="85.0737596"><time>2023-08-20T04:50:41.470</time></trkpt><trkpt lat="56.5033287" lon="85.0736754"><time>2023-08-20T04:50:42.487</time></trkpt><trkpt lat="56.5033484" lon="85.0735522"><time>2023-08-20T04:50:44.487</time></trkpt><trkpt lat="56.5033644" lon="85.0734575"><time>2023-08-20T04:50:46.487</time></trkpt><trkpt lat="56.5033805" lon="85.0733768"><time>2023-08-20T04:50:48.487</time></trkpt><trkpt lat="56.5033807" lon="85.0732825"><time>2023-08-20T04:50:50.487</time></trkpt><trkpt lat="56.5033908" lon="85.0731940"><time>2023-08-20T04:50:52.487</time></trkpt><trkpt lat="56.5033972" lon="85.0731006"><time>2023-08-20T04:50:54.483</time></trkpt><trkpt lat="56.5034146" lon="85.0730012"><time>2023-08-20T04:50:56.487</time></trkpt><trkpt lat="56.5034212" lon="85.0729010"><time>2023-08-20T04:50:58.490</time></trkpt><trkpt lat="56.5034107" lon="85.0728003"><time>2023-08-20T04:51:00.487</time></trkpt><trkpt lat="56.5033782" lon="85.0727084"><time>2023-08-20T04:51:02.470</time></trkpt><trkpt lat="56.5033216" lon="85.0726638"><time>2023-08-20T04:51:04.477</time></trkpt><trkpt lat="56.5032724" lon="85.0726265"><time>2023-08-20T04:51:06.470</time></trkpt><trkpt lat="56.5032359" lon="85.0725695"><time>2023-08-20T04:51:08.470</time></trkpt><trkpt lat="56.5031977" lon="85.0725247"><time>2023-08-20T04:51:12.487</time></trkpt><trkpt lat="56.5031399" lon="85.0724792"><time>2023-08-20T04:51:15.487</time></trkpt><trkpt lat="56.5030856" lon="85.0724347"><time>2023-08-20T04:51:17.487</time></trkpt><trkpt lat="56.5030348" lon="85.0723916"><time>2023-08-20T04:51:19.490</time></trkpt><trkpt lat="56.5029822" lon="85.0723590"><time>2023-08-20T04:51:21.487</time></trkpt><trkpt lat="56.5029380" lon="85.0723072"><time>2023-08-20T04:51:23.490</time></trkpt><trkpt lat="56.5029076" lon="85.0722337"><time>2023-08-20T04:51:25.467</time></trkpt><trkpt lat="56.5028903" lon="85.0721225"><time>2023-08-20T04:51:27.470</time></trkpt><trkpt lat="56.5028751" lon="85.0720447"><time>2023-08-20T04:51:29.470</time></trkpt><trkpt lat="56.5028820" lon="85.0719556"><time>2023-08-20T04:51:31.470</time></trkpt><trkpt lat="56.5028908" lon="85.0718499"><time>2023-08-20T04:51:33.470</time></trkpt><trkpt lat="56.5029005" lon="85.0717408"><time>2023-08-20T04:51:35.487</time></trkpt><trkpt lat="56.5029218" lon="85.0716190"><time>2023-08-20T04:51:37.473</time></trkpt><trkpt lat="56.5029193" lon="85.0715377"><time>2023-08-20T04:51:39.467</time></trkpt><trkpt lat="56.5029624" lon="85.0714479"><time>2023-08-20T04:51:41.470</time></trkpt><trkpt lat="56.5029821" lon="85.0713471"><time>2023-08-20T04:51:43.477</time></trkpt><trkpt lat="56.5030077" lon="85.0712569"><time>2023-08-20T04:51:45.470</time></trkpt><trkpt lat="56.5030292" lon="85.0711703"><time>2023-08-20T04:51:51.487</time></trkpt><trkpt lat="56.5030568" lon="85.0710766"><time>2023-08-20T04:51:54.470</time></trkpt><trkpt lat="56.5030886" lon="85.0710055"><time>2023-08-20T04:51:56.477</time></trkpt><trkpt lat="56.5031118" lon="85.0709281"><time>2023-08-20T04:51:58.470</time></trkpt><trkpt lat="56.5031199" lon="85.0708320"><time>2023-08-20T04:52:00.467</time></trkpt><trkpt lat="56.5031363" lon="85.0707438"><time>2023-08-20T04:52:02.477</time></trkpt><trkpt lat="56.5031530" lon="85.0706650"><time>2023-08-20T04:52:04.480</time></trkpt><trkpt lat="56.5031498" lon="85.0705632"><time>2023-08-20T04:52:06.487</time></trkpt><trkpt lat="56.5031510" lon="85.0704810"><time>2023-08-20T04:52:08.467</time></trkpt><trkpt lat="56.5031445" lon="85.0703879"><time>2023-08-20T04:52:10.483</time></trkpt><trkpt lat="56.5031513" lon="85.0702766"><time>2023-08-20T04:52:12.487</time></trkpt><trkpt lat="56.5031759" lon="85.0701913"><time>2023-08-20T04:52:14.487</time></trkpt><trkpt lat="56.5032002" lon="85.0700947"><time>2023-08-20T04:52:16.467</time></trkpt><trkpt lat="56.5032312" lon="85.0699952"><time>2023-08-20T04:52:18.480</time></trkpt><trkpt lat="56.5032649" lon="85.0698986"><time>2023-08-20T04:52:21.480</time></trkpt><trkpt lat="56.5033040" lon="85.0698171"><time>2023-08-20T04:52:23.473</time></trkpt><trkpt lat="56.5033201" lon="85.0697243"><time>2023-08-20T04:52:25.480</time></trkpt><trkpt lat="56.5033328" lon="85.0696272"><time>2023-08-20T04:52:27.467</time></trkpt><trkpt lat="56.5033480" lon="85.0695007"><time>2023-08-20T04:52:29.470</time></trkpt><trkpt lat="56.5033483" lon="85.0693865"><time>2023-08-20T04:52:31.470</time></trkpt><trkpt lat="56.5033572" lon="85.0692592"><time>2023-08-20T04:52:33.470</time></trkpt><trkpt lat="56.5033732" lon="85.0691755"><time>2023-08-20T04:52:35.470</time></trkpt><trkpt lat="56.5033789" lon="85.0690718"><time>2023-08-20T04:52:37.467</time></trkpt><trkpt lat="56.5033777" lon="85.0689834"><time>2023-08-20T04:52:52.497</time></trkpt><trkpt lat="56.5033868" lon="85.0688859"><time>2023-08-20T04:52:56.493</time></trkpt><trkpt lat="56.5033950" lon="85.0688040"><time>2023-08-20T04:52:58.477</time></trkpt><trkpt lat="56.5034222" lon="85.0687272"><time>2023-08-20T04:53:00.473</time></trkpt><trkpt lat="56.5034576" lon="85.0686444"><time>2023-08-20T04:53:02.480</time></trkpt><trkpt lat="56.5034913" lon="85.0685873"><time>2023-08-20T04:53:06.483</time></trkpt><trkpt lat="56.5035090" lon="85.0685066"><time>2023-08-20T04:53:15.470</time></trkpt><trkpt lat="56.5035456" lon="85.0684186"><time>2023-08-20T04:53:19.490</time></trkpt><trkpt lat="56.5035437" lon="85.0683363"><time>2023-08-20T04:53:22.497</time></trkpt><trkpt lat="56.5035641" lon="85.0682606"><time>2023-08-20T04:53:26.497</time></trkpt><trkpt lat="56.5035786" lon="85.0681748"><time>2023-08-20T04:53:29.480</time></trkpt><trkpt lat="56.5035889" lon="85.0680956"><time>2023-08-20T04:53:32.487</time></trkpt><trkpt lat="56.5036213" lon="85.0680038"><time>2023-08-20T04:53:35.490</time></trkpt><trkpt lat="56.5036222" lon="85.0679014"><time>2023-08-20T04:53:38.487</time></trkpt><trkpt lat="56.5036248" lon="85.0678046"><time>2023-08-20T04:53:41.477</time></trkpt><trkpt lat="56.5036427" lon="85.0677102"><time>2023-08-20T04:53:44.487</time></trkpt><trkpt lat="56.5036652" lon="85.0676325"><time>2023-08-20T04:53:46.487</time></trkpt><trkpt lat="56.5037078" lon="85.0675763"><time>2023-08-20T04:53:49.473</time></trkpt><trkpt lat="56.5037657" lon="85.0676076"><time>2023-08-20T04:53:52.470</time></trkpt><trkpt lat="56.5038084" lon="85.0676332"><time>2023-08-20T04:53:54.467</time></trkpt><trkpt lat="56.5038409" lon="85.0677350"><time>2023-08-20T04:53:57.470</time></trkpt><trkpt lat="56.5038710" lon="85.0678473"><time>2023-08-20T04:54:00.470</time></trkpt><trkpt lat="56.5038523" lon="85.0679502"><time>2023-08-20T04:54:03.470</time></trkpt><trkpt lat="56.5038487" lon="85.0680351"><time>2023-08-20T04:54:06.473</time></trkpt><trkpt lat="56.5038420" lon="85.0681164"><time>2023-08-20T04:54:10.467</time></trkpt><trkpt lat="56.5038466" lon="85.0682156"><time>2023-08-20T04:54:15.467</time></trkpt><trkpt lat="56.5038466" lon="85.0682156"><time>2023-08-20T04:54:15.977</time></trkpt><trkpt lat="56.5038690" lon="85.0681416"><time>2023-08-20T04:54:21.493</time></trkpt><trkpt lat="56.5038342" lon="85.0680015"><time>2023-08-20T04:54:32.483</time></trkpt><trkpt lat="56.5038057" lon="85.0678722"><time>2023-08-20T04:54:41.487</time></trkpt><trkpt lat="56.5037941" lon="85.0677677"><time>2023-08-20T04:54:43.507</time></trkpt><trkpt lat="56.5037676" lon="85.0676661"><time>2023-08-20T04:54:45.507</time></trkpt><trkpt lat="56.5037088" lon="85.0676336"><time>2023-08-20T04:54:48.477</time></trkpt><trkpt lat="56.5036548" lon="85.0675769"><time>2023-08-20T04:54:51.477</time></trkpt><trkpt lat="56.5036412" lon="85.0674771"><time>2023-08-20T04:54:53.473</time></trkpt><trkpt lat="56.5036688" lon="85.0673466"><time>2023-08-20T04:54:55.500</time></trkpt><trkpt lat="56.5036935" lon="85.0672332"><time>2023-08-20T04:54:57.487</time></trkpt><trkpt lat="56.5037065" lon="85.0671312"><time>2023-08-20T04:54:59.527</time></trkpt><trkpt lat="56.5037207" lon="85.0670215"><time>2023-08-20T04:55:01.477</time></trkpt><trkpt lat="56.5037418" lon="85.0669206"><time>2023-08-20T04:55:03.490</time></trkpt><trkpt lat="56.5037485" lon="85.0668133"><time>2023-08-20T04:55:05.500</time></trkpt><trkpt lat="56.5037691" lon="85.0667157"><time>2023-08-20T04:55:07.500</time></trkpt><trkpt lat="56.5037871" lon="85.0666156"><time>2023-08-20T04:55:09.487</time></trkpt><trkpt lat="56.5038099" lon="85.0665210"><time>2023-08-20T04:55:11.487</time></trkpt><trkpt lat="56.5038144" lon="85.0664277"><time>2023-08-20T04:55:13.490</time></trkpt><trkpt lat="56.5038260" lon="85.0663298"><time>2023-08-20T04:55:15.493</time></trkpt><trkpt lat="56.5038436" lon="85.0662378"><time>2023-08-20T04:55:17.490</time></trkpt><trkpt lat="56.5038713" lon="85.0661503"><time>2023-08-20T04:55:19.487</time></trkpt><trkpt lat="56.5038973" lon="85.0660487"><time>2023-08-20T04:55:21.493</time></trkpt><trkpt lat="56.5039150" lon="85.0659504"><time>2023-08-20T04:55:23.487</time></trkpt><trkpt lat="56.5039315" lon="85.0658550"><time>2023-08-20T04:55:25.487</time></trkpt><trkpt lat="56.5039530" lon="85.0657514"><time>2023-08-20T04:55:27.487</time></trkpt><trkpt lat="56.5039693" lon="85.0656448"><time>2023-08-20T04:55:29.493</time></trkpt><trkpt lat="56.5039820" lon="85.0655316"><time>2023-08-20T04:55:31.497</time></trkpt><trkpt lat="56.5039930" lon="85.0654301"><time>2023-08-20T04:55:33.490</time></trkpt><trkpt lat="56.5040075" lon="85.0653213"><time>2023-08-20T04:55:35.490</time></trkpt><trkpt lat="56.5040353" lon="85.0652247"><time>2023-08-20T04:55:37.467</time></trkpt><trkpt lat="56.5040540" lon="85.0651293"><time>2023-08-20T04:55:39.470</time></trkpt><trkpt lat="56.5040546" lon="85.0650217"><time>2023-08-20T04:55:41.473</time></trkpt><trkpt lat="56.5040477" lon="85.0649081"><time>2023-08-20T04:55:43.497</time></trkpt><trkpt lat="56.5040368" lon="85.0648143"><time>2023-08-20T04:55:46.477</time></trkpt><trkpt lat="56.5040290" lon="85.0646871"><time>2023-08-20T04:55:48.467</time></trkpt><trkpt lat="56.5040310" lon="85.0645652"><time>2023-08-20T04:55:50.493</time></trkpt><trkpt lat="56.5040260" lon="85.0644681"><time>2023-08-20T04:55:52.483</time></trkpt><trkpt lat="56.5039893" lon="85.0643990"><time>2023-08-20T04:55:54.480</time></trkpt><trkpt lat="56.5039525" lon="85.0643445"><time>2023-08-20T04:55:56.470</time></trkpt><trkpt lat="56.5039036" lon="85.0643362"><time>2023-08-20T04:55:59.470</time></trkpt><trkpt lat="56.5038880" lon="85.0644464"><time>2023-08-20T04:56:02.483</time></trkpt><trkpt lat="56.5038670" lon="85.0645360"><time>2023-08-20T04:56:11.470</time></trkpt><trkpt lat="56.5038486" lon="85.0646400"><time>2023-08-20T04:56:14.473</time></trkpt><trkpt lat="56.5038324" lon="85.0647484"><time>2023-08-20T04:56:17.497</time></trkpt><trkpt lat="56.5037897" lon="85.0648215"><time>2023-08-20T04:56:20.487</time></trkpt><trkpt lat="56.5037498" lon="85.0648701"><time>2023-08-20T04:56:23.490</time></trkpt><trkpt lat="56.5037050" lon="85.0649228"><time>2023-08-20T04:56:28.487</time></trkpt><trkpt lat="56.5036556" lon="85.0649538"><time>2023-08-20T04:56:31.490</time></trkpt><trkpt lat="56.5036094" lon="85.0650127"><time>2023-08-20T04:56:34.490</time></trkpt><trkpt lat="56.5035578" lon="85.0650562"><time>2023-08-20T04:56:37.463</time></trkpt><trkpt lat="56.5035143" lon="85.0651146"><time>2023-08-20T04:56:40.470</time></trkpt><trkpt lat="56.5034626" lon="85.0651615"><time>2023-08-20T04:56:43.467</time></trkpt><trkpt lat="56.5034150" lon="85.0652223"><time>2023-08-20T04:56:46.470</time></trkpt><trkpt lat="56.5033670" lon="85.0652581"><time>2023-08-20T04:56:49.493</time></trkpt><trkpt lat="56.5033210" lon="85.0652958"><time>2023-08-20T04:56:52.490</time></trkpt><trkpt lat="56.5032817" lon="85.0653633"><time>2023-08-20T04:56:55.483</time></trkpt><trkpt lat="56.5032136" lon="85.0654084"><time>2023-08-20T04:57:00.477</time></trkpt><trkpt lat="56.5031640" lon="85.0654241"><time>2023-08-20T04:57:02.477</time></trkpt><trkpt lat="56.5031189" lon="85.0654391"><time>2023-08-20T04:57:04.487</time></trkpt><trkpt lat="56.5030673" lon="85.0654327"><time>2023-08-20T04:57:07.487</time></trkpt><trkpt lat="56.5029982" lon="85.0654440"><time>2023-08-20T04:57:10.473</time></trkpt><trkpt lat="56.5029382" lon="85.0654800"><time>2023-08-20T04:57:13.470</time></trkpt><trkpt lat="56.5028746" lon="85.0654850"><time>2023-08-20T04:57:16.473</time></trkpt><trkpt lat="56.5028130" lon="85.0655110"><time>2023-08-20T04:57:19.470</time></trkpt><trkpt lat="56.5027544" lon="85.0655305"><time>2023-08-20T04:57:22.473</time></trkpt><trkpt lat="56.5027120" lon="85.0655831"><time>2023-08-20T04:57:25.513</time></trkpt><trkpt lat="56.5026889" lon="85.0656962"><time>2023-08-20T04:57:28.470</time></trkpt><trkpt lat="56.5026965" lon="85.0657805"><time>2023-08-20T04:57:30.470</time></trkpt><trkpt lat="56.5026707" lon="85.0658486"><time>2023-08-20T04:57:32.480</time></trkpt><trkpt lat="56.5026444" lon="85.0659320"><time>2023-08-20T04:57:34.467</time></trkpt><trkpt lat="56.5026189" lon="85.0660072"><time>2023-08-20T04:57:36.463</time></trkpt><trkpt lat="56.5026011" lon="85.0660881"><time>2023-08-20T04:57:38.483</time></trkpt><trkpt lat="56.5025907" lon="85.0661714"><time>2023-08-20T04:57:40.487</time></trkpt><trkpt lat="56.5025784" lon="85.0662518"><time>2023-08-20T04:57:42.473</time></trkpt><trkpt lat="56.5025654" lon="85.0663340"><time>2023-08-20T04:57:44.463</time></trkpt><trkpt lat="56.5025500" lon="85.0664208"><time>2023-08-20T04:57:46.467</time></trkpt><trkpt lat="56.5025330" lon="85.0665158"><time>2023-08-20T04:57:48.473</time></trkpt><trkpt lat="56.5025148" lon="85.0665970"><time>2023-08-20T04:57:50.470</time></trkpt><trkpt lat="56.5025076" lon="85.0666804"><time>2023-08-20T04:57:52.483</time></trkpt><trkpt lat="56.5025154" lon="85.0667719"><time>2023-08-20T04:57:54.477</time></trkpt><trkpt lat="56.5024821" lon="85.0668469"><time>2023-08-20T04:57:56.487</time></trkpt><trkpt lat="56.5024245" lon="85.0669107"><time>2023-08-20T04:57:58.463</time></trkpt><trkpt lat="56.5023716" lon="85.0669637"><time>2023-08-20T04:58:00.473</time></trkpt><trkpt lat="56.5023245" lon="85.0670135"><time>2023-08-20T04:58:02.487</time></trkpt><trkpt lat="56.5022827" lon="85.0670581"><time>2023-08-20T04:58:04.483</time></trkpt><trkpt lat="56.5022377" lon="85.0671037"><time>2023-08-20T04:58:06.480</time></trkpt><trkpt lat="56.5021930" lon="85.0671461"><time>2023-08-20T04:58:08.483</time></trkpt><trkpt lat="56.5021454" lon="85.0671873"><time>2023-08-20T04:58:10.483</time></trkpt><trkpt lat="56.5021032" lon="85.0672232"><time>2023-08-20T04:58:12.487</time></trkpt><trkpt lat="56.5020446" lon="85.0672718"><time>2023-08-20T04:58:15.480</time></trkpt><trkpt lat="56.5019904" lon="85.0673237"><time>2023-08-20T04:58:17.483</time></trkpt><trkpt lat="56.5019461" lon="85.0673721"><time>2023-08-20T04:58:19.473</time></trkpt><trkpt lat="56.5018933" lon="85.0673790"><time>2023-08-20T04:58:21.477</time></trkpt><trkpt lat="56.5018390" lon="85.0673848"><time>2023-08-20T04:58:23.473</time></trkpt><trkpt lat="56.5017874" lon="85.0673849"><time>2023-08-20T04:58:25.483</time></trkpt><trkpt lat="56.5017381" lon="85.0673680"><time>2023-08-20T04:58:27.487</time></trkpt><trkpt lat="56.5016734" lon="85.0673520"><time>2023-08-20T04:58:30.483</time></trkpt><trkpt lat="56.5016236" lon="85.0673499"><time>2023-08-20T04:58:32.493</time></trkpt><trkpt lat="56.5015753" lon="85.0673348"><time>2023-08-20T04:58:34.490</time></trkpt><trkpt lat="56.5015289" lon="85.0673033"><time>2023-08-20T04:58:36.470</time></trkpt><trkpt lat="56.5014769" lon="85.0672698"><time>2023-08-20T04:58:38.473</time></trkpt><trkpt lat="56.5014258" lon="85.0672507"><time>2023-08-20T04:58:41.467</time></trkpt><trkpt lat="56.5013736" lon="85.0673073"><time>2023-08-20T04:58:46.480</time></trkpt><trkpt lat="56.5013660" lon="85.0674086"><time>2023-08-20T04:58:48.487</time></trkpt><trkpt lat="56.5013681" lon="85.0675000"><time>2023-08-20T04:58:50.487</time></trkpt><trkpt lat="56.5013659" lon="85.0675836"><time>2023-08-20T04:58:52.487</time></trkpt><trkpt lat="56.5013600" lon="85.0676754"><time>2023-08-20T04:58:54.490</time></trkpt><trkpt lat="56.5013535" lon="85.0677741"><time>2023-08-20T04:58:56.473</time></trkpt><trkpt lat="56.5013523" lon="85.0678800"><time>2023-08-20T04:58:58.497</time></trkpt><trkpt lat="56.5013431" lon="85.0679818"><time>2023-08-20T04:59:00.490</time></trkpt><trkpt lat="56.5013291" lon="85.0680858"><time>2023-08-20T04:59:02.487</time></trkpt><trkpt lat="56.5013152" lon="85.0681770"><time>2023-08-20T04:59:04.483</time></trkpt><trkpt lat="56.5013145" lon="85.0682876"><time>2023-08-20T04:59:06.490</time></trkpt><trkpt lat="56.5013085" lon="85.0683817"><time>2023-08-20T04:59:08.470</time></trkpt><trkpt lat="56.5013026" lon="85.0684777"><time>2023-08-20T04:59:10.473</time></trkpt><trkpt lat="56.5012957" lon="85.0685718"><time>2023-08-20T04:59:12.473</time></trkpt><trkpt lat="56.5012936" lon="85.0686594"><time>2023-08-20T04:59:14.467</time></trkpt><trkpt lat="56.5012857" lon="85.0687522"><time>2023-08-20T04:59:16.467</time></trkpt><trkpt lat="56.5012751" lon="85.0688417"><time>2023-08-20T04:59:18.467</time></trkpt><trkpt lat="56.5012572" lon="85.0689309"><time>2023-08-20T04:59:20.490</time></trkpt><trkpt lat="56.5012478" lon="85.0690303"><time>2023-08-20T04:59:22.490</time></trkpt><trkpt lat="56.5012250" lon="85.0691241"><time>2023-08-20T04:59:24.487</time></trkpt><trkpt lat="56.5011937" lon="85.0691985"><time>2023-08-20T04:59:26.487</time></trkpt><trkpt lat="56.5011486" lon="85.0692308"><time>2023-08-20T04:59:29.473</time></trkpt><trkpt lat="56.5010954" lon="85.0692396"><time>2023-08-20T04:59:32.483</time></trkpt><trkpt lat="56.5010347" lon="85.0692295"><time>2023-08-20T04:59:34.477</time></trkpt><trkpt lat="56.5009749" lon="85.0692208"><time>2023-08-20T04:59:36.487</time></trkpt><trkpt lat="56.5009196" lon="85.0692128"><time>2023-08-20T04:59:38.487</time></trkpt><trkpt lat="56.5008653" lon="85.0692001"><time>2023-08-20T04:59:40.493</time></trkpt><trkpt lat="56.5008158" lon="85.0692557"><time>2023-08-20T04:59:42.490</time></trkpt><trkpt lat="56.5007369" lon="85.0691987"><time>2023-08-20T04:59:45.507</time></trkpt><trkpt lat="56.5006847" lon="85.0691386"><time>2023-08-20T04:59:47.480</time></trkpt><trkpt lat="56.5007290" lon="85.0691717"><time>2023-08-20T04:59:55.477</time></trkpt><trkpt lat="56.5006784" lon="85.0691448"><time>2023-08-20T04:59:58.473</time></trkpt><trkpt lat="56.5006726" lon="85.0690478"><time>2023-08-20T05:00:01.483</time></trkpt><trkpt lat="56.5006714" lon="85.0689534"><time>2023-08-20T05:00:04.477</time></trkpt><trkpt lat="56.5006953" lon="85.0688770"><time>2023-08-20T05:00:06.487</time></trkpt><trkpt lat="56.5007180" lon="85.0687877"><time>2023-08-20T05:00:08.480</time></trkpt><trkpt lat="56.5007496" lon="85.0687269"><time>2023-08-20T05:00:10.503</time></trkpt><trkpt lat="56.5007243" lon="85.0686474"><time>2023-08-20T05:00:15.480</time></trkpt><trkpt lat="56.5007615" lon="85.0685841"><time>2023-08-20T05:00:18.497</time></trkpt><trkpt lat="56.5007987" lon="85.0684723"><time>2023-08-20T05:00:21.473</time></trkpt><trkpt lat="56.5008252" lon="85.0683684"><time>2023-08-20T05:00:23.483</time></trkpt><trkpt lat="56.5008397" lon="85.0682621"><time>2023-08-20T05:00:25.480</time></trkpt><trkpt lat="56.5008511" lon="85.0681614"><time>2023-08-20T05:00:27.483</time></trkpt><trkpt lat="56.5008595" lon="85.0680598"><time>2023-08-20T05:00:29.477</time></trkpt><trkpt lat="56.5008534" lon="85.0679654"><time>2023-08-20T05:00:31.483</time></trkpt><trkpt lat="56.5008308" lon="85.0678822"><time>2023-08-20T05:00:47.487</time></trkpt><trkpt lat="56.5008002" lon="85.0678155"><time>2023-08-20T05:00:49.477</time></trkpt><trkpt lat="56.5007494" lon="85.0677911"><time>2023-08-20T05:00:56.480</time></trkpt><trkpt lat="56.5006910" lon="85.0677704"><time>2023-08-20T05:00:59.483</time></trkpt><trkpt lat="56.5006305" lon="85.0677570"><time>2023-08-20T05:01:01.487</time></trkpt><trkpt lat="56.5005770" lon="85.0677271"><time>2023-08-20T05:01:03.487</time></trkpt><trkpt lat="56.5005299" lon="85.0676791"><time>2023-08-20T05:01:05.480</time></trkpt><trkpt lat="56.5004886" lon="85.0676273"><time>2023-08-20T05:01:09.480</time></trkpt><trkpt lat="56.5004567" lon="85.0675608"><time>2023-08-20T05:01:28.477</time></trkpt><trkpt lat="56.5004250" lon="85.0674825"><time>2023-08-20T05:01:32.477</time></trkpt><trkpt lat="56.5003927" lon="85.0674230"><time>2023-08-20T05:01:39.480</time></trkpt><trkpt lat="56.5003705" lon="85.0673439"><time>2023-08-20T05:01:45.497</time></trkpt><trkpt lat="56.5003278" lon="85.0673106"><time>2023-08-20T05:01:51.477</time></trkpt><trkpt lat="56.5003065" lon="85.0672294"><time>2023-08-20T05:01:59.480</time></trkpt><trkpt lat="56.5003189" lon="85.0671462"><time>2023-08-20T05:02:05.477</time></trkpt><trkpt lat="56.5003403" lon="85.0670715"><time>2023-08-20T05:02:14.473</time></trkpt><trkpt lat="56.5003652" lon="85.0669910"><time>2023-08-20T05:02:19.480</time></trkpt><trkpt lat="56.5003609" lon="85.0669027"><time>2023-08-20T05:02:29.470</time></trkpt><trkpt lat="56.5003186" lon="85.0668574"><time>2023-08-20T05:03:11.470</time></trkpt><trkpt lat="56.5002750" lon="85.0668818"><time>2023-08-20T05:03:18.470</time></trkpt><trkpt lat="56.5002228" lon="85.0668742"><time>2023-08-20T05:03:24.480</time></trkpt><trkpt lat="56.5001793" lon="85.0668330"><time>2023-08-20T05:03:27.490</time></trkpt><trkpt lat="56.5001731" lon="85.0667524"><time>2023-08-20T05:03:31.473</time></trkpt><trkpt lat="56.5001958" lon="85.0666579"><time>2023-08-20T05:03:46.470</time></trkpt><trkpt lat="56.5001919" lon="85.0665654"><time>2023-08-20T05:03:48.477</time></trkpt><trkpt lat="56.5002014" lon="85.0664778"><time>2023-08-20T05:03:50.493</time></trkpt><trkpt lat="56.5002256" lon="85.0663639"><time>2023-08-20T05:03:53.487</time></trkpt><trkpt lat="56.5002438" lon="85.0662738"><time>2023-08-20T05:03:55.483</time></trkpt><trkpt lat="56.5002677" lon="85.0661814"><time>2023-08-20T05:03:57.477</time></trkpt><trkpt lat="56.5002674" lon="85.0660965"><time>2023-08-20T05:03:59.480</time></trkpt><trkpt lat="56.5002714" lon="85.0659906"><time>2023-08-20T05:04:02.487</time></trkpt><trkpt lat="56.5002480" lon="85.0658971"><time>2023-08-20T05:04:04.480</time></trkpt><trkpt lat="56.5002233" lon="85.0658262"><time>2023-08-20T05:04:06.477</time></trkpt><trkpt lat="56.5002012" lon="85.0657323"><time>2023-08-20T05:04:08.513</time></trkpt><trkpt lat="56.5001887" lon="85.0656434"><time>2023-08-20T05:04:10.477</time></trkpt><trkpt lat="56.5001707" lon="85.0655593"><time>2023-08-20T05:04:13.547</time></trkpt><trkpt lat="56.5001611" lon="85.0654682"><time>2023-08-20T05:04:17.467</time></trkpt><trkpt lat="56.5001642" lon="85.0653717"><time>2023-08-20T05:04:22.480</time></trkpt><trkpt lat="56.5001661" lon="85.0652836"><time>2023-08-20T05:04:26.477</time></trkpt><trkpt lat="56.5001432" lon="85.0652098"><time>2023-08-20T05:04:45.477</time></trkpt><trkpt lat="56.5001536" lon="85.0651150"><time>2023-08-20T05:04:52.497</time></trkpt><trkpt lat="56.5001610" lon="85.0650287"><time>2023-08-20T05:04:55.477</time></trkpt><trkpt lat="56.5001925" lon="85.0649633"><time>2023-08-20T05:05:00.487</time></trkpt><trkpt lat="56.5002427" lon="85.0649855"><time>2023-08-20T05:05:05.490</time></trkpt><trkpt lat="56.5002967" lon="85.0649703"><time>2023-08-20T05:05:10.487</time></trkpt><trkpt lat="56.5003380" lon="85.0649189"><time>2023-08-20T05:05:14.487</time></trkpt><trkpt lat="56.5003808" lon="85.0648638"><time>2023-08-20T05:05:19.487</time></trkpt><trkpt lat="56.5004310" lon="85.0648638"><time>2023-08-20T05:05:25.493</time></trkpt><trkpt lat="56.5004736" lon="85.0648029"><time>2023-08-20T05:05:29.487</time></trkpt><trkpt lat="56.5004471" lon="85.0647291"><time>2023-08-20T05:05:36.493</time></trkpt><trkpt lat="56.5004477" lon="85.0646453"><time>2023-08-20T05:05:43.483</time></trkpt><trkpt lat="56.5004443" lon="85.0645617"><time>2023-08-20T05:05:48.470</time></trkpt><trkpt lat="56.5004503" lon="85.0645294"><time>2023-08-20T05:05:55.813</time></trkpt><trkpt lat="56.5003447" lon="85.0645320"><time>2023-08-20T05:06:09.480</time></trkpt><trkpt lat="56.5002795" lon="85.0644991"><time>2023-08-20T05:06:10.500</time></trkpt><trkpt lat="56.5002899" lon="85.0646191"><time>2023-08-20T05:06:12.490</time></trkpt><trkpt lat="56.5003068" lon="85.0647235"><time>2023-08-20T05:06:14.497</time></trkpt><trkpt lat="56.5003327" lon="85.0647962"><time>2023-08-20T05:06:24.483</time></trkpt><trkpt lat="56.5003186" lon="85.0647020"><time>2023-08-20T05:06:54.467</time></trkpt><trkpt lat="56.5002815" lon="85.0646237"><time>2023-08-20T05:07:03.467</time></trkpt><trkpt lat="56.5002448" lon="85.0645740"><time>2023-08-20T05:07:05.487</time></trkpt><trkpt lat="56.5002304" lon="85.0644738"><time>2023-08-20T05:07:14.487</time></trkpt><trkpt lat="56.5002062" lon="85.0643764"><time>2023-08-20T05:07:17.483</time></trkpt><trkpt lat="56.5001718" lon="85.0643224"><time>2023-08-20T05:07:19.487</time></trkpt><trkpt lat="56.5001961" lon="85.0642305"><time>2023-08-20T05:07:24.490</time></trkpt><trkpt lat="56.5002358" lon="85.0641292"><time>2023-08-20T05:07:27.493</time></trkpt><trkpt lat="56.5002833" lon="85.0640451"><time>2023-08-20T05:07:30.467</time></trkpt><trkpt lat="56.5003031" lon="85.0639526"><time>2023-08-20T05:07:32.487</time></trkpt><trkpt lat="56.5003242" lon="85.0638664"><time>2023-08-20T05:07:34.483</time></trkpt><trkpt lat="56.5003385" lon="85.0637658"><time>2023-08-20T05:07:37.470</time></trkpt><trkpt lat="56.5003606" lon="85.0636668"><time>2023-08-20T05:07:40.487</time></trkpt><trkpt lat="56.5003446" lon="85.0635633"><time>2023-08-20T05:07:42.473</time></trkpt><trkpt lat="56.5003372" lon="85.0634552"><time>2023-08-20T05:07:44.493</time></trkpt><trkpt lat="56.5003370" lon="85.0633582"><time>2023-08-20T05:07:46.480</time></trkpt><trkpt lat="56.5003423" lon="85.0632666"><time>2023-08-20T05:07:48.487</time></trkpt><trkpt lat="56.5003358" lon="85.0631733"><time>2023-08-20T05:07:50.467</time></trkpt><trkpt lat="56.5003131" lon="85.0630665"><time>2023-08-20T05:07:52.477</time></trkpt><trkpt lat="56.5003010" lon="85.0629582"><time>2023-08-20T05:07:54.477</time></trkpt><trkpt lat="56.5002978" lon="85.0628430"><time>2023-08-20T05:07:56.490</time></trkpt><trkpt lat="56.5002889" lon="85.0627337"><time>2023-08-20T05:07:58.497</time></trkpt><trkpt lat="56.5002820" lon="85.0626416"><time>2023-08-20T05:08:00.503</time></trkpt><trkpt lat="56.5002990" lon="85.0625532"><time>2023-08-20T05:08:02.493</time></trkpt><trkpt lat="56.5002952" lon="85.0624660"><time>2023-08-20T05:08:04.490</time></trkpt><trkpt lat="56.5002857" lon="85.0623799"><time>2023-08-20T05:08:06.470</time></trkpt><trkpt lat="56.5002821" lon="85.0622808"><time>2023-08-20T05:08:08.467</time></trkpt><trkpt lat="56.5002597" lon="85.0621748"><time>2023-08-20T05:08:10.493</time></trkpt><trkpt lat="56.5002620" lon="85.0620799"><time>2023-08-20T05:08:12.477</time></trkpt><trkpt lat="56.5002759" lon="85.0619976"><time>2023-08-20T05:08:14.470</time></trkpt><trkpt lat="56.5002759" lon="85.0619064"><time>2023-08-20T05:08:16.470</time></trkpt><trkpt lat="56.5002792" lon="85.0618127"><time>2023-08-20T05:08:18.467</time></trkpt><trkpt lat="56.5002820" lon="85.0617139"><time>2023-08-20T05:08:20.467</time></trkpt><trkpt lat="56.5002897" lon="85.0616164"><time>2023-08-20T05:08:22.470</time></trkpt><trkpt lat="56.5003019" lon="85.0615129"><time>2023-08-20T05:08:24.473</time></trkpt><trkpt lat="56.5003277" lon="85.0614322"><time>2023-08-20T05:08:26.477</time></trkpt><trkpt lat="56.5003614" lon="85.0613427"><time>2023-08-20T05:08:29.487</time></trkpt><trkpt lat="56.5003897" lon="85.0612781"><time>2023-08-20T05:08:31.490</time></trkpt><trkpt lat="56.5004060" lon="85.0611638"><time>2023-08-20T05:08:34.477</time></trkpt><trkpt lat="56.5004622" lon="85.0611106"><time>2023-08-20T05:08:36.470</time></trkpt><trkpt lat="56.5004081" lon="85.0609916"><time>2023-08-20T05:08:38.460</time></trkpt><trkpt lat="56.5003566" lon="85.0608936"><time>2023-08-20T05:08:40.473</time></trkpt><trkpt lat="56.5003258" lon="85.0608046"><time>2023-08-20T05:08:42.470</time></trkpt><trkpt lat="56.5003040" lon="85.0607193"><time>2023-08-20T05:08:44.467</time></trkpt><trkpt lat="56.5002858" lon="85.0606384"><time>2023-08-20T05:08:46.490</time></trkpt><trkpt lat="56.5002700" lon="85.0605387"><time>2023-08-20T05:08:48.490</time></trkpt><trkpt lat="56.5002551" lon="85.0604426"><time>2023-08-20T05:08:50.493</time></trkpt><trkpt lat="56.5002537" lon="85.0603537"><time>2023-08-20T05:08:52.487</time></trkpt><trkpt lat="56.5002525" lon="85.0602410"><time>2023-08-20T05:08:55.487</time></trkpt><trkpt lat="56.5002478" lon="85.0601484"><time>2023-08-20T05:08:57.497</time></trkpt><trkpt lat="56.5002409" lon="85.0600627"><time>2023-08-20T05:08:59.477</time></trkpt><trkpt lat="56.5002294" lon="85.0599646"><time>2023-08-20T05:09:01.467</time></trkpt><trkpt lat="56.5002335" lon="85.0598758"><time>2023-08-20T05:09:03.477</time></trkpt><trkpt lat="56.5002436" lon="85.0597816"><time>2023-08-20T05:09:05.473</time></trkpt><trkpt lat="56.5002619" lon="85.0596722"><time>2023-08-20T05:09:08.473</time></trkpt><trkpt lat="56.5002639" lon="85.0595771"><time>2023-08-20T05:09:10.463</time></trkpt><trkpt lat="56.5002794" lon="85.0594899"><time>2023-08-20T05:09:12.473</time></trkpt><trkpt lat="56.5002815" lon="85.0593899"><time>2023-08-20T05:09:14.473</time></trkpt><trkpt lat="56.5002799" lon="85.0592962"><time>2023-08-20T05:09:16.467</time></trkpt><trkpt lat="56.5002812" lon="85.0592005"><time>2023-08-20T05:09:18.470</time></trkpt><trkpt lat="56.5002824" lon="85.0590995"><time>2023-08-20T05:09:22.473</time></trkpt><trkpt lat="56.5002825" lon="85.0590136"><time>2023-08-20T05:09:25.467</time></trkpt><trkpt lat="56.5003121" lon="85.0589427"><time>2023-08-20T05:09:28.477</time></trkpt><trkpt lat="56.5003551" lon="85.0588999"><time>2023-08-20T05:09:33.477</time></trkpt><trkpt lat="56.5003911" lon="85.0588280"><time>2023-08-20T05:09:40.493</time></trkpt><trkpt lat="56.5004386" lon="85.0588275"><time>2023-08-20T05:09:47.497</time></trkpt><trkpt lat="56.5004879" lon="85.0588678"><time>2023-08-20T05:09:55.493</time></trkpt><trkpt lat="56.5005340" lon="85.0589111"><time>2023-08-20T05:10:01.500</time></trkpt><trkpt lat="56.5005518" lon="85.0589970"><time>2023-08-20T05:10:08.503</time></trkpt><trkpt lat="56.5005911" lon="85.0590641"><time>2023-08-20T05:10:13.470</time></trkpt><trkpt lat="56.5006389" lon="85.0590983"><time>2023-08-20T05:10:16.497</time></trkpt><trkpt lat="56.5006877" lon="85.0590782"><time>2023-08-20T05:10:20.490</time></trkpt><trkpt lat="56.5007402" lon="85.0590984"><time>2023-08-20T05:10:24.493</time></trkpt><trkpt lat="56.5007836" lon="85.0591275"><time>2023-08-20T05:10:27.470</time></trkpt><trkpt lat="56.5008283" lon="85.0591560"><time>2023-08-20T05:10:31.473</time></trkpt><trkpt lat="56.5008704" lon="85.0591898"><time>2023-08-20T05:10:36.473</time></trkpt><trkpt lat="56.5009187" lon="85.0591898"><time>2023-08-20T05:10:43.477</time></trkpt><trkpt lat="56.5009530" lon="85.0592423"><time>2023-08-20T05:10:58.487</time></trkpt><trkpt lat="56.5009895" lon="85.0592980"><time>2023-08-20T05:11:08.487</time></trkpt><trkpt lat="56.5010287" lon="85.0593409"><time>2023-08-20T05:11:22.500</time></trkpt><trkpt lat="56.5010835" lon="85.0593483"><time>2023-08-20T05:11:28.480</time></trkpt><trkpt lat="56.5011274" lon="85.0593114"><time>2023-08-20T05:11:32.487</time></trkpt><trkpt lat="56.5011685" lon="85.0592706"><time>2023-08-20T05:11:36.490</time></trkpt><trkpt lat="56.5012032" lon="85.0591935"><time>2023-08-20T05:11:40.470</time></trkpt><trkpt lat="56.5012460" lon="85.0591095"><time>2023-08-20T05:11:43.473</time></trkpt><trkpt lat="56.5012810" lon="85.0590320"><time>2023-08-20T05:11:45.473</time></trkpt><trkpt lat="56.5013193" lon="85.0589791"><time>2023-08-20T05:11:47.467</time></trkpt><trkpt lat="56.5013539" lon="85.0589191"><time>2023-08-20T05:11:49.477</time></trkpt><trkpt lat="56.5014022" lon="85.0588587"><time>2023-08-20T05:11:52.470</time></trkpt><trkpt lat="56.5014510" lon="85.0588179"><time>2023-08-20T05:11:55.473</time></trkpt><trkpt lat="56.5014964" lon="85.0587536"><time>2023-08-20T05:11:57.473</time></trkpt><trkpt lat="56.5015420" lon="85.0587319"><time>2023-08-20T05:11:59.477</time></trkpt><trkpt lat="56.5015863" lon="85.0586994"><time>2023-08-20T05:12:01.477</time></trkpt><trkpt lat="56.5016265" lon="85.0586532"><time>2023-08-20T05:12:03.483</time></trkpt><trkpt lat="56.5016667" lon="85.0586152"><time>2023-08-20T05:12:05.480</time></trkpt><trkpt lat="56.5017271" lon="85.0585928"><time>2023-08-20T05:12:08.477</time></trkpt><trkpt lat="56.5017825" lon="85.0585529"><time>2023-08-20T05:12:11.473</time></trkpt><trkpt lat="56.5018371" lon="85.0585737"><time>2023-08-20T05:12:13.480</time></trkpt><trkpt lat="56.5018851" lon="85.0585580"><time>2023-08-20T05:12:15.480</time></trkpt><trkpt lat="56.5019434" lon="85.0585541"><time>2023-08-20T05:12:17.477</time></trkpt><trkpt lat="56.5020057" lon="85.0585528"><time>2023-08-20T05:12:19.473</time></trkpt><trkpt lat="56.5020642" lon="85.0585688"><time>2023-08-20T05:12:21.463</time></trkpt><trkpt lat="56.5021152" lon="85.0585601"><time>2023-08-20T05:12:23.483</time></trkpt><trkpt lat="56.5021305" lon="85.0584794"><time>2023-08-20T05:12:25.477</time></trkpt><trkpt lat="56.5021296" lon="85.0583799"><time>2023-08-20T05:12:27.477</time></trkpt><trkpt lat="56.5021416" lon="85.0582872"><time>2023-08-20T05:12:29.477</time></trkpt><trkpt lat="56.5021603" lon="85.0582128"><time>2023-08-20T05:12:31.473</time></trkpt><trkpt lat="56.5021687" lon="85.0581272"><time>2023-08-20T05:12:33.473</time></trkpt><trkpt lat="56.5021742" lon="85.0580348"><time>2023-08-20T05:12:35.477</time></trkpt><trkpt lat="56.5021739" lon="85.0579362"><time>2023-08-20T05:12:37.470</time></trkpt><trkpt lat="56.5021785" lon="85.0578322"><time>2023-08-20T05:12:39.470</time></trkpt><trkpt lat="56.5021877" lon="85.0577212"><time>2023-08-20T05:12:41.477</time></trkpt><trkpt lat="56.5022144" lon="85.0576280"><time>2023-08-20T05:12:43.473</time></trkpt><trkpt lat="56.5022275" lon="85.0575139"><time>2023-08-20T05:12:46.477</time></trkpt><trkpt lat="56.5022189" lon="85.0574242"><time>2023-08-20T05:12:50.470</time></trkpt><trkpt lat="56.5022246" lon="85.0573207"><time>2023-08-20T05:13:10.473</time></trkpt><trkpt lat="56.5022320" lon="85.0572303"><time>2023-08-20T05:13:12.483</time></trkpt><trkpt lat="56.5022291" lon="85.0571300"><time>2023-08-20T05:13:14.477</time></trkpt><trkpt lat="56.5022399" lon="85.0570384"><time>2023-08-20T05:13:17.470</time></trkpt><trkpt lat="56.5022388" lon="85.0570797"><time>2023-08-20T05:13:28.537</time></trkpt><trkpt lat="56.5022905" lon="85.0570516"><time>2023-08-20T05:13:35.493</time></trkpt><trkpt lat="56.5023092" lon="85.0569535"><time>2023-08-20T05:14:03.473</time></trkpt><trkpt lat="56.5023239" lon="85.0568727"><time>2023-08-20T05:14:05.477</time></trkpt><trkpt lat="56.5023408" lon="85.0567777"><time>2023-08-20T05:14:07.467</time></trkpt><trkpt lat="56.5023555" lon="85.0566811"><time>2023-08-20T05:14:09.477</time></trkpt><trkpt lat="56.5023705" lon="85.0565632"><time>2023-08-20T05:14:11.473</time></trkpt><trkpt lat="56.5023833" lon="85.0564532"><time>2023-08-20T05:14:13.487</time></trkpt><trkpt lat="56.5023955" lon="85.0563504"><time>2023-08-20T05:14:15.473</time></trkpt><trkpt lat="56.5024125" lon="85.0562436"><time>2023-08-20T05:14:17.477</time></trkpt><trkpt lat="56.5024290" lon="85.0561319"><time>2023-08-20T05:14:19.477</time></trkpt><trkpt lat="56.5024341" lon="85.0560314"><time>2023-08-20T05:14:21.477</time></trkpt><trkpt lat="56.5024402" lon="85.0559280"><time>2023-08-20T05:14:23.467</time></trkpt><trkpt lat="56.5024623" lon="85.0558431"><time>2023-08-20T05:14:25.490</time></trkpt><trkpt lat="56.5024829" lon="85.0557701"><time>2023-08-20T05:14:27.490</time></trkpt><trkpt lat="56.5025041" lon="85.0556667"><time>2023-08-20T05:14:30.470</time></trkpt><trkpt lat="56.5025290" lon="85.0555600"><time>2023-08-20T05:14:33.470</time></trkpt><trkpt lat="56.5025336" lon="85.0554605"><time>2023-08-20T05:14:35.473</time></trkpt><trkpt lat="56.5025487" lon="85.0553712"><time>2023-08-20T05:14:37.473</time></trkpt><trkpt lat="56.5025831" lon="85.0552786"><time>2023-08-20T05:14:40.473</time></trkpt><trkpt lat="56.5025943" lon="85.0551899"><time>2023-08-20T05:14:42.480</time></trkpt><trkpt lat="56.5025990" lon="85.0550982"><time>2023-08-20T05:14:44.473</time></trkpt><trkpt lat="56.5025873" lon="85.0550185"><time>2023-08-20T05:14:46.470</time></trkpt><trkpt lat="56.5025741" lon="85.0549298"><time>2023-08-20T05:14:48.467</time></trkpt><trkpt lat="56.5025545" lon="85.0548405"><time>2023-08-20T05:14:50.473</time></trkpt><trkpt lat="56.5025202" lon="85.0547743"><time>2023-08-20T05:14:52.477</time></trkpt><trkpt lat="56.5025404" lon="85.0546943"><time>2023-08-20T05:14:55.477</time></trkpt><trkpt lat="56.5025974" lon="85.0546812"><time>2023-08-20T05:14:59.480</time></trkpt><trkpt lat="56.5026134" lon="85.0545915"><time>2023-08-20T05:15:05.473</time></trkpt><trkpt lat="56.5026499" lon="85.0545247"><time>2023-08-20T05:15:14.477</time></trkpt><trkpt lat="56.5026781" lon="85.0544157"><time>2023-08-20T05:15:17.483</time></trkpt><trkpt lat="56.5027120" lon="85.0543583"><time>2023-08-20T05:15:19.480</time></trkpt><trkpt lat="56.5027503" lon="85.0542978"><time>2023-08-20T05:15:21.483</time></trkpt><trkpt lat="56.5027882" lon="85.0542421"><time>2023-08-20T05:15:23.480</time></trkpt><trkpt lat="56.5028537" lon="85.0542343"><time>2023-08-20T05:15:26.470</time></trkpt><trkpt lat="56.5029126" lon="85.0542031"><time>2023-08-20T05:15:28.473</time></trkpt><trkpt lat="56.5029293" lon="85.0541138"><time>2023-08-20T05:15:32.470</time></trkpt><trkpt lat="56.5029773" lon="85.0540804"><time>2023-08-20T05:15:35.470</time></trkpt><trkpt lat="56.5030206" lon="85.0540402"><time>2023-08-20T05:15:38.473</time></trkpt><trkpt lat="56.5030802" lon="85.0540181"><time>2023-08-20T05:15:40.480</time></trkpt><trkpt lat="56.5031242" lon="85.0539881"><time>2023-08-20T05:15:42.470</time></trkpt><trkpt lat="56.5031838" lon="85.0539355"><time>2023-08-20T05:15:45.477</time></trkpt><trkpt lat="56.5032237" lon="85.0538688"><time>2023-08-20T05:15:47.470</time></trkpt><trkpt lat="56.5032762" lon="85.0538335"><time>2023-08-20T05:15:50.467</time></trkpt><trkpt lat="56.5033316" lon="85.0538254"><time>2023-08-20T05:15:52.463</time></trkpt><trkpt lat="56.5033754" lon="85.0537936"><time>2023-08-20T05:15:54.470</time></trkpt><trkpt lat="56.5034151" lon="85.0537531"><time>2023-08-20T05:15:56.470</time></trkpt><trkpt lat="56.5034678" lon="85.0537164"><time>2023-08-20T05:15:59.470</time></trkpt><trkpt lat="56.5035279" lon="85.0536854"><time>2023-08-20T05:16:02.467</time></trkpt><trkpt lat="56.5035685" lon="85.0536461"><time>2023-08-20T05:16:04.470</time></trkpt><trkpt lat="56.5036153" lon="85.0536163"><time>2023-08-20T05:16:07.470</time></trkpt><trkpt lat="56.5036470" lon="85.0535520"><time>2023-08-20T05:16:17.477</time></trkpt><trkpt lat="56.5036828" lon="85.0534928"><time>2023-08-20T05:16:21.470</time></trkpt><trkpt lat="56.5037280" lon="85.0534373"><time>2023-08-20T05:16:25.470</time></trkpt><trkpt lat="56.5037058" lon="85.0533574"><time>2023-08-20T05:16:35.470</time></trkpt><trkpt lat="56.5036645" lon="85.0533126"><time>2023-08-20T05:16:38.477</time></trkpt><trkpt lat="56.5036622" lon="85.0532119"><time>2023-08-20T05:16:43.467</time></trkpt><trkpt lat="56.5036203" lon="85.0531574"><time>2023-08-20T05:16:47.470</time></trkpt><trkpt lat="56.5036666" lon="85.0530832"><time>2023-08-20T05:16:53.487</time></trkpt><trkpt lat="56.5036407" lon="85.0530100"><time>2023-08-20T05:17:00.467</time></trkpt><trkpt lat="56.5036506" lon="85.0529258"><time>2023-08-20T05:17:06.470</time></trkpt><trkpt lat="56.5036359" lon="85.0528443"><time>2023-08-20T05:17:11.470</time></trkpt><trkpt lat="56.5036174" lon="85.0527615"><time>2023-08-20T05:17:16.467</time></trkpt><trkpt lat="56.5036468" lon="85.0526939"><time>2023-08-20T05:17:22.470</time></trkpt><trkpt lat="56.5036531" lon="85.0526116"><time>2023-08-20T05:17:26.477</time></trkpt><trkpt lat="56.5036013" lon="85.0525756"><time>2023-08-20T05:17:29.480</time></trkpt><trkpt lat="56.5035461" lon="85.0525507"><time>2023-08-20T05:17:31.467</time></trkpt><trkpt lat="56.5035189" lon="85.0524569"><time>2023-08-20T05:17:34.470</time></trkpt><trkpt lat="56.5034560" lon="85.0524034"><time>2023-08-20T05:17:37.467</time></trkpt><trkpt lat="56.5033928" lon="85.0523924"><time>2023-08-20T05:17:40.473</time></trkpt><trkpt lat="56.5033412" lon="85.0523317"><time>2023-08-20T05:17:43.467</time></trkpt><trkpt lat="56.5033170" lon="85.0522390"><time>2023-08-20T05:17:46.467</time></trkpt><trkpt lat="56.5032681" lon="85.0521867"><time>2023-08-20T05:17:49.470</time></trkpt><trkpt lat="56.5032199" lon="85.0521153"><time>2023-08-20T05:17:53.470</time></trkpt><trkpt lat="56.5031770" lon="85.0520886"><time>2023-08-20T05:18:01.470</time></trkpt><trkpt lat="56.5031319" lon="85.0521086"><time>2023-08-20T05:18:05.467</time></trkpt><trkpt lat="56.5031189" lon="85.0521880"><time>2023-08-20T05:18:14.473</time></trkpt><trkpt lat="56.5030856" lon="85.0522483"><time>2023-08-20T05:18:22.487</time></trkpt><trkpt lat="56.5030295" lon="85.0522738"><time>2023-08-20T05:18:32.470</time></trkpt><trkpt lat="56.5029804" lon="85.0522465"><time>2023-08-20T05:18:36.473</time></trkpt><trkpt lat="56.5029351" lon="85.0522661"><time>2023-08-20T05:18:41.467</time></trkpt><trkpt lat="56.5029348" lon="85.0521984"><time>2023-08-20T05:18:57.023</time></trkpt><trkpt lat="56.5029292" lon="85.0521763"><time>2023-08-20T05:19:01.490</time></trkpt><trkpt lat="56.5029578" lon="85.0521002"><time>2023-08-20T05:19:08.807</time></trkpt><trkpt lat="56.5029929" lon="85.0520484"><time>2023-08-20T05:19:13.467</time></trkpt><trkpt lat="56.5030392" lon="85.0519861"><time>2023-08-20T05:19:29.473</time></trkpt><trkpt lat="56.5030914" lon="85.0519768"><time>2023-08-20T05:19:32.470</time></trkpt><trkpt lat="56.5031529" lon="85.0519613"><time>2023-08-20T05:19:35.467</time></trkpt><trkpt lat="56.5032062" lon="85.0519600"><time>2023-08-20T05:19:37.460</time></trkpt><trkpt lat="56.5032573" lon="85.0520249"><time>2023-08-20T05:19:41.473</time></trkpt><trkpt lat="56.5032902" lon="85.0520806"><time>2023-08-20T05:19:43.467</time></trkpt><trkpt lat="56.5033373" lon="85.0521539"><time>2023-08-20T05:19:45.470</time></trkpt><trkpt lat="56.5033886" lon="85.0522286"><time>2023-08-20T05:19:47.467</time></trkpt><trkpt lat="56.5034464" lon="85.0522612"><time>2023-08-20T05:19:49.470</time></trkpt><trkpt lat="56.5034950" lon="85.0522895"><time>2023-08-20T05:19:51.467</time></trkpt><trkpt lat="56.5035486" lon="85.0523421"><time>2023-08-20T05:19:53.467</time></trkpt><trkpt lat="56.5035942" lon="85.0524346"><time>2023-08-20T05:19:56.470</time></trkpt><trkpt lat="56.5036390" lon="85.0524816"><time>2023-08-20T05:19:58.470</time></trkpt><trkpt lat="56.5036888" lon="85.0525073"><time>2023-08-20T05:20:01.477</time></trkpt><trkpt lat="56.5037413" lon="85.0525097"><time>2023-08-20T05:20:04.497</time></trkpt><trkpt lat="56.5037953" lon="85.0525490"><time>2023-08-20T05:20:07.500</time></trkpt><trkpt lat="56.5038418" lon="85.0525342"><time>2023-08-20T05:20:10.477</time></trkpt><trkpt lat="56.5038960" lon="85.0525540"><time>2023-08-20T05:20:13.473</time></trkpt><trkpt lat="56.5038175" lon="85.0524590"><time>2023-08-20T05:20:33.500</time></trkpt><trkpt lat="56.5038518" lon="85.0525329"><time>2023-08-20T05:20:35.463</time></trkpt><trkpt lat="56.5039007" lon="85.0525677"><time>2023-08-20T05:20:37.473</time></trkpt><trkpt lat="56.5039527" lon="85.0526048"><time>2023-08-20T05:20:41.473</time></trkpt><trkpt lat="56.5040063" lon="85.0526021"><time>2023-08-20T05:20:45.483</time></trkpt><trkpt lat="56.5040462" lon="85.0526420"><time>2023-08-20T05:20:48.490</time></trkpt><trkpt lat="56.5040979" lon="85.0526620"><time>2023-08-20T05:20:53.513</time></trkpt><trkpt lat="56.5041347" lon="85.0527090"><time>2023-08-20T05:20:56.503</time></trkpt><trkpt lat="56.5041815" lon="85.0527088"><time>2023-08-20T05:21:00.500</time></trkpt><trkpt lat="56.5042425" lon="85.0527013"><time>2023-08-20T05:21:03.490</time></trkpt><trkpt lat="56.5042981" lon="85.0527361"><time>2023-08-20T05:21:06.490</time></trkpt><trkpt lat="56.5043182" lon="85.0528211"><time>2023-08-20T05:21:09.477</time></trkpt><trkpt lat="56.5043454" lon="85.0529084"><time>2023-08-20T05:21:13.487</time></trkpt><trkpt lat="56.5043974" lon="85.0528581"><time>2023-08-20T05:21:17.477</time></trkpt><trkpt lat="56.5044454" lon="85.0528215"><time>2023-08-20T05:21:21.480</time></trkpt><trkpt lat="56.5044866" lon="85.0527878"><time>2023-08-20T05:21:25.493</time></trkpt><trkpt lat="56.5045321" lon="85.0527644"><time>2023-08-20T05:21:30.493</time></trkpt><trkpt lat="56.5045758" lon="85.0527435"><time>2023-08-20T05:21:34.473</time></trkpt><trkpt lat="56.5046330" lon="85.0527189"><time>2023-08-20T05:21:38.490</time></trkpt><trkpt lat="56.5046852" lon="85.0526780"><time>2023-08-20T05:21:42.470</time></trkpt><trkpt lat="56.5047304" lon="85.0526206"><time>2023-08-20T05:21:46.477</time></trkpt><trkpt lat="56.5047698" lon="85.0525792"><time>2023-08-20T05:21:50.497</time></trkpt><trkpt lat="56.5048139" lon="85.0525382"><time>2023-08-20T05:21:55.483</time></trkpt><trkpt lat="56.5048653" lon="85.0525055"><time>2023-08-20T05:22:01.477</time></trkpt><trkpt lat="56.5049113" lon="85.0524733"><time>2023-08-20T05:22:05.480</time></trkpt><trkpt lat="56.5049551" lon="85.0524163"><time>2023-08-20T05:22:10.480</time></trkpt><trkpt lat="56.5049960" lon="85.0523592"><time>2023-08-20T05:22:16.480</time></trkpt><trkpt lat="56.5050316" lon="85.0522962"><time>2023-08-20T05:22:22.480</time></trkpt><trkpt lat="56.5050743" lon="85.0522682"><time>2023-08-20T05:22:25.477</time></trkpt><trkpt lat="56.5051241" lon="85.0522199"><time>2023-08-20T05:22:28.493</time></trkpt><trkpt lat="56.5051605" lon="85.0521703"><time>2023-08-20T05:22:31.477</time></trkpt><trkpt lat="56.5052209" lon="85.0521622"><time>2023-08-20T05:22:35.500</time></trkpt><trkpt lat="56.5052739" lon="85.0521485"><time>2023-08-20T05:22:37.477</time></trkpt><trkpt lat="56.5053212" lon="85.0520987"><time>2023-08-20T05:22:42.487</time></trkpt><trkpt lat="56.5053729" lon="85.0520801"><time>2023-08-20T05:22:45.497</time></trkpt><trkpt lat="56.5054182" lon="85.0520447"><time>2023-08-20T05:22:49.470</time></trkpt><trkpt lat="56.5054560" lon="85.0519802"><time>2023-08-20T05:22:53.493</time></trkpt><trkpt lat="56.5055139" lon="85.0519546"><time>2023-08-20T05:22:57.483</time></trkpt><trkpt lat="56.5055581" lon="85.0519035"><time>2023-08-20T05:23:02.487</time></trkpt><trkpt lat="56.5056094" lon="85.0518455"><time>2023-08-20T05:23:07.477</time></trkpt><trkpt lat="56.5056411" lon="85.0517803"><time>2023-08-20T05:23:10.487</time></trkpt><trkpt lat="56.5056992" lon="85.0517476"><time>2023-08-20T05:23:13.483</time></trkpt><trkpt lat="56.5057501" lon="85.0517268"><time>2023-08-20T05:23:15.487</time></trkpt><trkpt lat="56.5057868" lon="85.0516642"><time>2023-08-20T05:23:17.497</time></trkpt><trkpt lat="56.5058453" lon="85.0516133"><time>2023-08-20T05:23:20.477</time></trkpt><trkpt lat="56.5059043" lon="85.0515642"><time>2023-08-20T05:23:23.477</time></trkpt><trkpt lat="56.5059436" lon="85.0515244"><time>2023-08-20T05:23:25.490</time></trkpt><trkpt lat="56.5059846" lon="85.0514501"><time>2023-08-20T05:23:28.480</time></trkpt><trkpt lat="56.5060290" lon="85.0513748"><time>2023-08-20T05:23:31.477</time></trkpt><trkpt lat="56.5060801" lon="85.0513084"><time>2023-08-20T05:23:34.470</time></trkpt><trkpt lat="56.5061196" lon="85.0512592"><time>2023-08-20T05:23:36.483</time></trkpt><trkpt lat="56.5061624" lon="85.0512312"><time>2023-08-20T05:23:38.467</time></trkpt><trkpt lat="56.5061954" lon="85.0511508"><time>2023-08-20T05:23:41.480</time></trkpt><trkpt lat="56.5062682" lon="85.0511139"><time>2023-08-20T05:23:44.477</time></trkpt><trkpt lat="56.5063142" lon="85.0510779"><time>2023-08-20T05:23:46.507</time></trkpt><trkpt lat="56.5063638" lon="85.0510026"><time>2023-08-20T05:23:49.477</time></trkpt><trkpt lat="56.5064193" lon="85.0510507"><time>2023-08-20T05:23:52.467</time></trkpt><trkpt lat="56.5064608" lon="85.0511399"><time>2023-08-20T05:23:55.490</time></trkpt><trkpt lat="56.5064657" lon="85.0512295"><time>2023-08-20T05:23:57.477</time></trkpt><trkpt lat="56.5064353" lon="85.0512928"><time>2023-08-20T05:23:59.473</time></trkpt><trkpt lat="56.5064045" lon="85.0513559"><time>2023-08-20T05:24:01.480</time></trkpt><trkpt lat="56.5063538" lon="85.0514197"><time>2023-08-20T05:24:04.500</time></trkpt><trkpt lat="56.5063082" lon="85.0514358"><time>2023-08-20T05:24:06.487</time></trkpt><trkpt lat="56.5062692" lon="85.0514998"><time>2023-08-20T05:24:09.477</time></trkpt><trkpt lat="56.5062361" lon="85.0515728"><time>2023-08-20T05:24:12.463</time></trkpt><trkpt lat="56.5061970" lon="85.0516406"><time>2023-08-20T05:24:16.483</time></trkpt><trkpt lat="56.5061596" lon="85.0517007"><time>2023-08-20T05:24:20.477</time></trkpt><trkpt lat="56.5061636" lon="85.0518065"><time>2023-08-20T05:24:24.523</time></trkpt><trkpt lat="56.5061822" lon="85.0519252"><time>2023-08-20T05:24:27.473</time></trkpt><trkpt lat="56.5061894" lon="85.0520329"><time>2023-08-20T05:24:30.483</time></trkpt><trkpt lat="56.5062045" lon="85.0521387"><time>2023-08-20T05:24:33.483</time></trkpt><trkpt lat="56.5062263" lon="85.0522429"><time>2023-08-20T05:24:36.487</time></trkpt><trkpt lat="56.5062462" lon="85.0523453"><time>2023-08-20T05:24:39.470</time></trkpt><trkpt lat="56.5062693" lon="85.0524548"><time>2023-08-20T05:24:43.483</time></trkpt><trkpt lat="56.5062757" lon="85.0525507"><time>2023-08-20T05:24:46.497</time></trkpt><trkpt lat="56.5062707" lon="85.0526026"><time>2023-08-20T05:24:55.987</time></trkpt><trkpt lat="56.5062542" lon="85.0524776"><time>2023-08-20T05:25:06.480</time></trkpt><trkpt lat="56.5062340" lon="85.0524042"><time>2023-08-20T05:25:25.477</time></trkpt><trkpt lat="56.5062257" lon="85.0523237"><time>2023-08-20T05:25:29.483</time></trkpt><trkpt lat="56.5062077" lon="85.0522421"><time>2023-08-20T05:25:32.473</time></trkpt><trkpt lat="56.5061962" lon="85.0521498"><time>2023-08-20T05:25:35.477</time></trkpt><trkpt lat="56.5061848" lon="85.0520683"><time>2023-08-20T05:25:37.477</time></trkpt><trkpt lat="56.5061791" lon="85.0519518"><time>2023-08-20T05:25:40.477</time></trkpt><trkpt lat="56.5061769" lon="85.0518336"><time>2023-08-20T05:25:43.483</time></trkpt><trkpt lat="56.5061780" lon="85.0517513"><time>2023-08-20T05:25:45.470</time></trkpt><trkpt lat="56.5062104" lon="85.0516597"><time>2023-08-20T05:25:48.473</time></trkpt><trkpt lat="56.5062485" lon="85.0516034"><time>2023-08-20T05:25:50.470</time></trkpt><trkpt lat="56.5062998" lon="85.0515113"><time>2023-08-20T05:25:53.477</time></trkpt><trkpt lat="56.5063492" lon="85.0514621"><time>2023-08-20T05:25:55.477</time></trkpt><trkpt lat="56.5063899" lon="85.0514197"><time>2023-08-20T05:25:57.483</time></trkpt><trkpt lat="56.5064302" lon="85.0513634"><time>2023-08-20T05:26:01.473</time></trkpt><trkpt lat="56.5064622" lon="85.0512598"><time>2023-08-20T05:26:10.470</time></trkpt><trkpt lat="56.5064614" lon="85.0511760"><time>2023-08-20T05:26:14.470</time></trkpt><trkpt lat="56.5064322" lon="85.0510905"><time>2023-08-20T05:26:17.467</time></trkpt><trkpt lat="56.5063845" lon="85.0509926"><time>2023-08-20T05:26:19.480</time></trkpt><trkpt lat="56.5063409" lon="85.0508933"><time>2023-08-20T05:26:21.477</time></trkpt><trkpt lat="56.5063174" lon="85.0508010"><time>2023-08-20T05:26:23.483</time></trkpt><trkpt lat="56.5062904" lon="85.0507226"><time>2023-08-20T05:26:25.470</time></trkpt><trkpt lat="56.5062733" lon="85.0506438"><time>2023-08-20T05:26:27.477</time></trkpt><trkpt lat="56.5062782" lon="85.0505488"><time>2023-08-20T05:26:29.480</time></trkpt><trkpt lat="56.5063184" lon="85.0504615"><time>2023-08-20T05:26:31.480</time></trkpt><trkpt lat="56.5063515" lon="85.0504024"><time>2023-08-20T05:26:33.483</time></trkpt><trkpt lat="56.5063672" lon="85.0502903"><time>2023-08-20T05:26:36.473</time></trkpt><trkpt lat="56.5063835" lon="85.0502077"><time>2023-08-20T05:26:38.477</time></trkpt><trkpt lat="56.5063876" lon="85.0501130"><time>2023-08-20T05:26:40.477</time></trkpt><trkpt lat="56.5064131" lon="85.0500455"><time>2023-08-20T05:26:42.480</time></trkpt><trkpt lat="56.5064122" lon="85.0499510"><time>2023-08-20T05:26:44.467</time></trkpt><trkpt lat="56.5064244" lon="85.0498582"><time>2023-08-20T05:26:46.473</time></trkpt><trkpt lat="56.5064613" lon="85.0498014"><time>2023-08-20T05:26:48.480</time></trkpt><trkpt lat="56.5064773" lon="85.0496959"><time>2023-08-20T05:26:50.473</time></trkpt><trkpt lat="56.5065069" lon="85.0496119"><time>2023-08-20T05:26:52.470</time></trkpt><trkpt lat="56.5065568" lon="85.0495341"><time>2023-08-20T05:26:55.473</time></trkpt><trkpt lat="56.5065970" lon="85.0494746"><time>2023-08-20T05:26:57.470</time></trkpt><trkpt lat="56.5066438" lon="85.0494035"><time>2023-08-20T05:26:59.473</time></trkpt><trkpt lat="56.5066978" lon="85.0493664"><time>2023-08-20T05:27:01.473</time></trkpt><trkpt lat="56.5067227" lon="85.0492959"><time>2023-08-20T05:27:03.473</time></trkpt><trkpt lat="56.5067355" lon="85.0492171"><time>2023-08-20T05:27:05.473</time></trkpt><trkpt lat="56.5067755" lon="85.0491641"><time>2023-08-20T05:27:07.473</time></trkpt><trkpt lat="56.5068249" lon="85.0490774"><time>2023-08-20T05:27:10.480</time></trkpt><trkpt lat="56.5068695" lon="85.0490450"><time>2023-08-20T05:27:12.477</time></trkpt><trkpt lat="56.5069203" lon="85.0490057"><time>2023-08-20T05:27:14.473</time></trkpt><trkpt lat="56.5069707" lon="85.0489496"><time>2023-08-20T05:27:16.467</time></trkpt><trkpt lat="56.5070168" lon="85.0489176"><time>2023-08-20T05:27:18.467</time></trkpt><trkpt lat="56.5070731" lon="85.0488534"><time>2023-08-20T05:27:21.477</time></trkpt><trkpt lat="56.5071252" lon="85.0488366"><time>2023-08-20T05:27:23.483</time></trkpt><trkpt lat="56.5071703" lon="85.0488063"><time>2023-08-20T05:27:25.460</time></trkpt><trkpt lat="56.5072141" lon="85.0487387"><time>2023-08-20T05:27:27.473</time></trkpt><trkpt lat="56.5072415" lon="85.0486720"><time>2023-08-20T05:27:29.477</time></trkpt><trkpt lat="56.5072605" lon="85.0485781"><time>2023-08-20T05:27:32.487</time></trkpt><trkpt lat="56.5073036" lon="85.0484867"><time>2023-08-20T05:27:35.473</time></trkpt><trkpt lat="56.5073520" lon="85.0484617"><time>2023-08-20T05:27:37.477</time></trkpt><trkpt lat="56.5074188" lon="85.0484706"><time>2023-08-20T05:27:39.473</time></trkpt><trkpt lat="56.5074791" lon="85.0484612"><time>2023-08-20T05:27:41.477</time></trkpt><trkpt lat="56.5075300" lon="85.0484604"><time>2023-08-20T05:27:43.473</time></trkpt><trkpt lat="56.5075737" lon="85.0484070"><time>2023-08-20T05:27:45.467</time></trkpt><trkpt lat="56.5076354" lon="85.0483732"><time>2023-08-20T05:27:47.467</time></trkpt><trkpt lat="56.5076917" lon="85.0483419"><time>2023-08-20T05:27:49.467</time></trkpt><trkpt lat="56.5077489" lon="85.0483166"><time>2023-08-20T05:27:51.493</time></trkpt><trkpt lat="56.5077934" lon="85.0482836"><time>2023-08-20T05:27:53.470</time></trkpt><trkpt lat="56.5078430" lon="85.0482573"><time>2023-08-20T05:27:55.470</time></trkpt><trkpt lat="56.5078829" lon="85.0481941"><time>2023-08-20T05:27:57.480</time></trkpt><trkpt lat="56.5079245" lon="85.0481515"><time>2023-08-20T05:27:59.473</time></trkpt><trkpt lat="56.5079769" lon="85.0481127"><time>2023-08-20T05:28:01.470</time></trkpt><trkpt lat="56.5080307" lon="85.0480763"><time>2023-08-20T05:28:03.477</time></trkpt><trkpt lat="56.5080813" lon="85.0480387"><time>2023-08-20T05:28:05.467</time></trkpt><trkpt lat="56.5081364" lon="85.0480155"><time>2023-08-20T05:28:07.477</time></trkpt><trkpt lat="56.5081924" lon="85.0479938"><time>2023-08-20T05:28:09.477</time></trkpt><trkpt lat="56.5082441" lon="85.0479748"><time>2023-08-20T05:28:11.473</time></trkpt><trkpt lat="56.5082974" lon="85.0479551"><time>2023-08-20T05:28:13.477</time></trkpt><trkpt lat="56.5083510" lon="85.0479262"><time>2023-08-20T05:28:15.477</time></trkpt><trkpt lat="56.5084076" lon="85.0479013"><time>2023-08-20T05:28:17.477</time></trkpt><trkpt lat="56.5084610" lon="85.0478761"><time>2023-08-20T05:28:19.480</time></trkpt><trkpt lat="56.5085180" lon="85.0478528"><time>2023-08-20T05:28:21.477</time></trkpt><trkpt lat="56.5085636" lon="85.0478100"><time>2023-08-20T05:28:23.477</time></trkpt><trkpt lat="56.5086364" lon="85.0478329"><time>2023-08-20T05:28:26.470</time></trkpt><trkpt lat="56.5086937" lon="85.0478834"><time>2023-08-20T05:28:28.473</time></trkpt><trkpt lat="56.5087349" lon="85.0479409"><time>2023-08-20T05:28:30.477</time></trkpt><trkpt lat="56.5087537" lon="85.0480206"><time>2023-08-20T05:28:32.477</time></trkpt><trkpt lat="56.5087684" lon="85.0481004"><time>2023-08-20T05:28:34.473</time></trkpt><trkpt lat="56.5087776" lon="85.0481805"><time>2023-08-20T05:28:36.470</time></trkpt><trkpt lat="56.5087968" lon="85.0483015"><time>2023-08-20T05:28:39.473</time></trkpt><trkpt lat="56.5088027" lon="85.0483871"><time>2023-08-20T05:28:41.470</time></trkpt><trkpt lat="56.5088363" lon="85.0484792"><time>2023-08-20T05:28:44.480</time></trkpt><trkpt lat="56.5088631" lon="85.0485480"><time>2023-08-20T05:28:46.480</time></trkpt><trkpt lat="56.5088244" lon="85.0484110"><time>2023-08-20T05:29:03.477</time></trkpt><trkpt lat="56.5087955" lon="85.0483122"><time>2023-08-20T05:29:05.483</time></trkpt><trkpt lat="56.5087867" lon="85.0482323"><time>2023-08-20T05:29:06.477</time></trkpt><trkpt lat="56.5087989" lon="85.0481332"><time>2023-08-20T05:29:08.483</time></trkpt><trkpt lat="56.5088104" lon="85.0480392"><time>2023-08-20T05:29:10.477</time></trkpt><trkpt lat="56.5088398" lon="85.0479764"><time>2023-08-20T05:29:12.467</time></trkpt><trkpt lat="56.5088952" lon="85.0479715"><time>2023-08-20T05:29:14.473</time></trkpt><trkpt lat="56.5089404" lon="85.0479618"><time>2023-08-20T05:29:16.497</time></trkpt><trkpt lat="56.5089983" lon="85.0479180"><time>2023-08-20T05:29:19.497</time></trkpt><trkpt lat="56.5090489" lon="85.0478152"><time>2023-08-20T05:29:22.497</time></trkpt><trkpt lat="56.5090946" lon="85.0477230"><time>2023-08-20T05:29:24.483</time></trkpt><trkpt lat="56.5091451" lon="85.0477003"><time>2023-08-20T05:29:27.500</time></trkpt><trkpt lat="56.5092001" lon="85.0476554"><time>2023-08-20T05:29:30.507</time></trkpt><trkpt lat="56.5092397" lon="85.0476133"><time>2023-08-20T05:29:33.497</time></trkpt><trkpt lat="56.5092876" lon="85.0475357"><time>2023-08-20T05:29:36.497</time></trkpt><trkpt lat="56.5093280" lon="85.0474464"><time>2023-08-20T05:29:39.507</time></trkpt><trkpt lat="56.5093339" lon="85.0473406"><time>2023-08-20T05:29:42.497</time></trkpt><trkpt lat="56.5093586" lon="85.0472214"><time>2023-08-20T05:29:45.493</time></trkpt><trkpt lat="56.5093885" lon="85.0471182"><time>2023-08-20T05:29:48.497</time></trkpt><trkpt lat="56.5094211" lon="85.0469679"><time>2023-08-20T05:30:14.480</time></trkpt><trkpt lat="56.5094373" lon="85.0468603"><time>2023-08-20T05:30:16.490</time></trkpt><trkpt lat="56.5094965" lon="85.0468184"><time>2023-08-20T05:30:18.490</time></trkpt><trkpt lat="56.5095116" lon="85.0467250"><time>2023-08-20T05:30:20.493</time></trkpt><trkpt lat="56.5095217" lon="85.0466355"><time>2023-08-20T05:30:22.493</time></trkpt><trkpt lat="56.5095107" lon="85.0465474"><time>2023-08-20T05:30:29.490</time></trkpt><trkpt lat="56.5095263" lon="85.0464401"><time>2023-08-20T05:30:31.487</time></trkpt><trkpt lat="56.5095497" lon="85.0463496"><time>2023-08-20T05:30:33.483</time></trkpt><trkpt lat="56.5095906" lon="85.0462594"><time>2023-08-20T05:30:36.497</time></trkpt><trkpt lat="56.5096154" lon="85.0461674"><time>2023-08-20T05:30:38.487</time></trkpt><trkpt lat="56.5096373" lon="85.0460861"><time>2023-08-20T05:30:40.483</time></trkpt><trkpt lat="56.5096556" lon="85.0460063"><time>2023-08-20T05:30:42.490</time></trkpt><trkpt lat="56.5096508" lon="85.0458957"><time>2023-08-20T05:30:44.487</time></trkpt><trkpt lat="56.5096538" lon="85.0457961"><time>2023-08-20T05:30:46.480</time></trkpt><trkpt lat="56.5096716" lon="85.0457062"><time>2023-08-20T05:30:48.490</time></trkpt><trkpt lat="56.5096867" lon="85.0456222"><time>2023-08-20T05:30:50.487</time></trkpt><trkpt lat="56.5097072" lon="85.0455282"><time>2023-08-20T05:30:52.483</time></trkpt><trkpt lat="56.5097383" lon="85.0454500"><time>2023-08-20T05:30:54.480</time></trkpt><trkpt lat="56.5097535" lon="85.0453703"><time>2023-08-20T05:30:56.487</time></trkpt><trkpt lat="56.5097648" lon="85.0452899"><time>2023-08-20T05:30:58.487</time></trkpt><trkpt lat="56.5097705" lon="85.0451906"><time>2023-08-20T05:31:00.483</time></trkpt><trkpt lat="56.5097925" lon="85.0451179"><time>2023-08-20T05:31:02.480</time></trkpt><trkpt lat="56.5098354" lon="85.0450152"><time>2023-08-20T05:31:05.493</time></trkpt><trkpt lat="56.5098526" lon="85.0449184"><time>2023-08-20T05:31:07.487</time></trkpt><trkpt lat="56.5098980" lon="85.0448404"><time>2023-08-20T05:31:10.487</time></trkpt><trkpt lat="56.5099465" lon="85.0448114"><time>2023-08-20T05:31:12.487</time></trkpt><trkpt lat="56.5099897" lon="85.0447728"><time>2023-08-20T05:31:14.487</time></trkpt><trkpt lat="56.5100033" lon="85.0446937"><time>2023-08-20T05:31:17.487</time></trkpt><trkpt lat="56.5100022" lon="85.0445981"><time>2023-08-20T05:31:21.483</time></trkpt><trkpt lat="56.5099872" lon="85.0444991"><time>2023-08-20T05:31:30.483</time></trkpt><trkpt lat="56.5099604" lon="85.0444317"><time>2023-08-20T05:31:51.490</time></trkpt><trkpt lat="56.5099366" lon="85.0443408"><time>2023-08-20T05:32:06.477</time></trkpt><trkpt lat="56.5099149" lon="85.0442614"><time>2023-08-20T05:32:09.490</time></trkpt><trkpt lat="56.5099348" lon="85.0441813"><time>2023-08-20T05:32:12.490</time></trkpt><trkpt lat="56.5098908" lon="85.0441343"><time>2023-08-20T05:32:17.483</time></trkpt><trkpt lat="56.5098486" lon="85.0440956"><time>2023-08-20T05:32:21.487</time></trkpt><trkpt lat="56.5098022" lon="85.0440339"><time>2023-08-20T05:32:27.483</time></trkpt><trkpt lat="56.5097800" lon="85.0439386"><time>2023-08-20T05:32:30.490</time></trkpt><trkpt lat="56.5097995" lon="85.0438583"><time>2023-08-20T05:32:39.470</time></trkpt><trkpt lat="56.5097954" lon="85.0437616"><time>2023-08-20T05:32:45.487</time></trkpt><trkpt lat="56.5097983" lon="85.0436758"><time>2023-08-20T05:33:14.487</time></trkpt><trkpt lat="56.5098281" lon="85.0436148"><time>2023-08-20T05:33:18.473</time></trkpt><trkpt lat="56.5098658" lon="85.0435284"><time>2023-08-20T05:33:21.487</time></trkpt><trkpt lat="56.5099146" lon="85.0434723"><time>2023-08-20T05:33:25.487</time></trkpt><trkpt lat="56.5099480" lon="85.0434155"><time>2023-08-20T05:33:29.487</time></trkpt><trkpt lat="56.5099837" lon="85.0433495"><time>2023-08-20T05:33:32.497</time></trkpt><trkpt lat="56.5100075" lon="85.0432790"><time>2023-08-20T05:33:36.490</time></trkpt><trkpt lat="56.5100299" lon="85.0431861"><time>2023-08-20T05:33:39.493</time></trkpt><trkpt lat="56.5100509" lon="85.0430937"><time>2023-08-20T05:33:43.487</time></trkpt><trkpt lat="56.5100697" lon="85.0429924"><time>2023-08-20T05:33:46.483</time></trkpt><trkpt lat="56.5100804" lon="85.0429079"><time>2023-08-20T05:33:48.487</time></trkpt><trkpt lat="56.5100741" lon="85.0428187"><time>2023-08-20T05:33:54.487</time></trkpt><trkpt lat="56.5100756" lon="85.0427273"><time>2023-08-20T05:34:05.490</time></trkpt><trkpt lat="56.5101204" lon="85.0426780"><time>2023-08-20T05:34:10.487</time></trkpt><trkpt lat="56.5101260" lon="85.0425952"><time>2023-08-20T05:34:20.493</time></trkpt><trkpt lat="56.5101701" lon="85.0425472"><time>2023-08-20T05:34:32.490</time></trkpt><trkpt lat="56.5102119" lon="85.0425791"><time>2023-08-20T05:34:38.487</time></trkpt><trkpt lat="56.5102476" lon="85.0426308"><time>2023-08-20T05:34:42.497</time></trkpt><trkpt lat="56.5102936" lon="85.0426337"><time>2023-08-20T05:34:46.480</time></trkpt><trkpt lat="56.5103244" lon="85.0425483"><time>2023-08-20T05:34:51.487</time></trkpt><trkpt lat="56.5103408" lon="85.0424499"><time>2023-08-20T05:34:54.487</time></trkpt><trkpt lat="56.5103440" lon="85.0423687"><time>2023-08-20T05:34:57.483</time></trkpt><trkpt lat="56.5103511" lon="85.0422734"><time>2023-08-20T05:35:01.483</time></trkpt><trkpt lat="56.5103747" lon="85.0421940"><time>2023-08-20T05:35:17.490</time></trkpt><trkpt lat="56.5103912" lon="85.0420984"><time>2023-08-20T05:35:22.487</time></trkpt><trkpt lat="56.5103797" lon="85.0420132"><time>2023-08-20T05:35:25.487</time></trkpt><trkpt lat="56.5103723" lon="85.0419300"><time>2023-08-20T05:35:29.490</time></trkpt><trkpt lat="56.5104042" lon="85.0418668"><time>2023-08-20T05:35:34.487</time></trkpt><trkpt lat="56.5103679" lon="85.0417807"><time>2023-08-20T05:35:52.477</time></trkpt><trkpt lat="56.5103581" lon="85.0417002"><time>2023-08-20T05:35:56.480</time></trkpt><trkpt lat="56.5103083" lon="85.0416857"><time>2023-08-20T05:36:01.480</time></trkpt><trkpt lat="56.5102733" lon="85.0417620"><time>2023-08-20T05:36:05.477</time></trkpt><trkpt lat="56.5102506" lon="85.0418357"><time>2023-08-20T05:36:07.477</time></trkpt><trkpt lat="56.5102018" lon="85.0418902"><time>2023-08-20T05:36:09.480</time></trkpt><trkpt lat="56.5101557" lon="85.0419315"><time>2023-08-20T05:36:11.507</time></trkpt><trkpt lat="56.5101058" lon="85.0419924"><time>2023-08-20T05:36:14.493</time></trkpt><trkpt lat="56.5100655" lon="85.0420407"><time>2023-08-20T05:36:18.477</time></trkpt><trkpt lat="56.5100311" lon="85.0421057"><time>2023-08-20T05:36:23.480</time></trkpt><trkpt lat="56.5100088" lon="85.0421936"><time>2023-08-20T05:36:26.477</time></trkpt><trkpt lat="56.5099838" lon="85.0422994"><time>2023-08-20T05:36:31.480</time></trkpt><trkpt lat="56.5099489" lon="85.0424038"><time>2023-08-20T05:36:33.470</time></trkpt><trkpt lat="56.5099168" lon="85.0424800"><time>2023-08-20T05:36:35.467</time></trkpt><trkpt lat="56.5098762" lon="85.0425859"><time>2023-08-20T05:36:37.480</time></trkpt><trkpt lat="56.5098466" lon="85.0426600"><time>2023-08-20T05:36:39.477</time></trkpt><trkpt lat="56.5098280" lon="85.0427504"><time>2023-08-20T05:36:41.507</time></trkpt><trkpt lat="56.5097923" lon="85.0428217"><time>2023-08-20T05:36:43.473</time></trkpt><trkpt lat="56.5097646" lon="85.0428921"><time>2023-08-20T05:36:45.473</time></trkpt><trkpt lat="56.5097169" lon="85.0429812"><time>2023-08-20T05:36:48.470</time></trkpt><trkpt lat="56.5096861" lon="85.0430527"><time>2023-08-20T05:36:50.473</time></trkpt><trkpt lat="56.5096610" lon="85.0431338"><time>2023-08-20T05:36:52.477</time></trkpt><trkpt lat="56.5096256" lon="85.0432131"><time>2023-08-20T05:36:54.477</time></trkpt><trkpt lat="56.5095918" lon="85.0432860"><time>2023-08-20T05:36:56.477</time></trkpt><trkpt lat="56.5095626" lon="85.0433597"><time>2023-08-20T05:36:58.473</time></trkpt><trkpt lat="56.5095337" lon="85.0434569"><time>2023-08-20T05:37:01.480</time></trkpt><trkpt lat="56.5094940" lon="85.0435262"><time>2023-08-20T05:37:03.473</time></trkpt><trkpt lat="56.5094635" lon="85.0435908"><time>2023-08-20T05:37:05.477</time></trkpt><trkpt lat="56.5094213" lon="85.0436859"><time>2023-08-20T05:37:08.477</time></trkpt><trkpt lat="56.5093735" lon="85.0437250"><time>2023-08-20T05:37:10.473</time></trkpt><trkpt lat="56.5093264" lon="85.0437694"><time>2023-08-20T05:37:12.480</time></trkpt><trkpt lat="56.5092796" lon="85.0438063"><time>2023-08-20T05:37:14.477</time></trkpt><trkpt lat="56.5092290" lon="85.0438848"><time>2023-08-20T05:37:17.487</time></trkpt><trkpt lat="56.5091815" lon="85.0439376"><time>2023-08-20T05:37:19.490</time></trkpt><trkpt lat="56.5091323" lon="85.0439437"><time>2023-08-20T05:37:21.487</time></trkpt><trkpt lat="56.5090699" lon="85.0439912"><time>2023-08-20T05:37:24.480</time></trkpt><trkpt lat="56.5090214" lon="85.0440119"><time>2023-08-20T05:37:26.487</time></trkpt><trkpt lat="56.5089635" lon="85.0440208"><time>2023-08-20T05:37:29.487</time></trkpt><trkpt lat="56.5089144" lon="85.0440178"><time>2023-08-20T05:37:32.480</time></trkpt><trkpt lat="56.5088554" lon="85.0440060"><time>2023-08-20T05:37:36.480</time></trkpt><trkpt lat="56.5088073" lon="85.0440021"><time>2023-08-20T05:37:43.910</time></trkpt><trkpt lat="56.5087521" lon="85.0440321"><time>2023-08-20T05:37:47.473</time></trkpt><trkpt lat="56.5087108" lon="85.0440774"><time>2023-08-20T05:37:50.477</time></trkpt><trkpt lat="56.5087426" lon="85.0439875"><time>2023-08-20T05:38:05.483</time></trkpt><trkpt lat="56.5087837" lon="85.0439245"><time>2023-08-20T05:38:08.480</time></trkpt><trkpt lat="56.5087811" lon="85.0438316"><time>2023-08-20T05:38:11.473</time></trkpt><trkpt lat="56.5087667" lon="85.0437321"><time>2023-08-20T05:38:14.780</time></trkpt><trkpt lat="56.5087463" lon="85.0436592"><time>2023-08-20T05:38:18.470</time></trkpt><trkpt lat="56.5086976" lon="85.0436577"><time>2023-08-20T05:38:37.473</time></trkpt><trkpt lat="56.5086916" lon="85.0436074"><time>2023-08-20T05:38:48.853</time></trkpt><trkpt lat="56.5087525" lon="85.0436228"><time>2023-08-20T05:39:01.493</time></trkpt><trkpt lat="56.5087709" lon="85.0437007"><time>2023-08-20T05:39:05.487</time></trkpt><trkpt lat="56.5087861" lon="85.0437900"><time>2023-08-20T05:39:08.493</time></trkpt><trkpt lat="56.5088358" lon="85.0438717"><time>2023-08-20T05:39:11.493</time></trkpt><trkpt lat="56.5088767" lon="85.0439128"><time>2023-08-20T05:39:13.490</time></trkpt><trkpt lat="56.5089204" lon="85.0439503"><time>2023-08-20T05:39:22.483</time></trkpt><trkpt lat="56.5089643" lon="85.0439853"><time>2023-08-20T05:39:27.490</time></trkpt><trkpt lat="56.5090137" lon="85.0439902"><time>2023-08-20T05:39:32.487</time></trkpt><trkpt lat="56.5090624" lon="85.0439639"><time>2023-08-20T05:39:36.490</time></trkpt><trkpt lat="56.5091167" lon="85.0439129"><time>2023-08-20T05:39:40.487</time></trkpt><trkpt lat="56.5091605" lon="85.0438854"><time>2023-08-20T05:39:42.487</time></trkpt><trkpt lat="56.5092092" lon="85.0438521"><time>2023-08-20T05:39:44.493</time></trkpt><trkpt lat="56.5092924" lon="85.0437989"><time>2023-08-20T05:39:46.487</time></trkpt><trkpt lat="56.5093357" lon="85.0437592"><time>2023-08-20T05:39:48.483</time></trkpt><trkpt lat="56.5093815" lon="85.0437397"><time>2023-08-20T05:39:50.483</time></trkpt><trkpt lat="56.5094339" lon="85.0436746"><time>2023-08-20T05:39:53.487</time></trkpt><trkpt lat="56.5094646" lon="85.0435969"><time>2023-08-20T05:39:55.493</time></trkpt><trkpt lat="56.5094913" lon="85.0435123"><time>2023-08-20T05:39:57.487</time></trkpt><trkpt lat="56.5095151" lon="85.0434366"><time>2023-08-20T05:39:59.490</time></trkpt><trkpt lat="56.5095645" lon="85.0433438"><time>2023-08-20T05:40:02.483</time></trkpt><trkpt lat="56.5095992" lon="85.0432818"><time>2023-08-20T05:40:04.477</time></trkpt><trkpt lat="56.5096174" lon="85.0432029"><time>2023-08-20T05:40:06.470</time></trkpt><trkpt lat="56.5096316" lon="85.0431078"><time>2023-08-20T05:40:08.467</time></trkpt><trkpt lat="56.5096468" lon="85.0430236"><time>2023-08-20T05:40:10.490</time></trkpt><trkpt lat="56.5096931" lon="85.0429553"><time>2023-08-20T05:40:13.477</time></trkpt><trkpt lat="56.5097264" lon="85.0428974"><time>2023-08-20T05:40:15.483</time></trkpt><trkpt lat="56.5097645" lon="85.0428515"><time>2023-08-20T05:40:17.480</time></trkpt><trkpt lat="56.5098022" lon="85.0427689"><time>2023-08-20T05:40:20.480</time></trkpt><trkpt lat="56.5098214" lon="85.0426892"><time>2023-08-20T05:40:22.470</time></trkpt><trkpt lat="56.5098593" lon="85.0426033"><time>2023-08-20T05:40:25.480</time></trkpt><trkpt lat="56.5098945" lon="85.0425427"><time>2023-08-20T05:40:27.483</time></trkpt><trkpt lat="56.5099246" lon="85.0424650"><time>2023-08-20T05:40:29.480</time></trkpt><trkpt lat="56.5099692" lon="85.0423731"><time>2023-08-20T05:40:32.483</time></trkpt><trkpt lat="56.5099982" lon="85.0423004"><time>2023-08-20T05:40:34.477</time></trkpt><trkpt lat="56.5100305" lon="85.0422367"><time>2023-08-20T05:40:36.487</time></trkpt><trkpt lat="56.5100784" lon="85.0421634"><time>2023-08-20T05:40:41.473</time></trkpt><trkpt lat="56.5101164" lon="85.0420617"><time>2023-08-20T05:40:43.487</time></trkpt><trkpt lat="56.5101712" lon="85.0420017"><time>2023-08-20T05:40:45.487</time></trkpt><trkpt lat="56.5102075" lon="85.0419356"><time>2023-08-20T05:40:47.487</time></trkpt><trkpt lat="56.5102391" lon="85.0418631"><time>2023-08-20T05:40:49.507</time></trkpt><trkpt lat="56.5102669" lon="85.0417856"><time>2023-08-20T05:40:51.480</time></trkpt><trkpt lat="56.5102942" lon="85.0417148"><time>2023-08-20T05:40:53.490</time></trkpt><trkpt lat="56.5103310" lon="85.0416615"><time>2023-08-20T05:40:55.483</time></trkpt><trkpt lat="56.5103711" lon="85.0415975"><time>2023-08-20T05:40:58.480</time></trkpt><trkpt lat="56.5104019" lon="85.0415046"><time>2023-08-20T05:41:00.487</time></trkpt><trkpt lat="56.5104359" lon="85.0414354"><time>2023-08-20T05:41:02.480</time></trkpt><trkpt lat="56.5104656" lon="85.0413326"><time>2023-08-20T05:41:05.477</time></trkpt><trkpt lat="56.5104884" lon="85.0412556"><time>2023-08-20T05:41:07.480</time></trkpt><trkpt lat="56.5105134" lon="85.0411762"><time>2023-08-20T05:41:09.477</time></trkpt><trkpt lat="56.5105347" lon="85.0410712"><time>2023-08-20T05:41:12.507</time></trkpt><trkpt lat="56.5105564" lon="85.0409964"><time>2023-08-20T05:41:15.480</time></trkpt><trkpt lat="56.5105744" lon="85.0409031"><time>2023-08-20T05:41:18.497</time></trkpt><trkpt lat="56.5106045" lon="85.0408203"><time>2023-08-20T05:41:21.483</time></trkpt><trkpt lat="56.5106337" lon="85.0407344"><time>2023-08-20T05:41:24.483</time></trkpt><trkpt lat="56.5106667" lon="85.0406407"><time>2023-08-20T05:41:27.487</time></trkpt><trkpt lat="56.5107016" lon="85.0405612"><time>2023-08-20T05:41:30.487</time></trkpt><trkpt lat="56.5107363" lon="85.0404831"><time>2023-08-20T05:41:33.483</time></trkpt><trkpt lat="56.5107648" lon="85.0404072"><time>2023-08-20T05:41:36.513</time></trkpt><trkpt lat="56.5108069" lon="85.0403364"><time>2023-08-20T05:41:39.487</time></trkpt><trkpt lat="56.5108660" lon="85.0402753"><time>2023-08-20T05:41:42.477</time></trkpt><trkpt lat="56.5109043" lon="85.0402313"><time>2023-08-20T05:41:44.477</time></trkpt><trkpt lat="56.5109478" lon="85.0401839"><time>2023-08-20T05:41:46.477</time></trkpt><trkpt lat="56.5109902" lon="85.0401433"><time>2023-08-20T05:41:48.483</time></trkpt><trkpt lat="56.5110364" lon="85.0400989"><time>2023-08-20T05:41:50.477</time></trkpt><trkpt lat="56.5110942" lon="85.0400586"><time>2023-08-20T05:41:53.480</time></trkpt><trkpt lat="56.5111428" lon="85.0400279"><time>2023-08-20T05:41:55.483</time></trkpt><trkpt lat="56.5112046" lon="85.0400494"><time>2023-08-20T05:41:58.477</time></trkpt><trkpt lat="56.5112377" lon="85.0401362"><time>2023-08-20T05:42:01.470</time></trkpt><trkpt lat="56.5112323" lon="85.0402500"><time>2023-08-20T05:42:03.480</time></trkpt><trkpt lat="56.5112408" lon="85.0403373"><time>2023-08-20T05:42:05.497</time></trkpt><trkpt lat="56.5112725" lon="85.0404929"><time>2023-08-20T05:42:07.533</time></trkpt><trkpt lat="56.5113214" lon="85.0405596"><time>2023-08-20T05:42:10.497</time></trkpt><trkpt lat="56.5113478" lon="85.0406332"><time>2023-08-20T05:42:12.503</time></trkpt><trkpt lat="56.5113796" lon="85.0407084"><time>2023-08-20T05:42:15.480</time></trkpt><trkpt lat="56.5114037" lon="85.0407792"><time>2023-08-20T05:42:17.490</time></trkpt><trkpt lat="56.5114224" lon="85.0408837"><time>2023-08-20T05:42:20.487</time></trkpt><trkpt lat="56.5114383" lon="85.0409654"><time>2023-08-20T05:42:22.500</time></trkpt><trkpt lat="56.5114430" lon="85.0410471"><time>2023-08-20T05:42:24.497</time></trkpt><trkpt lat="56.5114811" lon="85.0411398"><time>2023-08-20T05:42:27.480</time></trkpt><trkpt lat="56.5115013" lon="85.0412297"><time>2023-08-20T05:42:29.500</time></trkpt><trkpt lat="56.5115172" lon="85.0413193"><time>2023-08-20T05:42:31.480</time></trkpt><trkpt lat="56.5115366" lon="85.0414097"><time>2023-08-20T05:42:33.477</time></trkpt><trkpt lat="56.5115665" lon="85.0415093"><time>2023-08-20T05:42:35.477</time></trkpt><trkpt lat="56.5115890" lon="85.0416152"><time>2023-08-20T05:42:38.480</time></trkpt><trkpt lat="56.5116123" lon="85.0417210"><time>2023-08-20T05:42:41.477</time></trkpt><trkpt lat="56.5116474" lon="85.0417960"><time>2023-08-20T05:42:44.480</time></trkpt><trkpt lat="56.5116527" lon="85.0418768"><time>2023-08-20T05:42:48.483</time></trkpt><trkpt lat="56.5116811" lon="85.0419704"><time>2023-08-20T05:42:52.487</time></trkpt><trkpt lat="56.5116959" lon="85.0420600"><time>2023-08-20T05:42:55.480</time></trkpt><trkpt lat="56.5117134" lon="85.0421352"><time>2023-08-20T05:42:59.473</time></trkpt><trkpt lat="56.5116746" lon="85.0421947"><time>2023-08-20T05:43:10.483</time></trkpt><trkpt lat="56.5116611" lon="85.0422150"><time>2023-08-20T05:43:14.023</time></trkpt><trkpt lat="56.5117219" lon="85.0422378"><time>2023-08-20T05:43:34.470</time></trkpt><trkpt lat="56.5117355" lon="85.0423348"><time>2023-08-20T05:43:37.470</time></trkpt><trkpt lat="56.5117698" lon="85.0423879"><time>2023-08-20T05:43:40.480</time></trkpt><trkpt lat="56.5117654" lon="85.0424827"><time>2023-08-20T05:43:42.477</time></trkpt><trkpt lat="56.5117593" lon="85.0425685"><time>2023-08-20T05:43:44.477</time></trkpt><trkpt lat="56.5117689" lon="85.0426760"><time>2023-08-20T05:43:47.517</time></trkpt><trkpt lat="56.5117999" lon="85.0427443"><time>2023-08-20T05:43:49.480</time></trkpt><trkpt lat="56.5118081" lon="85.0428680"><time>2023-08-20T05:43:52.483</time></trkpt><trkpt lat="56.5118047" lon="85.0429608"><time>2023-08-20T05:43:55.483</time></trkpt><trkpt lat="56.5118116" lon="85.0430427"><time>2023-08-20T05:43:57.473</time></trkpt><trkpt lat="56.5118290" lon="85.0431826"><time>2023-08-20T05:43:59.483</time></trkpt><trkpt lat="56.5118780" lon="85.0432687"><time>2023-08-20T05:44:01.483</time></trkpt><trkpt lat="56.5119250" lon="85.0432690"><time>2023-08-20T05:44:11.483</time></trkpt><trkpt lat="56.5119767" lon="85.0432361"><time>2023-08-20T05:44:14.487</time></trkpt><trkpt lat="56.5120304" lon="85.0431760"><time>2023-08-20T05:44:17.487</time></trkpt><trkpt lat="56.5120762" lon="85.0431198"><time>2023-08-20T05:44:19.480</time></trkpt><trkpt lat="56.5121210" lon="85.0430863"><time>2023-08-20T05:44:22.480</time></trkpt><trkpt lat="56.5121820" lon="85.0430823"><time>2023-08-20T05:44:24.477</time></trkpt><trkpt lat="56.5122360" lon="85.0432114"><time>2023-08-20T05:44:26.490</time></trkpt><trkpt lat="56.5122723" lon="85.0432884"><time>2023-08-20T05:44:27.480</time></trkpt><trkpt lat="56.5122904" lon="85.0433629"><time>2023-08-20T05:44:37.483</time></trkpt><trkpt lat="56.5123080" lon="85.0434787"><time>2023-08-20T05:44:43.487</time></trkpt><trkpt lat="56.5123361" lon="85.0435775"><time>2023-08-20T05:44:44.483</time></trkpt><trkpt lat="56.5123585" lon="85.0436663"><time>2023-08-20T05:44:45.490</time></trkpt><trkpt lat="56.5123970" lon="85.0438157"><time>2023-08-20T05:44:46.487</time></trkpt><trkpt lat="56.5124108" lon="85.0439169"><time>2023-08-20T05:44:47.487</time></trkpt><trkpt lat="56.5123878" lon="85.0440259"><time>2023-08-20T05:44:49.477</time></trkpt><trkpt lat="56.5124334" lon="85.0440201"><time>2023-08-20T05:44:50.487</time></trkpt><trkpt lat="56.5125305" lon="85.0440912"><time>2023-08-20T05:44:51.473</time></trkpt><trkpt lat="56.5124669" lon="85.0441557"><time>2023-08-20T05:44:52.477</time></trkpt><trkpt lat="56.5125020" lon="85.0442814"><time>2023-08-20T05:44:54.473</time></trkpt><trkpt lat="56.5125183" lon="85.0443695"><time>2023-08-20T05:44:56.480</time></trkpt><trkpt lat="56.5125547" lon="85.0444339"><time>2023-08-20T05:44:57.480</time></trkpt><trkpt lat="56.5125854" lon="85.0445104"><time>2023-08-20T05:44:59.473</time></trkpt><trkpt lat="56.5126309" lon="85.0445760"><time>2023-08-20T05:45:01.487</time></trkpt><trkpt lat="56.5126809" lon="85.0446889"><time>2023-08-20T05:45:03.477</time></trkpt><trkpt lat="56.5127005" lon="85.0447895"><time>2023-08-20T05:45:05.497</time></trkpt><trkpt lat="56.5127298" lon="85.0448721"><time>2023-08-20T05:45:07.477</time></trkpt><trkpt lat="56.5127582" lon="85.0449510"><time>2023-08-20T05:45:09.530</time></trkpt><trkpt lat="56.5127715" lon="85.0450492"><time>2023-08-20T05:45:11.480</time></trkpt><trkpt lat="56.5127815" lon="85.0451443"><time>2023-08-20T05:45:13.483</time></trkpt><trkpt lat="56.5128070" lon="85.0452264"><time>2023-08-20T05:45:15.487</time></trkpt><trkpt lat="56.5128345" lon="85.0453332"><time>2023-08-20T05:45:17.477</time></trkpt><trkpt lat="56.5128388" lon="85.0454257"><time>2023-08-20T05:45:19.497</time></trkpt><trkpt lat="56.5128457" lon="85.0455239"><time>2023-08-20T05:45:21.480</time></trkpt><trkpt lat="56.5128975" lon="85.0456105"><time>2023-08-20T05:45:23.467</time></trkpt><trkpt lat="56.5129493" lon="85.0456893"><time>2023-08-20T05:45:25.487</time></trkpt><trkpt lat="56.5129849" lon="85.0457617"><time>2023-08-20T05:45:27.480</time></trkpt><trkpt lat="56.5130076" lon="85.0458569"><time>2023-08-20T05:45:29.503</time></trkpt><trkpt lat="56.5130262" lon="85.0459713"><time>2023-08-20T05:45:31.490</time></trkpt><trkpt lat="56.5130462" lon="85.0460882"><time>2023-08-20T05:45:33.477</time></trkpt><trkpt lat="56.5130624" lon="85.0461639"><time>2023-08-20T05:45:34.487</time></trkpt><trkpt lat="56.5131286" lon="85.0462163"><time>2023-08-20T05:45:36.497</time></trkpt><trkpt lat="56.5131119" lon="85.0463019"><time>2023-08-20T05:45:48.477</time></trkpt><trkpt lat="56.5131377" lon="85.0463946"><time>2023-08-20T05:45:51.487</time></trkpt><trkpt lat="56.5131738" lon="85.0464896"><time>2023-08-20T05:45:53.497</time></trkpt><trkpt lat="56.5131979" lon="85.0465897"><time>2023-08-20T05:45:55.480</time></trkpt><trkpt lat="56.5132104" lon="85.0467135"><time>2023-08-20T05:45:57.483</time></trkpt><trkpt lat="56.5132458" lon="85.0467957"><time>2023-08-20T05:45:59.477</time></trkpt><trkpt lat="56.5132846" lon="85.0468949"><time>2023-08-20T05:46:01.483</time></trkpt><trkpt lat="56.5133071" lon="85.0470212"><time>2023-08-20T05:46:03.503</time></trkpt><trkpt lat="56.5133288" lon="85.0471084"><time>2023-08-20T05:46:05.487</time></trkpt><trkpt lat="56.5132947" lon="85.0471864"><time>2023-08-20T05:46:07.507</time></trkpt><trkpt lat="56.5132902" lon="85.0472733"><time>2023-08-20T05:46:09.477</time></trkpt><trkpt lat="56.5133208" lon="85.0473643"><time>2023-08-20T05:46:11.470</time></trkpt><trkpt lat="56.5133519" lon="85.0474700"><time>2023-08-20T05:46:13.477</time></trkpt><trkpt lat="56.5133577" lon="85.0475638"><time>2023-08-20T05:46:15.480</time></trkpt><trkpt lat="56.5133869" lon="85.0476733"><time>2023-08-20T05:46:17.477</time></trkpt><trkpt lat="56.5134226" lon="85.0477805"><time>2023-08-20T05:46:19.477</time></trkpt><trkpt lat="56.5134559" lon="85.0478696"><time>2023-08-20T05:46:21.477</time></trkpt><trkpt lat="56.5134837" lon="85.0479530"><time>2023-08-20T05:46:23.487</time></trkpt><trkpt lat="56.5135003" lon="85.0480297"><time>2023-08-20T05:46:25.483</time></trkpt><trkpt lat="56.5135184" lon="85.0481138"><time>2023-08-20T05:46:27.477</time></trkpt><trkpt lat="56.5135411" lon="85.0481868"><time>2023-08-20T05:46:29.503</time></trkpt><trkpt lat="56.5135796" lon="85.0482570"><time>2023-08-20T05:46:32.487</time></trkpt><trkpt lat="56.5136061" lon="85.0483632"><time>2023-08-20T05:46:35.483</time></trkpt><trkpt lat="56.5136321" lon="85.0484438"><time>2023-08-20T05:46:37.477</time></trkpt><trkpt lat="56.5136520" lon="85.0485217"><time>2023-08-20T05:46:39.480</time></trkpt><trkpt lat="56.5136728" lon="85.0485993"><time>2023-08-20T05:46:41.480</time></trkpt><trkpt lat="56.5137037" lon="85.0486816"><time>2023-08-20T05:46:43.480</time></trkpt><trkpt lat="56.5137312" lon="85.0487702"><time>2023-08-20T05:46:45.493</time></trkpt><trkpt lat="56.5137555" lon="85.0488645"><time>2023-08-20T05:46:47.477</time></trkpt><trkpt lat="56.5137832" lon="85.0489573"><time>2023-08-20T05:46:49.517</time></trkpt><trkpt lat="56.5138129" lon="85.0490462"><time>2023-08-20T05:46:51.477</time></trkpt><trkpt lat="56.5138411" lon="85.0491288"><time>2023-08-20T05:46:53.480</time></trkpt><trkpt lat="56.5138644" lon="85.0492204"><time>2023-08-20T05:46:55.503</time></trkpt><trkpt lat="56.5138827" lon="85.0493042"><time>2023-08-20T05:46:57.490</time></trkpt><trkpt lat="56.5139013" lon="85.0493849"><time>2023-08-20T05:46:59.493</time></trkpt><trkpt lat="56.5139198" lon="85.0494717"><time>2023-08-20T05:47:01.477</time></trkpt><trkpt lat="56.5139518" lon="85.0495323"><time>2023-08-20T05:47:03.480</time></trkpt><trkpt lat="56.5139629" lon="85.0494319"><time>2023-08-20T05:47:09.513</time></trkpt><trkpt lat="56.5139633" lon="85.0493199"><time>2023-08-20T05:47:11.477</time></trkpt><trkpt lat="56.5139434" lon="85.0492201"><time>2023-08-20T05:47:13.490</time></trkpt><trkpt lat="56.5139202" lon="85.0491059"><time>2023-08-20T05:47:15.480</time></trkpt><trkpt lat="56.5138952" lon="85.0489873"><time>2023-08-20T05:47:17.477</time></trkpt><trkpt lat="56.5138555" lon="85.0489478"><time>2023-08-20T05:47:19.477</time></trkpt><trkpt lat="56.5138138" lon="85.0490022"><time>2023-08-20T05:47:21.487</time></trkpt><trkpt lat="56.5137838" lon="85.0490727"><time>2023-08-20T05:47:23.480</time></trkpt><trkpt lat="56.5136243" lon="85.0491950"><time>2023-08-20T05:47:25.477</time></trkpt><trkpt lat="56.5135984" lon="85.0492832"><time>2023-08-20T05:47:27.480</time></trkpt><trkpt lat="56.5135599" lon="85.0493710"><time>2023-08-20T05:47:30.480</time></trkpt><trkpt lat="56.5135276" lon="85.0494432"><time>2023-08-20T05:47:32.490</time></trkpt><trkpt lat="56.5134965" lon="85.0495193"><time>2023-08-20T05:47:34.480</time></trkpt><trkpt lat="56.5134673" lon="85.0495971"><time>2023-08-20T05:47:36.477</time></trkpt><trkpt lat="56.5134330" lon="85.0496680"><time>2023-08-20T05:47:38.473</time></trkpt><trkpt lat="56.5134508" lon="85.0497871"><time>2023-08-20T05:47:41.487</time></trkpt><trkpt lat="56.5134928" lon="85.0498630"><time>2023-08-20T05:47:45.477</time></trkpt><trkpt lat="56.5135099" lon="85.0499654"><time>2023-08-20T05:47:52.483</time></trkpt><trkpt lat="56.5135462" lon="85.0500356"><time>2023-08-20T05:47:55.483</time></trkpt><trkpt lat="56.5135597" lon="85.0501242"><time>2023-08-20T05:47:58.487</time></trkpt><trkpt lat="56.5135199" lon="85.0501701"><time>2023-08-20T05:48:06.480</time></trkpt><trkpt lat="56.5135282" lon="85.0502238"><time>2023-08-20T05:48:16.610</time></trkpt><trkpt lat="56.5135573" lon="85.0501172"><time>2023-08-20T05:48:29.490</time></trkpt><trkpt lat="56.5135669" lon="85.0500333"><time>2023-08-20T05:48:38.473</time></trkpt><trkpt lat="56.5135406" lon="85.0499574"><time>2023-08-20T05:48:42.487</time></trkpt><trkpt lat="56.5135017" lon="85.0498801"><time>2023-08-20T05:48:47.497</time></trkpt><trkpt lat="56.5134639" lon="85.0498170"><time>2023-08-20T05:48:50.487</time></trkpt><trkpt lat="56.5134105" lon="85.0498399"><time>2023-08-20T05:48:54.490</time></trkpt><trkpt lat="56.5133887" lon="85.0497557"><time>2023-08-20T05:49:27.487</time></trkpt><trkpt lat="56.5133867" lon="85.0496745"><time>2023-08-20T05:49:38.490</time></trkpt><trkpt lat="56.5134117" lon="85.0496019"><time>2023-08-20T05:49:40.507</time></trkpt><trkpt lat="56.5134592" lon="85.0495257"><time>2023-08-20T05:49:42.493</time></trkpt><trkpt lat="56.5135138" lon="85.0494399"><time>2023-08-20T05:49:44.507</time></trkpt><trkpt lat="56.5135471" lon="85.0493786"><time>2023-08-20T05:49:45.493</time></trkpt><trkpt lat="56.5135812" lon="85.0493172"><time>2023-08-20T05:49:46.490</time></trkpt><trkpt lat="56.5136369" lon="85.0492241"><time>2023-08-20T05:49:48.477</time></trkpt><trkpt lat="56.5136964" lon="85.0491429"><time>2023-08-20T05:49:50.507</time></trkpt><trkpt lat="56.5137577" lon="85.0490642"><time>2023-08-20T05:49:52.470</time></trkpt><trkpt lat="56.5138234" lon="85.0490227"><time>2023-08-20T05:49:54.483</time></trkpt><trkpt lat="56.5138822" lon="85.0490548"><time>2023-08-20T05:49:56.497</time></trkpt><trkpt lat="56.5139214" lon="85.0491442"><time>2023-08-20T05:49:58.497</time></trkpt><trkpt lat="56.5139491" lon="85.0492493"><time>2023-08-20T05:50:00.493</time></trkpt><trkpt lat="56.5139724" lon="85.0493529"><time>2023-08-20T05:50:02.497</time></trkpt><trkpt lat="56.5139960" lon="85.0494374"><time>2023-08-20T05:50:04.477</time></trkpt><trkpt lat="56.5140201" lon="85.0495286"><time>2023-08-20T05:50:06.483</time></trkpt><trkpt lat="56.5140495" lon="85.0496122"><time>2023-08-20T05:50:08.480</time></trkpt><trkpt lat="56.5140777" lon="85.0497105"><time>2023-08-20T05:50:10.483</time></trkpt><trkpt lat="56.5141070" lon="85.0498097"><time>2023-08-20T05:50:12.470</time></trkpt><trkpt lat="56.5141261" lon="85.0499064"><time>2023-08-20T05:50:14.483</time></trkpt><trkpt lat="56.5141472" lon="85.0499873"><time>2023-08-20T05:50:16.483</time></trkpt><trkpt lat="56.5141654" lon="85.0500857"><time>2023-08-20T05:50:18.487</time></trkpt><trkpt lat="56.5141909" lon="85.0501703"><time>2023-08-20T05:50:20.487</time></trkpt><trkpt lat="56.5142172" lon="85.0502580"><time>2023-08-20T05:50:22.483</time></trkpt><trkpt lat="56.5142447" lon="85.0503599"><time>2023-08-20T05:50:24.510</time></trkpt><trkpt lat="56.5142785" lon="85.0504449"><time>2023-08-20T05:50:26.490</time></trkpt><trkpt lat="56.5143046" lon="85.0505237"><time>2023-08-20T05:50:28.480</time></trkpt><trkpt lat="56.5143296" lon="85.0506119"><time>2023-08-20T05:50:30.480</time></trkpt><trkpt lat="56.5143519" lon="85.0507027"><time>2023-08-20T05:50:32.490</time></trkpt><trkpt lat="56.5143732" lon="85.0507880"><time>2023-08-20T05:50:34.497</time></trkpt><trkpt lat="56.5143947" lon="85.0508703"><time>2023-08-20T05:50:36.500</time></trkpt><trkpt lat="56.5144118" lon="85.0509642"><time>2023-08-20T05:50:38.490</time></trkpt><trkpt lat="56.5144277" lon="85.0510556"><time>2023-08-20T05:50:40.480</time></trkpt><trkpt lat="56.5144431" lon="85.0511524"><time>2023-08-20T05:50:42.493</time></trkpt><trkpt lat="56.5144684" lon="85.0512408"><time>2023-08-20T05:50:44.480</time></trkpt><trkpt lat="56.5145052" lon="85.0513191"><time>2023-08-20T05:50:46.497</time></trkpt><trkpt lat="56.5145280" lon="85.0514197"><time>2023-08-20T05:50:48.477</time></trkpt><trkpt lat="56.5145487" lon="85.0515166"><time>2023-08-20T05:50:50.473</time></trkpt><trkpt lat="56.5145763" lon="85.0516056"><time>2023-08-20T05:50:52.477</time></trkpt><trkpt lat="56.5145986" lon="85.0516916"><time>2023-08-20T05:50:54.470</time></trkpt><trkpt lat="56.5146180" lon="85.0517879"><time>2023-08-20T05:50:56.473</time></trkpt><trkpt lat="56.5146457" lon="85.0518803"><time>2023-08-20T05:50:58.470</time></trkpt><trkpt lat="56.5146720" lon="85.0519680"><time>2023-08-20T05:51:00.480</time></trkpt><trkpt lat="56.5146996" lon="85.0520483"><time>2023-08-20T05:51:02.473</time></trkpt><trkpt lat="56.5147246" lon="85.0521336"><time>2023-08-20T05:51:04.470</time></trkpt><trkpt lat="56.5147461" lon="85.0522265"><time>2023-08-20T05:51:06.480</time></trkpt><trkpt lat="56.5147774" lon="85.0523255"><time>2023-08-20T05:51:08.467</time></trkpt><trkpt lat="56.5148015" lon="85.0524181"><time>2023-08-20T05:51:10.477</time></trkpt><trkpt lat="56.5148321" lon="85.0525046"><time>2023-08-20T05:51:12.487</time></trkpt><trkpt lat="56.5148662" lon="85.0525796"><time>2023-08-20T05:51:14.470</time></trkpt><trkpt lat="56.5148978" lon="85.0526688"><time>2023-08-20T05:51:16.473</time></trkpt><trkpt lat="56.5149255" lon="85.0527535"><time>2023-08-20T05:51:18.467</time></trkpt><trkpt lat="56.5149517" lon="85.0528448"><time>2023-08-20T05:51:20.470</time></trkpt><trkpt lat="56.5149733" lon="85.0529327"><time>2023-08-20T05:51:22.473</time></trkpt><trkpt lat="56.5150126" lon="85.0530074"><time>2023-08-20T05:51:24.480</time></trkpt><trkpt lat="56.5150440" lon="85.0530880"><time>2023-08-20T05:51:26.467</time></trkpt><trkpt lat="56.5150944" lon="85.0531387"><time>2023-08-20T05:51:28.470</time></trkpt><trkpt lat="56.5151172" lon="85.0532261"><time>2023-08-20T05:51:30.470</time></trkpt><trkpt lat="56.5151345" lon="85.0533128"><time>2023-08-20T05:51:32.477</time></trkpt><trkpt lat="56.5151622" lon="85.0533993"><time>2023-08-20T05:51:34.470</time></trkpt><trkpt lat="56.5152011" lon="85.0534875"><time>2023-08-20T05:51:36.477</time></trkpt><trkpt lat="56.5152390" lon="85.0535724"><time>2023-08-20T05:51:38.470</time></trkpt><trkpt lat="56.5152634" lon="85.0536779"><time>2023-08-20T05:51:40.467</time></trkpt><trkpt lat="56.5152828" lon="85.0537788"><time>2023-08-20T05:51:42.473</time></trkpt><trkpt lat="56.5152918" lon="85.0538778"><time>2023-08-20T05:51:44.467</time></trkpt><trkpt lat="56.5153021" lon="85.0539815"><time>2023-08-20T05:51:46.477</time></trkpt><trkpt lat="56.5153111" lon="85.0540754"><time>2023-08-20T05:51:48.467</time></trkpt><trkpt lat="56.5153313" lon="85.0541540"><time>2023-08-20T05:51:50.470</time></trkpt><trkpt lat="56.5153547" lon="85.0542470"><time>2023-08-20T05:51:52.477</time></trkpt><trkpt lat="56.5153824" lon="85.0543545"><time>2023-08-20T05:51:54.480</time></trkpt><trkpt lat="56.5154041" lon="85.0544441"><time>2023-08-20T05:51:56.473</time></trkpt><trkpt lat="56.5154181" lon="85.0545235"><time>2023-08-20T05:51:58.467</time></trkpt><trkpt lat="56.5154351" lon="85.0546129"><time>2023-08-20T05:52:01.477</time></trkpt><trkpt lat="56.5154476" lon="85.0547145"><time>2023-08-20T05:52:08.470</time></trkpt><trkpt lat="56.5154724" lon="85.0547894"><time>2023-08-20T05:52:17.497</time></trkpt><trkpt lat="56.5154975" lon="85.0549024"><time>2023-08-20T05:52:19.493</time></trkpt><trkpt lat="56.5155347" lon="85.0550308"><time>2023-08-20T05:52:21.500</time></trkpt><trkpt lat="56.5155732" lon="85.0551540"><time>2023-08-20T05:52:23.493</time></trkpt><trkpt lat="56.5156069" lon="85.0552944"><time>2023-08-20T05:52:25.497</time></trkpt><trkpt lat="56.5156317" lon="85.0554192"><time>2023-08-20T05:52:27.503</time></trkpt><trkpt lat="56.5156617" lon="85.0555236"><time>2023-08-20T05:52:29.497</time></trkpt><trkpt lat="56.5156852" lon="85.0556105"><time>2023-08-20T05:52:31.487</time></trkpt><trkpt lat="56.5157078" lon="85.0557105"><time>2023-08-20T05:52:33.487</time></trkpt><trkpt lat="56.5157323" lon="85.0558256"><time>2023-08-20T05:52:35.497</time></trkpt><trkpt lat="56.5157617" lon="85.0559294"><time>2023-08-20T05:52:37.497</time></trkpt><trkpt lat="56.5157920" lon="85.0560289"><time>2023-08-20T05:52:39.493</time></trkpt><trkpt lat="56.5158183" lon="85.0561311"><time>2023-08-20T05:52:41.497</time></trkpt><trkpt lat="56.5158410" lon="85.0562271"><time>2023-08-20T05:52:43.493</time></trkpt><trkpt lat="56.5158601" lon="85.0563358"><time>2023-08-20T05:52:45.497</time></trkpt><trkpt lat="56.5158799" lon="85.0564455"><time>2023-08-20T05:52:47.467</time></trkpt><trkpt lat="56.5159090" lon="85.0565273"><time>2023-08-20T05:52:49.480</time></trkpt><trkpt lat="56.5159448" lon="85.0566206"><time>2023-08-20T05:52:51.480</time></trkpt><trkpt lat="56.5159733" lon="85.0567226"><time>2023-08-20T05:52:53.473</time></trkpt><trkpt lat="56.5160021" lon="85.0568119"><time>2023-08-20T05:52:55.477</time></trkpt><trkpt lat="56.5160523" lon="85.0568935"><time>2023-08-20T05:52:57.473</time></trkpt><trkpt lat="56.5160631" lon="85.0569883"><time>2023-08-20T05:52:59.493</time></trkpt><trkpt lat="56.5160917" lon="85.0570875"><time>2023-08-20T05:53:01.473</time></trkpt><trkpt lat="56.5161109" lon="85.0571849"><time>2023-08-20T05:53:03.477</time></trkpt><trkpt lat="56.5161292" lon="85.0572827"><time>2023-08-20T05:53:05.473</time></trkpt><trkpt lat="56.5161536" lon="85.0573572"><time>2023-08-20T05:53:07.480</time></trkpt><trkpt lat="56.5161824" lon="85.0574432"><time>2023-08-20T05:53:09.483</time></trkpt><trkpt lat="56.5162057" lon="85.0575335"><time>2023-08-20T05:53:11.480</time></trkpt><trkpt lat="56.5162163" lon="85.0576200"><time>2023-08-20T05:53:13.477</time></trkpt><trkpt lat="56.5162259" lon="85.0577112"><time>2023-08-20T05:53:15.477</time></trkpt><trkpt lat="56.5162419" lon="85.0577875"><time>2023-08-20T05:53:17.473</time></trkpt><trkpt lat="56.5162679" lon="85.0578712"><time>2023-08-20T05:53:19.477</time></trkpt><trkpt lat="56.5162860" lon="85.0579647"><time>2023-08-20T05:53:21.477</time></trkpt><trkpt lat="56.5163103" lon="85.0580564"><time>2023-08-20T05:53:23.473</time></trkpt><trkpt lat="56.5163434" lon="85.0581406"><time>2023-08-20T05:53:25.477</time></trkpt><trkpt lat="56.5163644" lon="85.0582399"><time>2023-08-20T05:53:27.477</time></trkpt><trkpt lat="56.5163918" lon="85.0583452"><time>2023-08-20T05:53:29.473</time></trkpt><trkpt lat="56.5164104" lon="85.0584441"><time>2023-08-20T05:53:31.477</time></trkpt><trkpt lat="56.5164168" lon="85.0585281"><time>2023-08-20T05:53:33.473</time></trkpt><trkpt lat="56.5164345" lon="85.0586142"><time>2023-08-20T05:53:37.473</time></trkpt><trkpt lat="56.5164463" lon="85.0587078"><time>2023-08-20T05:53:40.483</time></trkpt><trkpt lat="56.5164765" lon="85.0587931"><time>2023-08-20T05:53:42.473</time></trkpt><trkpt lat="56.5164643" lon="85.0588833"><time>2023-08-20T05:53:45.477</time></trkpt><trkpt lat="56.5164218" lon="85.0589231"><time>2023-08-20T05:53:48.493</time></trkpt><trkpt lat="56.5163938" lon="85.0589951"><time>2023-08-20T05:53:55.490</time></trkpt><trkpt lat="56.5163548" lon="85.0590358"><time>2023-08-20T05:53:57.493</time></trkpt><trkpt lat="56.5162993" lon="85.0590675"><time>2023-08-20T05:53:59.487</time></trkpt><trkpt lat="56.5162557" lon="85.0591134"><time>2023-08-20T05:54:01.497</time></trkpt><trkpt lat="56.5162150" lon="85.0591651"><time>2023-08-20T05:54:04.493</time></trkpt><trkpt lat="56.5162447" lon="85.0590755"><time>2023-08-20T05:54:31.493</time></trkpt><trkpt lat="56.5162608" lon="85.0589945"><time>2023-08-20T05:54:33.497</time></trkpt><trkpt lat="56.5163110" lon="85.0589536"><time>2023-08-20T05:54:35.497</time></trkpt><trkpt lat="56.5163859" lon="85.0589447"><time>2023-08-20T05:54:37.490</time></trkpt><trkpt lat="56.5163742" lon="85.0590233"><time>2023-08-20T05:54:51.493</time></trkpt><trkpt lat="56.5163976" lon="85.0591259"><time>2023-08-20T05:54:53.497</time></trkpt><trkpt lat="56.5164015" lon="85.0592289"><time>2023-08-20T05:54:55.487</time></trkpt><trkpt lat="56.5164109" lon="85.0593346"><time>2023-08-20T05:54:58.483</time></trkpt><trkpt lat="56.5164263" lon="85.0594317"><time>2023-08-20T05:55:00.487</time></trkpt><trkpt lat="56.5164631" lon="85.0595081"><time>2023-08-20T05:55:04.490</time></trkpt><trkpt lat="56.5164849" lon="85.0596321"><time>2023-08-20T05:55:07.493</time></trkpt><trkpt lat="56.5165112" lon="85.0597326"><time>2023-08-20T05:55:09.493</time></trkpt><trkpt lat="56.5165398" lon="85.0598114"><time>2023-08-20T05:55:11.500</time></trkpt><trkpt lat="56.5165765" lon="85.0598600"><time>2023-08-20T05:55:13.490</time></trkpt><trkpt lat="56.5165953" lon="85.0599689"><time>2023-08-20T05:55:16.500</time></trkpt><trkpt lat="56.5166224" lon="85.0600967"><time>2023-08-20T05:55:19.490</time></trkpt><trkpt lat="56.5166524" lon="85.0602147"><time>2023-08-20T05:55:21.493</time></trkpt><trkpt lat="56.5166794" lon="85.0603171"><time>2023-08-20T05:55:23.480</time></trkpt><trkpt lat="56.5166982" lon="85.0604073"><time>2023-08-20T05:55:25.487</time></trkpt><trkpt lat="56.5167223" lon="85.0605098"><time>2023-08-20T05:55:27.503</time></trkpt><trkpt lat="56.5167428" lon="85.0606121"><time>2023-08-20T05:55:29.487</time></trkpt><trkpt lat="56.5167741" lon="85.0607220"><time>2023-08-20T05:55:32.487</time></trkpt><trkpt lat="56.5167968" lon="85.0608413"><time>2023-08-20T05:55:34.477</time></trkpt><trkpt lat="56.5168164" lon="85.0609559"><time>2023-08-20T05:55:36.520</time></trkpt><trkpt lat="56.5168433" lon="85.0610627"><time>2023-08-20T05:55:38.470</time></trkpt><trkpt lat="56.5168826" lon="85.0611273"><time>2023-08-20T05:55:40.497</time></trkpt><trkpt lat="56.5169299" lon="85.0611800"><time>2023-08-20T05:55:42.473</time></trkpt><trkpt lat="56.5169676" lon="85.0612360"><time>2023-08-20T05:55:44.487</time></trkpt><trkpt lat="56.5169881" lon="85.0613477"><time>2023-08-20T05:55:46.477</time></trkpt><trkpt lat="56.5169908" lon="85.0614543"><time>2023-08-20T05:55:48.477</time></trkpt><trkpt lat="56.5170014" lon="85.0615639"><time>2023-08-20T05:55:50.473</time></trkpt><trkpt lat="56.5170100" lon="85.0616592"><time>2023-08-20T05:55:52.470</time></trkpt><trkpt lat="56.5170352" lon="85.0617452"><time>2023-08-20T05:55:54.483</time></trkpt><trkpt lat="56.5170584" lon="85.0618549"><time>2023-08-20T05:55:56.483</time></trkpt><trkpt lat="56.5170721" lon="85.0619579"><time>2023-08-20T05:55:58.483</time></trkpt><trkpt lat="56.5170755" lon="85.0620535"><time>2023-08-20T05:56:00.467</time></trkpt><trkpt lat="56.5170814" lon="85.0621534"><time>2023-08-20T05:56:02.470</time></trkpt><trkpt lat="56.5171105" lon="85.0622561"><time>2023-08-20T05:56:04.480</time></trkpt><trkpt lat="56.5171430" lon="85.0623490"><time>2023-08-20T05:56:06.483</time></trkpt><trkpt lat="56.5171646" lon="85.0624495"><time>2023-08-20T05:56:08.483</time></trkpt><trkpt lat="56.5171761" lon="85.0625517"><time>2023-08-20T05:56:10.467</time></trkpt><trkpt lat="56.5171858" lon="85.0626616"><time>2023-08-20T05:56:12.483</time></trkpt><trkpt lat="56.5171944" lon="85.0627830"><time>2023-08-20T05:56:14.473</time></trkpt><trkpt lat="56.5172204" lon="85.0628920"><time>2023-08-20T05:56:16.477</time></trkpt><trkpt lat="56.5172348" lon="85.0629934"><time>2023-08-20T05:56:18.467</time></trkpt><trkpt lat="56.5172466" lon="85.0630991"><time>2023-08-20T05:56:20.483</time></trkpt><trkpt lat="56.5172456" lon="85.0631909"><time>2023-08-20T05:56:22.477</time></trkpt><trkpt lat="56.5172345" lon="85.0633020"><time>2023-08-20T05:56:43.473</time></trkpt><trkpt lat="56.5172394" lon="85.0633960"><time>2023-08-20T05:56:45.467</time></trkpt><trkpt lat="56.5172405" lon="85.0634852"><time>2023-08-20T05:56:47.470</time></trkpt><trkpt lat="56.5172564" lon="85.0635695"><time>2023-08-20T05:56:49.473</time></trkpt><trkpt lat="56.5172625" lon="85.0636645"><time>2023-08-20T05:56:51.473</time></trkpt><trkpt lat="56.5172813" lon="85.0637523"><time>2023-08-20T05:56:53.467</time></trkpt><trkpt lat="56.5172939" lon="85.0638537"><time>2023-08-20T05:56:55.487</time></trkpt><trkpt lat="56.5173172" lon="85.0639546"><time>2023-08-20T05:56:57.477</time></trkpt><trkpt lat="56.5173336" lon="85.0640513"><time>2023-08-20T05:56:59.487</time></trkpt><trkpt lat="56.5173393" lon="85.0641593"><time>2023-08-20T05:57:01.487</time></trkpt><trkpt lat="56.5173517" lon="85.0642392"><time>2023-08-20T05:57:03.480</time></trkpt><trkpt lat="56.5173645" lon="85.0643251"><time>2023-08-20T05:57:05.480</time></trkpt><trkpt lat="56.5173647" lon="85.0644230"><time>2023-08-20T05:57:07.490</time></trkpt><trkpt lat="56.5173550" lon="85.0645057"><time>2023-08-20T05:57:09.510</time></trkpt><trkpt lat="56.5173485" lon="85.0646067"><time>2023-08-20T05:57:11.500</time></trkpt><trkpt lat="56.5173497" lon="85.0647309"><time>2023-08-20T05:57:13.490</time></trkpt><trkpt lat="56.5173373" lon="85.0648355"><time>2023-08-20T05:57:15.480</time></trkpt><trkpt lat="56.5173343" lon="85.0649408"><time>2023-08-20T05:57:17.490</time></trkpt><trkpt lat="56.5173324" lon="85.0650344"><time>2023-08-20T05:57:19.480</time></trkpt><trkpt lat="56.5173157" lon="85.0651340"><time>2023-08-20T05:57:21.497</time></trkpt><trkpt lat="56.5172959" lon="85.0652315"><time>2023-08-20T05:57:23.480</time></trkpt><trkpt lat="56.5172801" lon="85.0653281"><time>2023-08-20T05:57:25.507</time></trkpt><trkpt lat="56.5172716" lon="85.0654298"><time>2023-08-20T05:57:27.487</time></trkpt><trkpt lat="56.5172554" lon="85.0655294"><time>2023-08-20T05:57:29.487</time></trkpt><trkpt lat="56.5172493" lon="85.0656363"><time>2023-08-20T05:57:31.490</time></trkpt><trkpt lat="56.5172362" lon="85.0657386"><time>2023-08-20T05:57:33.477</time></trkpt><trkpt lat="56.5172242" lon="85.0658375"><time>2023-08-20T05:57:35.500</time></trkpt><trkpt lat="56.5172077" lon="85.0659360"><time>2023-08-20T05:57:37.487</time></trkpt><trkpt lat="56.5171863" lon="85.0660304"><time>2023-08-20T05:57:39.467</time></trkpt><trkpt lat="56.5171679" lon="85.0661065"><time>2023-08-20T05:57:41.483</time></trkpt><trkpt lat="56.5171639" lon="85.0662285"><time>2023-08-20T05:57:44.480</time></trkpt><trkpt lat="56.5171539" lon="85.0663525"><time>2023-08-20T05:57:46.470</time></trkpt><trkpt lat="56.5171480" lon="85.0664720"><time>2023-08-20T05:57:48.480</time></trkpt><trkpt lat="56.5171441" lon="85.0665845"><time>2023-08-20T05:57:50.480</time></trkpt><trkpt lat="56.5171312" lon="85.0666831"><time>2023-08-20T05:57:52.480</time></trkpt><trkpt lat="56.5171129" lon="85.0667786"><time>2023-08-20T05:57:54.477</time></trkpt><trkpt lat="56.5170971" lon="85.0668688"><time>2023-08-20T05:57:56.473</time></trkpt><trkpt lat="56.5170810" lon="85.0669664"><time>2023-08-20T05:57:58.477</time></trkpt><trkpt lat="56.5170685" lon="85.0670668"><time>2023-08-20T05:58:00.470</time></trkpt><trkpt lat="56.5170542" lon="85.0671592"><time>2023-08-20T05:58:02.470</time></trkpt><trkpt lat="56.5170430" lon="85.0672472"><time>2023-08-20T05:58:04.483</time></trkpt><trkpt lat="56.5170218" lon="85.0673332"><time>2023-08-20T05:58:06.470</time></trkpt><trkpt lat="56.5170129" lon="85.0674181"><time>2023-08-20T05:58:08.480</time></trkpt><trkpt lat="56.5170102" lon="85.0675122"><time>2023-08-20T05:58:10.477</time></trkpt><trkpt lat="56.5169992" lon="85.0676053"><time>2023-08-20T05:58:12.470</time></trkpt><trkpt lat="56.5169870" lon="85.0677031"><time>2023-08-20T05:58:14.473</time></trkpt><trkpt lat="56.5169745" lon="85.0677871"><time>2023-08-20T05:58:16.503</time></trkpt><trkpt lat="56.5169677" lon="85.0678843"><time>2023-08-20T05:58:18.473</time></trkpt><trkpt lat="56.5169638" lon="85.0679902"><time>2023-08-20T05:58:20.467</time></trkpt><trkpt lat="56.5169510" lon="85.0680769"><time>2023-08-20T05:58:22.473</time></trkpt><trkpt lat="56.5169374" lon="85.0681722"><time>2023-08-20T05:58:24.477</time></trkpt><trkpt lat="56.5169309" lon="85.0682620"><time>2023-08-20T05:58:26.470</time></trkpt><trkpt lat="56.5169257" lon="85.0683637"><time>2023-08-20T05:58:28.467</time></trkpt><trkpt lat="56.5169235" lon="85.0684567"><time>2023-08-20T05:58:30.473</time></trkpt><trkpt lat="56.5169262" lon="85.0685523"><time>2023-08-20T05:58:32.470</time></trkpt><trkpt lat="56.5169284" lon="85.0686353"><time>2023-08-20T05:58:34.470</time></trkpt><trkpt lat="56.5169230" lon="85.0687253"><time>2023-08-20T05:58:36.480</time></trkpt><trkpt lat="56.5169157" lon="85.0688060"><time>2023-08-20T05:58:38.477</time></trkpt><trkpt lat="56.5169187" lon="85.0688934"><time>2023-08-20T05:58:40.470</time></trkpt><trkpt lat="56.5169104" lon="85.0689814"><time>2023-08-20T05:58:42.480</time></trkpt><trkpt lat="56.5169140" lon="85.0690747"><time>2023-08-20T05:58:44.477</time></trkpt><trkpt lat="56.5169235" lon="85.0691603"><time>2023-08-20T05:58:46.467</time></trkpt><trkpt lat="56.5169351" lon="85.0692517"><time>2023-08-20T05:58:48.480</time></trkpt><trkpt lat="56.5169442" lon="85.0693476"><time>2023-08-20T05:58:50.487</time></trkpt><trkpt lat="56.5169426" lon="85.0694316"><time>2023-08-20T05:58:52.467</time></trkpt><trkpt lat="56.5169514" lon="85.0695283"><time>2023-08-20T05:58:55.497</time></trkpt><trkpt lat="56.5169307" lon="85.0696225"><time>2023-08-20T05:59:06.503</time></trkpt><trkpt lat="56.5169412" lon="85.0697208"><time>2023-08-20T05:59:08.500</time></trkpt><trkpt lat="56.5169602" lon="85.0698159"><time>2023-08-20T05:59:10.483</time></trkpt><trkpt lat="56.5169688" lon="85.0699158"><time>2023-08-20T05:59:12.507</time></trkpt><trkpt lat="56.5169746" lon="85.0700099"><time>2023-08-20T05:59:14.480</time></trkpt><trkpt lat="56.5169828" lon="85.0701121"><time>2023-08-20T05:59:16.490</time></trkpt><trkpt lat="56.5169866" lon="85.0702012"><time>2023-08-20T05:59:18.483</time></trkpt><trkpt lat="56.5169808" lon="85.0703012"><time>2023-08-20T05:59:20.473</time></trkpt><trkpt lat="56.5169735" lon="85.0704027"><time>2023-08-20T05:59:22.490</time></trkpt><trkpt lat="56.5169737" lon="85.0705023"><time>2023-08-20T05:59:24.493</time></trkpt><trkpt lat="56.5169731" lon="85.0706228"><time>2023-08-20T05:59:27.480</time></trkpt><trkpt lat="56.5169704" lon="85.0707144"><time>2023-08-20T05:59:29.493</time></trkpt><trkpt lat="56.5169723" lon="85.0708178"><time>2023-08-20T05:59:31.477</time></trkpt><trkpt lat="56.5169710" lon="85.0709163"><time>2023-08-20T05:59:33.480</time></trkpt><trkpt lat="56.5169589" lon="85.0709970"><time>2023-08-20T05:59:35.500</time></trkpt><trkpt lat="56.5169264" lon="85.0710749"><time>2023-08-20T05:59:42.477</time></trkpt><trkpt lat="56.5169215" lon="85.0711622"><time>2023-08-20T05:59:45.483</time></trkpt><trkpt lat="56.5169325" lon="85.0712503"><time>2023-08-20T05:59:47.503</time></trkpt><trkpt lat="56.5169391" lon="85.0713588"><time>2023-08-20T05:59:49.470</time></trkpt><trkpt lat="56.5169437" lon="85.0714812"><time>2023-08-20T05:59:51.493</time></trkpt><trkpt lat="56.5169525" lon="85.0715983"><time>2023-08-20T05:59:53.487</time></trkpt><trkpt lat="56.5169596" lon="85.0717096"><time>2023-08-20T05:59:55.503</time></trkpt><trkpt lat="56.5169675" lon="85.0718219"><time>2023-08-20T05:59:57.490</time></trkpt><trkpt lat="56.5169727" lon="85.0719280"><time>2023-08-20T05:59:59.503</time></trkpt><trkpt lat="56.5169799" lon="85.0720343"><time>2023-08-20T06:00:01.493</time></trkpt><trkpt lat="56.5169839" lon="85.0721408"><time>2023-08-20T06:00:03.490</time></trkpt><trkpt lat="56.5169900" lon="85.0722426"><time>2023-08-20T06:00:05.480</time></trkpt><trkpt lat="56.5169937" lon="85.0723552"><time>2023-08-20T06:00:07.493</time></trkpt><trkpt lat="56.5169965" lon="85.0724717"><time>2023-08-20T06:00:09.483</time></trkpt><trkpt lat="56.5169984" lon="85.0725811"><time>2023-08-20T06:00:11.510</time></trkpt><trkpt lat="56.5169973" lon="85.0726870"><time>2023-08-20T06:00:13.500</time></trkpt><trkpt lat="56.5170081" lon="85.0727798"><time>2023-08-20T06:00:15.503</time></trkpt><trkpt lat="56.5170222" lon="85.0728767"><time>2023-08-20T06:00:17.483</time></trkpt><trkpt lat="56.5170278" lon="85.0729660"><time>2023-08-20T06:00:19.493</time></trkpt><trkpt lat="56.5170283" lon="85.0730476"><time>2023-08-20T06:00:22.487</time></trkpt><trkpt lat="56.5170038" lon="85.0731513"><time>2023-08-20T06:00:29.480</time></trkpt><trkpt lat="56.5170046" lon="85.0732502"><time>2023-08-20T06:00:31.480</time></trkpt><trkpt lat="56.5170079" lon="85.0733429"><time>2023-08-20T06:00:33.483</time></trkpt><trkpt lat="56.5170109" lon="85.0734381"><time>2023-08-20T06:00:35.477</time></trkpt><trkpt lat="56.5170078" lon="85.0735208"><time>2023-08-20T06:00:37.473</time></trkpt><trkpt lat="56.5170155" lon="85.0736127"><time>2023-08-20T06:00:39.480</time></trkpt><trkpt lat="56.5170190" lon="85.0736999"><time>2023-08-20T06:00:41.470</time></trkpt><trkpt lat="56.5170226" lon="85.0738046"><time>2023-08-20T06:00:43.473</time></trkpt><trkpt lat="56.5170251" lon="85.0738980"><time>2023-08-20T06:00:45.473</time></trkpt><trkpt lat="56.5169873" lon="85.0739644"><time>2023-08-20T06:00:47.473</time></trkpt><trkpt lat="56.5169408" lon="85.0739968"><time>2023-08-20T06:00:49.473</time></trkpt><trkpt lat="56.5169495" lon="85.0740098"><time>2023-08-20T06:00:56.863</time></trkpt><trkpt lat="56.5169348" lon="85.0739145"><time>2023-08-20T06:01:01.477</time></trkpt><trkpt lat="56.5169931" lon="85.0738474"><time>2023-08-20T06:01:03.480</time></trkpt><trkpt lat="56.5170321" lon="85.0737706"><time>2023-08-20T06:01:05.480</time></trkpt><trkpt lat="56.5170509" lon="85.0736752"><time>2023-08-20T06:01:07.487</time></trkpt><trkpt lat="56.5170458" lon="85.0735750"><time>2023-08-20T06:01:09.497</time></trkpt><trkpt lat="56.5170392" lon="85.0734752"><time>2023-08-20T06:01:11.493</time></trkpt><trkpt lat="56.5170221" lon="85.0733635"><time>2023-08-20T06:01:13.497</time></trkpt><trkpt lat="56.5170024" lon="85.0732534"><time>2023-08-20T06:01:15.543</time></trkpt><trkpt lat="56.5169883" lon="85.0731691"><time>2023-08-20T06:01:17.487</time></trkpt><trkpt lat="56.5169924" lon="85.0730717"><time>2023-08-20T06:01:19.500</time></trkpt><trkpt lat="56.5170001" lon="85.0729728"><time>2023-08-20T06:01:21.490</time></trkpt><trkpt lat="56.5170086" lon="85.0728786"><time>2023-08-20T06:01:23.487</time></trkpt><trkpt lat="56.5170002" lon="85.0727740"><time>2023-08-20T06:01:25.503</time></trkpt><trkpt lat="56.5169917" lon="85.0726540"><time>2023-08-20T06:01:27.500</time></trkpt><trkpt lat="56.5169880" lon="85.0725354"><time>2023-08-20T06:01:29.480</time></trkpt><trkpt lat="56.5169908" lon="85.0724244"><time>2023-08-20T06:01:31.487</time></trkpt><trkpt lat="56.5169868" lon="85.0723194"><time>2023-08-20T06:01:33.497</time></trkpt><trkpt lat="56.5169799" lon="85.0722221"><time>2023-08-20T06:01:35.487</time></trkpt><trkpt lat="56.5169744" lon="85.0721054"><time>2023-08-20T06:01:37.490</time></trkpt><trkpt lat="56.5169708" lon="85.0719933"><time>2023-08-20T06:01:39.497</time></trkpt><trkpt lat="56.5169598" lon="85.0718801"><time>2023-08-20T06:01:41.487</time></trkpt><trkpt lat="56.5169588" lon="85.0717663"><time>2023-08-20T06:01:43.500</time></trkpt><trkpt lat="56.5169569" lon="85.0716617"><time>2023-08-20T06:01:45.490</time></trkpt><trkpt lat="56.5169341" lon="85.0715737"><time>2023-08-20T06:01:47.497</time></trkpt><trkpt lat="56.5168914" lon="85.0715154"><time>2023-08-20T06:01:49.497</time></trkpt><trkpt lat="56.5168407" lon="85.0715180"><time>2023-08-20T06:01:51.493</time></trkpt><trkpt lat="56.5167965" lon="85.0715422"><time>2023-08-20T06:01:53.493</time></trkpt><trkpt lat="56.5167478" lon="85.0715565"><time>2023-08-20T06:01:55.490</time></trkpt><trkpt lat="56.5166915" lon="85.0715513"><time>2023-08-20T06:01:58.490</time></trkpt><trkpt lat="56.5166415" lon="85.0715377"><time>2023-08-20T06:02:01.490</time></trkpt><trkpt lat="56.5165888" lon="85.0715321"><time>2023-08-20T06:02:05.490</time></trkpt><trkpt lat="56.5165354" lon="85.0715140"><time>2023-08-20T06:02:11.507</time></trkpt><trkpt lat="56.5164867" lon="85.0715453"><time>2023-08-20T06:02:14.487</time></trkpt><trkpt lat="56.5164249" lon="85.0715646"><time>2023-08-20T06:02:17.477</time></trkpt><trkpt lat="56.5163815" lon="85.0715917"><time>2023-08-20T06:02:19.477</time></trkpt><trkpt lat="56.5163284" lon="85.0716037"><time>2023-08-20T06:02:21.467</time></trkpt><trkpt lat="56.5161256" lon="85.0706103"><time>2023-08-20T06:03:36.217</time></trkpt><trkpt lat="56.5160658" lon="85.0707818"><time>2023-08-20T06:03:36.780</time></trkpt><trkpt lat="56.5160606" lon="85.0709684"><time>2023-08-20T06:03:37.757</time></trkpt><trkpt lat="56.5160396" lon="85.0710597"><time>2023-08-20T06:03:38.767</time></trkpt><trkpt lat="56.5159902" lon="85.0711363"><time>2023-08-20T06:03:40.760</time></trkpt><trkpt lat="56.5158944" lon="85.0711110"><time>2023-08-20T06:03:42.757</time></trkpt><trkpt lat="56.5158306" lon="85.0711713"><time>2023-08-20T06:03:45.757</time></trkpt><trkpt lat="56.5158437" lon="85.0713268"><time>2023-08-20T06:03:47.750</time></trkpt><trkpt lat="56.5157519" lon="85.0712003"><time>2023-08-20T06:03:48.787</time></trkpt><trkpt lat="56.5157181" lon="85.0712908"><time>2023-08-20T06:03:50.750</time></trkpt><trkpt lat="56.5157531" lon="85.0713957"><time>2023-08-20T06:03:51.750</time></trkpt><trkpt lat="56.5157239" lon="85.0714666"><time>2023-08-20T06:03:54.760</time></trkpt><trkpt lat="56.5156840" lon="85.0715307"><time>2023-08-20T06:03:55.767</time></trkpt><trkpt lat="56.5156230" lon="85.0716074"><time>2023-08-20T06:03:58.757</time></trkpt><trkpt lat="56.5156663" lon="85.0716647"><time>2023-08-20T06:03:59.753</time></trkpt><trkpt lat="56.5157455" lon="85.0714341"><time>2023-08-20T06:04:00.797</time></trkpt><trkpt lat="56.5156914" lon="85.0715410"><time>2023-08-20T06:04:02.177</time></trkpt><trkpt lat="56.5156168" lon="85.0715659"><time>2023-08-20T06:04:04.140</time></trkpt><trkpt lat="56.5155700" lon="85.0715635"><time>2023-08-20T06:04:05.153</time></trkpt><trkpt lat="56.5155167" lon="85.0715692"><time>2023-08-20T06:04:07.147</time></trkpt><trkpt lat="56.5154490" lon="85.0715213"><time>2023-08-20T06:04:09.150</time></trkpt><trkpt lat="56.5153743" lon="85.0715034"><time>2023-08-20T06:04:11.137</time></trkpt><trkpt lat="56.5153236" lon="85.0715562"><time>2023-08-20T06:04:13.147</time></trkpt><trkpt lat="56.5152779" lon="85.0715588"><time>2023-08-20T06:04:14.140</time></trkpt><trkpt lat="56.5152372" lon="85.0716156"><time>2023-08-20T06:04:16.153</time></trkpt><trkpt lat="56.5151806" lon="85.0716650"><time>2023-08-20T06:04:18.143</time></trkpt><trkpt lat="56.5151451" lon="85.0717236"><time>2023-08-20T06:04:20.143</time></trkpt><trkpt lat="56.5150956" lon="85.0717544"><time>2023-08-20T06:04:22.140</time></trkpt><trkpt lat="56.5150588" lon="85.0718095"><time>2023-08-20T06:04:24.157</time></trkpt><trkpt lat="56.5150294" lon="85.0718812"><time>2023-08-20T06:04:26.163</time></trkpt><trkpt lat="56.5150147" lon="85.0719648"><time>2023-08-20T06:04:28.157</time></trkpt><trkpt lat="56.5150094" lon="85.0720763"><time>2023-08-20T06:04:31.157</time></trkpt><trkpt lat="56.5150261" lon="85.0721777"><time>2023-08-20T06:04:34.163</time></trkpt><trkpt lat="56.5150453" lon="85.0722832"><time>2023-08-20T06:04:38.147</time></trkpt><trkpt lat="56.5150665" lon="85.0724026"><time>2023-08-20T06:04:41.157</time></trkpt><trkpt lat="56.5150652" lon="85.0724908"><time>2023-08-20T06:04:43.167</time></trkpt><trkpt lat="56.5150320" lon="85.0725826"><time>2023-08-20T06:04:46.163</time></trkpt><trkpt lat="56.5149816" lon="85.0725937"><time>2023-08-20T06:04:48.160</time></trkpt><trkpt lat="56.5149339" lon="85.0725872"><time>2023-08-20T06:04:50.173</time></trkpt><trkpt lat="56.5148712" lon="85.0725664"><time>2023-08-20T06:04:53.150</time></trkpt><trkpt lat="56.5148631" lon="85.0726900"><time>2023-08-20T06:04:56.157</time></trkpt><trkpt lat="56.5148387" lon="85.0727756"><time>2023-08-20T06:04:59.163</time></trkpt><trkpt lat="56.5147902" lon="85.0728193"><time>2023-08-20T06:05:03.163</time></trkpt><trkpt lat="56.5148446" lon="85.0728058"><time>2023-08-20T06:05:17.167</time></trkpt><trkpt lat="56.5148311" lon="85.0726730"><time>2023-08-20T06:05:20.140</time></trkpt><trkpt lat="56.5148334" lon="85.0725604"><time>2023-08-20T06:05:22.167</time></trkpt><trkpt lat="56.5148422" lon="85.0724385"><time>2023-08-20T06:05:24.163</time></trkpt><trkpt lat="56.5148415" lon="85.0723194"><time>2023-08-20T06:05:26.160</time></trkpt><trkpt lat="56.5148512" lon="85.0721908"><time>2023-08-20T06:05:28.160</time></trkpt><trkpt lat="56.5148531" lon="85.0721055"><time>2023-08-20T06:05:29.157</time></trkpt><trkpt lat="56.5148586" lon="85.0719738"><time>2023-08-20T06:05:31.167</time></trkpt><trkpt lat="56.5148332" lon="85.0718622"><time>2023-08-20T06:05:33.167</time></trkpt><trkpt lat="56.5147989" lon="85.0717885"><time>2023-08-20T06:05:35.160</time></trkpt><trkpt lat="56.5147785" lon="85.0717152"><time>2023-08-20T06:05:42.160</time></trkpt><trkpt lat="56.5147451" lon="85.0716485"><time>2023-08-20T06:05:45.167</time></trkpt><trkpt lat="56.5147170" lon="85.0715711"><time>2023-08-20T06:05:48.170</time></trkpt><trkpt lat="56.5146747" lon="85.0714997"><time>2023-08-20T06:05:51.160</time></trkpt><trkpt lat="56.5146288" lon="85.0714720"><time>2023-08-20T06:05:54.163</time></trkpt><trkpt lat="56.5145754" lon="85.0714251"><time>2023-08-20T06:05:57.167</time></trkpt><trkpt lat="56.5145189" lon="85.0713933"><time>2023-08-20T06:05:59.157</time></trkpt><trkpt lat="56.5144612" lon="85.0713687"><time>2023-08-20T06:06:01.160</time></trkpt><trkpt lat="56.5144059" lon="85.0713580"><time>2023-08-20T06:06:03.163</time></trkpt><trkpt lat="56.5143528" lon="85.0713638"><time>2023-08-20T06:06:05.163</time></trkpt><trkpt lat="56.5143006" lon="85.0713767"><time>2023-08-20T06:06:07.167</time></trkpt><trkpt lat="56.5142438" lon="85.0713998"><time>2023-08-20T06:06:09.160</time></trkpt><trkpt lat="56.5141878" lon="85.0714293"><time>2023-08-20T06:06:11.163</time></trkpt><trkpt lat="56.5141256" lon="85.0714632"><time>2023-08-20T06:06:13.163</time></trkpt><trkpt lat="56.5140656" lon="85.0714837"><time>2023-08-20T06:06:15.160</time></trkpt><trkpt lat="56.5140092" lon="85.0715105"><time>2023-08-20T06:06:17.163</time></trkpt><trkpt lat="56.5139468" lon="85.0715485"><time>2023-08-20T06:06:19.167</time></trkpt><trkpt lat="56.5138906" lon="85.0715768"><time>2023-08-20T06:06:21.160</time></trkpt><trkpt lat="56.5138388" lon="85.0716078"><time>2023-08-20T06:06:23.160</time></trkpt><trkpt lat="56.5137872" lon="85.0716351"><time>2023-08-20T06:06:25.170</time></trkpt><trkpt lat="56.5137312" lon="85.0716549"><time>2023-08-20T06:06:27.177</time></trkpt><trkpt lat="56.5136694" lon="85.0716918"><time>2023-08-20T06:06:29.170</time></trkpt><trkpt lat="56.5136111" lon="85.0717235"><time>2023-08-20T06:06:31.167</time></trkpt><trkpt lat="56.5135563" lon="85.0717411"><time>2023-08-20T06:06:33.177</time></trkpt><trkpt lat="56.5135019" lon="85.0717579"><time>2023-08-20T06:06:35.150</time></trkpt><trkpt lat="56.5134510" lon="85.0717794"><time>2023-08-20T06:06:37.170</time></trkpt><trkpt lat="56.5133981" lon="85.0717870"><time>2023-08-20T06:06:39.160</time></trkpt><trkpt lat="56.5133451" lon="85.0717810"><time>2023-08-20T06:06:41.160</time></trkpt><trkpt lat="56.5132931" lon="85.0717815"><time>2023-08-20T06:06:43.167</time></trkpt><trkpt lat="56.5132478" lon="85.0717762"><time>2023-08-20T06:06:45.157</time></trkpt><trkpt lat="56.5131975" lon="85.0717981"><time>2023-08-20T06:06:48.160</time></trkpt><trkpt lat="56.5131279" lon="85.0718177"><time>2023-08-20T06:06:52.160</time></trkpt><trkpt lat="56.5130708" lon="85.0718338"><time>2023-08-20T06:06:54.167</time></trkpt><trkpt lat="56.5130238" lon="85.0718649"><time>2023-08-20T06:06:56.160</time></trkpt><trkpt lat="56.5129891" lon="85.0719211"><time>2023-08-20T06:06:58.167</time></trkpt><trkpt lat="56.5129570" lon="85.0719881"><time>2023-08-20T06:07:00.163</time></trkpt><trkpt lat="56.5129314" lon="85.0720558"><time>2023-08-20T06:07:02.163</time></trkpt><trkpt lat="56.5128852" lon="85.0721290"><time>2023-08-20T06:07:05.157</time></trkpt><trkpt lat="56.5128391" lon="85.0721613"><time>2023-08-20T06:07:07.167</time></trkpt><trkpt lat="56.5128816" lon="85.0721304"><time>2023-08-20T06:07:16.167</time></trkpt><trkpt lat="56.5129103" lon="85.0721943"><time>2023-08-20T06:07:20.180</time></trkpt><trkpt lat="56.5128774" lon="85.0723150"><time>2023-08-20T06:07:23.037</time></trkpt><trkpt lat="56.5128439" lon="85.0724124"><time>2023-08-20T06:07:25.020</time></trkpt><trkpt lat="56.5128089" lon="85.0724996"><time>2023-08-20T06:07:27.017</time></trkpt><trkpt lat="56.5127711" lon="85.0725878"><time>2023-08-20T06:07:29.017</time></trkpt><trkpt lat="56.5127316" lon="85.0726703"><time>2023-08-20T06:07:31.023</time></trkpt><trkpt lat="56.5126853" lon="85.0727707"><time>2023-08-20T06:07:35.013</time></trkpt><trkpt lat="56.5126451" lon="85.0728187"><time>2023-08-20T06:07:37.033</time></trkpt><trkpt lat="56.5125969" lon="85.0728472"><time>2023-08-20T06:07:39.030</time></trkpt><trkpt lat="56.5125499" lon="85.0728637"><time>2023-08-20T06:07:41.027</time></trkpt><trkpt lat="56.5125042" lon="85.0728802"><time>2023-08-20T06:07:43.007</time></trkpt><trkpt lat="56.5125571" lon="85.0728676"><time>2023-08-20T06:07:56.037</time></trkpt><trkpt lat="56.5126159" lon="85.0728444"><time>2023-08-20T06:08:00.020</time></trkpt><trkpt lat="56.5126640" lon="85.0728367"><time>2023-08-20T06:08:02.010</time></trkpt><trkpt lat="56.5127180" lon="85.0728185"><time>2023-08-20T06:08:04.010</time></trkpt><trkpt lat="56.5127726" lon="85.0728310"><time>2023-08-20T06:08:06.013</time></trkpt><trkpt lat="56.5128337" lon="85.0728481"><time>2023-08-20T06:08:08.007</time></trkpt><trkpt lat="56.5128835" lon="85.0728759"><time>2023-08-20T06:08:10.023</time></trkpt><trkpt lat="56.5129285" lon="85.0729300"><time>2023-08-20T06:08:12.030</time></trkpt><trkpt lat="56.5129863" lon="85.0729656"><time>2023-08-20T06:08:14.013</time></trkpt><trkpt lat="56.5130455" lon="85.0730023"><time>2023-08-20T06:08:16.013</time></trkpt><trkpt lat="56.5131089" lon="85.0730353"><time>2023-08-20T06:08:18.013</time></trkpt><trkpt lat="56.5131579" lon="85.0731081"><time>2023-08-20T06:08:20.013</time></trkpt><trkpt lat="56.5132087" lon="85.0731549"><time>2023-08-20T06:08:22.020</time></trkpt><trkpt lat="56.5132551" lon="85.0732217"><time>2023-08-20T06:08:24.003</time></trkpt><trkpt lat="56.5132974" lon="85.0732788"><time>2023-08-20T06:08:26.010</time></trkpt><trkpt lat="56.5133467" lon="85.0733335"><time>2023-08-20T06:08:28.010</time></trkpt><trkpt lat="56.5133989" lon="85.0733917"><time>2023-08-20T06:08:30.010</time></trkpt><trkpt lat="56.5134448" lon="85.0734255"><time>2023-08-20T06:08:32.007</time></trkpt><trkpt lat="56.5134872" lon="85.0734811"><time>2023-08-20T06:08:34.010</time></trkpt><trkpt lat="56.5135258" lon="85.0735351"><time>2023-08-20T06:08:36.013</time></trkpt><trkpt lat="56.5135711" lon="85.0736311"><time>2023-08-20T06:08:39.017</time></trkpt><trkpt lat="56.5136035" lon="85.0736941"><time>2023-08-20T06:08:41.027</time></trkpt><trkpt lat="56.5136438" lon="85.0737367"><time>2023-08-20T06:08:43.037</time></trkpt><trkpt lat="56.5136557" lon="85.0736533"><time>2023-08-20T06:08:45.027</time></trkpt><trkpt lat="56.5136185" lon="85.0735717"><time>2023-08-20T06:08:49.030</time></trkpt><trkpt lat="56.5136227" lon="85.0734793"><time>2023-08-20T06:08:52.003</time></trkpt><trkpt lat="56.5136671" lon="85.0735037"><time>2023-08-20T06:08:56.030</time></trkpt><trkpt lat="56.5137304" lon="85.0734955"><time>2023-08-20T06:08:59.017</time></trkpt><trkpt lat="56.5137797" lon="85.0734808"><time>2023-08-20T06:09:01.013</time></trkpt><trkpt lat="56.5138386" lon="85.0734663"><time>2023-08-20T06:09:04.020</time></trkpt><trkpt lat="56.5138932" lon="85.0734530"><time>2023-08-20T06:09:06.013</time></trkpt><trkpt lat="56.5139470" lon="85.0734391"><time>2023-08-20T06:09:08.020</time></trkpt><trkpt lat="56.5140087" lon="85.0734327"><time>2023-08-20T06:09:10.013</time></trkpt><trkpt lat="56.5140670" lon="85.0734309"><time>2023-08-20T06:09:12.033</time></trkpt><trkpt lat="56.5141140" lon="85.0734478"><time>2023-08-20T06:09:14.017</time></trkpt><trkpt lat="56.5141734" lon="85.0734275"><time>2023-08-20T06:09:16.013</time></trkpt><trkpt lat="56.5142367" lon="85.0734086"><time>2023-08-20T06:09:18.020</time></trkpt><trkpt lat="56.5143002" lon="85.0733911"><time>2023-08-20T06:09:20.010</time></trkpt><trkpt lat="56.5143595" lon="85.0733779"><time>2023-08-20T06:09:22.013</time></trkpt><trkpt lat="56.5144037" lon="85.0733947"><time>2023-08-20T06:09:26.007</time></trkpt><trkpt lat="56.5144371" lon="85.0734849"><time>2023-08-20T06:09:29.027</time></trkpt><trkpt lat="56.5144600" lon="85.0735636"><time>2023-08-20T06:09:31.023</time></trkpt><trkpt lat="56.5144667" lon="85.0736768"><time>2023-08-20T06:09:34.013</time></trkpt><trkpt lat="56.5145125" lon="85.0736759"><time>2023-08-20T06:09:36.017</time></trkpt><trkpt lat="56.5145616" lon="85.0736510"><time>2023-08-20T06:09:40.010</time></trkpt><trkpt lat="56.5145868" lon="85.0735976"><time>2023-08-20T06:09:46.530</time></trkpt><trkpt lat="56.5145167" lon="85.0736093"><time>2023-08-20T06:09:52.003</time></trkpt><trkpt lat="56.5144568" lon="85.0735997"><time>2023-08-20T06:09:55.027</time></trkpt><trkpt lat="56.5144228" lon="85.0735344"><time>2023-08-20T06:10:14.017</time></trkpt><trkpt lat="56.5144049" lon="85.0734289"><time>2023-08-20T06:10:18.013</time></trkpt><trkpt lat="56.5143664" lon="85.0733638"><time>2023-08-20T06:10:20.030</time></trkpt><trkpt lat="56.5143117" lon="85.0733253"><time>2023-08-20T06:10:22.030</time></trkpt><trkpt lat="56.5142486" lon="85.0733553"><time>2023-08-20T06:10:24.030</time></trkpt><trkpt lat="56.5141952" lon="85.0733724"><time>2023-08-20T06:10:26.030</time></trkpt><trkpt lat="56.5141387" lon="85.0733811"><time>2023-08-20T06:10:28.027</time></trkpt><trkpt lat="56.5140928" lon="85.0733937"><time>2023-08-20T06:10:30.023</time></trkpt><trkpt lat="56.5140405" lon="85.0733996"><time>2023-08-20T06:10:32.027</time></trkpt><trkpt lat="56.5139702" lon="85.0734136"><time>2023-08-20T06:10:34.033</time></trkpt><trkpt lat="56.5138987" lon="85.0734237"><time>2023-08-20T06:10:36.030</time></trkpt><trkpt lat="56.5138310" lon="85.0734297"><time>2023-08-20T06:10:38.037</time></trkpt><trkpt lat="56.5137766" lon="85.0734386"><time>2023-08-20T06:10:40.013</time></trkpt><trkpt lat="56.5137189" lon="85.0734396"><time>2023-08-20T06:10:42.030</time></trkpt><trkpt lat="56.5136695" lon="85.0734617"><time>2023-08-20T06:10:44.033</time></trkpt><trkpt lat="56.5136106" lon="85.0734895"><time>2023-08-20T06:10:46.043</time></trkpt><trkpt lat="56.5135521" lon="85.0735022"><time>2023-08-20T06:10:48.020</time></trkpt><trkpt lat="56.5134995" lon="85.0734788"><time>2023-08-20T06:10:50.020</time></trkpt><trkpt lat="56.5134681" lon="85.0733912"><time>2023-08-20T06:10:53.017</time></trkpt><trkpt lat="56.5134242" lon="85.0734422"><time>2023-08-20T06:10:58.007</time></trkpt><trkpt lat="56.5133949" lon="85.0733684"><time>2023-08-20T06:11:18.057</time></trkpt><trkpt lat="56.5133472" lon="85.0733151"><time>2023-08-20T06:11:28.040</time></trkpt><trkpt lat="56.5132843" lon="85.0732303"><time>2023-08-20T06:11:30.043</time></trkpt><trkpt lat="56.5132139" lon="85.0731852"><time>2023-08-20T06:11:32.017</time></trkpt><trkpt lat="56.5131428" lon="85.0731324"><time>2023-08-20T06:11:34.043</time></trkpt><trkpt lat="56.5130801" lon="85.0730686"><time>2023-08-20T06:11:36.020</time></trkpt><trkpt lat="56.5130193" lon="85.0730242"><time>2023-08-20T06:11:38.030</time></trkpt><trkpt lat="56.5129607" lon="85.0729872"><time>2023-08-20T06:11:40.020</time></trkpt><trkpt lat="56.5129016" lon="85.0729389"><time>2023-08-20T06:11:42.027</time></trkpt><trkpt lat="56.5128454" lon="85.0728869"><time>2023-08-20T06:11:44.047</time></trkpt><trkpt lat="56.5127894" lon="85.0728327"><time>2023-08-20T06:11:46.017</time></trkpt><trkpt lat="56.5127383" lon="85.0727587"><time>2023-08-20T06:11:48.030</time></trkpt><trkpt lat="56.5127315" lon="85.0726722"><time>2023-08-20T06:11:50.030</time></trkpt><trkpt lat="56.5127464" lon="85.0725901"><time>2023-08-20T06:11:52.033</time></trkpt><trkpt lat="56.5127755" lon="85.0725061"><time>2023-08-20T06:11:54.023</time></trkpt><trkpt lat="56.5128010" lon="85.0724266"><time>2023-08-20T06:11:56.017</time></trkpt><trkpt lat="56.5128111" lon="85.0723470"><time>2023-08-20T06:11:58.020</time></trkpt><trkpt lat="56.5128204" lon="85.0722543"><time>2023-08-20T06:12:00.027</time></trkpt><trkpt lat="56.5127928" lon="85.0721562"><time>2023-08-20T06:12:03.013</time></trkpt><trkpt lat="56.5127605" lon="85.0720850"><time>2023-08-20T06:12:05.033</time></trkpt><trkpt lat="56.5127285" lon="85.0720024"><time>2023-08-20T06:12:07.023</time></trkpt><trkpt lat="56.5127135" lon="85.0719205"><time>2023-08-20T06:12:09.023</time></trkpt><trkpt lat="56.5127245" lon="85.0717990"><time>2023-08-20T06:12:11.017</time></trkpt><trkpt lat="56.5127310" lon="85.0716814"><time>2023-08-20T06:12:13.030</time></trkpt><trkpt lat="56.5127168" lon="85.0715633"><time>2023-08-20T06:12:15.037</time></trkpt><trkpt lat="56.5126938" lon="85.0714819"><time>2023-08-20T06:12:17.017</time></trkpt><trkpt lat="56.5126600" lon="85.0714045"><time>2023-08-20T06:12:19.023</time></trkpt><trkpt lat="56.5126201" lon="85.0713097"><time>2023-08-20T06:12:21.037</time></trkpt><trkpt lat="56.5125758" lon="85.0712577"><time>2023-08-20T06:12:23.020</time></trkpt><trkpt lat="56.5125312" lon="85.0711970"><time>2023-08-20T06:12:25.027</time></trkpt><trkpt lat="56.5124820" lon="85.0711366"><time>2023-08-20T06:12:27.023</time></trkpt><trkpt lat="56.5124233" lon="85.0710693"><time>2023-08-20T06:12:29.023</time></trkpt><trkpt lat="56.5123753" lon="85.0710505"><time>2023-08-20T06:12:31.027</time></trkpt><trkpt lat="56.5123183" lon="85.0710605"><time>2023-08-20T06:12:33.033</time></trkpt><trkpt lat="56.5122503" lon="85.0710838"><time>2023-08-20T06:12:35.017</time></trkpt><trkpt lat="56.5121995" lon="85.0710888"><time>2023-08-20T06:12:37.007</time></trkpt><trkpt lat="56.5121577" lon="85.0710302"><time>2023-08-20T06:12:41.007</time></trkpt><trkpt lat="56.5121359" lon="85.0711207"><time>2023-08-20T06:12:49.010</time></trkpt><trkpt lat="56.5120816" lon="85.0711879"><time>2023-08-20T06:12:52.017</time></trkpt><trkpt lat="56.5120209" lon="85.0712350"><time>2023-08-20T06:12:54.013</time></trkpt><trkpt lat="56.5119619" lon="85.0712856"><time>2023-08-20T06:12:56.010</time></trkpt><trkpt lat="56.5119193" lon="85.0713309"><time>2023-08-20T06:12:58.020</time></trkpt><trkpt lat="56.5118722" lon="85.0713430"><time>2023-08-20T06:13:01.020</time></trkpt><trkpt lat="56.5118321" lon="85.0714084"><time>2023-08-20T06:13:16.017</time></trkpt><trkpt lat="56.5117737" lon="85.0714233"><time>2023-08-20T06:13:18.020</time></trkpt><trkpt lat="56.5117320" lon="85.0714590"><time>2023-08-20T06:13:20.013</time></trkpt><trkpt lat="56.5117117" lon="85.0715059"><time>2023-08-20T06:13:23.377</time></trkpt><trkpt lat="56.5117813" lon="85.0714237"><time>2023-08-20T06:13:31.023</time></trkpt><trkpt lat="56.5118528" lon="85.0714313"><time>2023-08-20T06:13:38.507</time></trkpt><trkpt lat="56.5119089" lon="85.0714080"><time>2023-08-20T06:13:40.037</time></trkpt><trkpt lat="56.5119600" lon="85.0713766"><time>2023-08-20T06:13:43.010</time></trkpt><trkpt lat="56.5120093" lon="85.0713115"><time>2023-08-20T06:13:46.020</time></trkpt><trkpt lat="56.5120542" lon="85.0712811"><time>2023-08-20T06:13:49.023</time></trkpt><trkpt lat="56.5121024" lon="85.0712190"><time>2023-08-20T06:13:51.017</time></trkpt><trkpt lat="56.5121440" lon="85.0711783"><time>2023-08-20T06:13:53.027</time></trkpt><trkpt lat="56.5121955" lon="85.0711330"><time>2023-08-20T06:13:55.010</time></trkpt><trkpt lat="56.5122538" lon="85.0711008"><time>2023-08-20T06:13:57.017</time></trkpt><trkpt lat="56.5122999" lon="85.0710755"><time>2023-08-20T06:13:59.037</time></trkpt><trkpt lat="56.5123444" lon="85.0710518"><time>2023-08-20T06:14:01.030</time></trkpt><trkpt lat="56.5124120" lon="85.0710469"><time>2023-08-20T06:14:04.020</time></trkpt><trkpt lat="56.5124659" lon="85.0710748"><time>2023-08-20T06:14:06.007</time></trkpt><trkpt lat="56.5125291" lon="85.0711271"><time>2023-08-20T06:14:08.023</time></trkpt><trkpt lat="56.5125835" lon="85.0711830"><time>2023-08-20T06:14:10.017</time></trkpt><trkpt lat="56.5126283" lon="85.0712566"><time>2023-08-20T06:14:12.037</time></trkpt><trkpt lat="56.5126661" lon="85.0713481"><time>2023-08-20T06:14:14.017</time></trkpt><trkpt lat="56.5127061" lon="85.0714370"><time>2023-08-20T06:14:16.013</time></trkpt><trkpt lat="56.5127418" lon="85.0715370"><time>2023-08-20T06:14:18.010</time></trkpt><trkpt lat="56.5127595" lon="85.0716652"><time>2023-08-20T06:14:20.013</time></trkpt><trkpt lat="56.5127566" lon="85.0717907"><time>2023-08-20T06:14:22.023</time></trkpt><trkpt lat="56.5127555" lon="85.0719138"><time>2023-08-20T06:14:24.017</time></trkpt><trkpt lat="56.5127858" lon="85.0720030"><time>2023-08-20T06:14:26.020</time></trkpt><trkpt lat="56.5128284" lon="85.0721011"><time>2023-08-20T06:14:28.010</time></trkpt><trkpt lat="56.5128727" lon="85.0721975"><time>2023-08-20T06:14:30.023</time></trkpt><trkpt lat="56.5128922" lon="85.0723060"><time>2023-08-20T06:14:32.017</time></trkpt><trkpt lat="56.5128730" lon="85.0723938"><time>2023-08-20T06:14:34.020</time></trkpt><trkpt lat="56.5128460" lon="85.0724780"><time>2023-08-20T06:14:36.013</time></trkpt><trkpt lat="56.5128215" lon="85.0725717"><time>2023-08-20T06:14:38.007</time></trkpt><trkpt lat="56.5127958" lon="85.0726639"><time>2023-08-20T06:14:40.010</time></trkpt><trkpt lat="56.5127838" lon="85.0727672"><time>2023-08-20T06:14:42.017</time></trkpt><trkpt lat="56.5128037" lon="85.0728571"><time>2023-08-20T06:14:44.023</time></trkpt><trkpt lat="56.5128531" lon="85.0729020"><time>2023-08-20T06:14:46.013</time></trkpt><trkpt lat="56.5128995" lon="85.0729235"><time>2023-08-20T06:14:48.023</time></trkpt><trkpt lat="56.5129517" lon="85.0729445"><time>2023-08-20T06:14:50.017</time></trkpt><trkpt lat="56.5130114" lon="85.0729837"><time>2023-08-20T06:14:52.017</time></trkpt><trkpt lat="56.5130774" lon="85.0730342"><time>2023-08-20T06:14:54.013</time></trkpt><trkpt lat="56.5131394" lon="85.0730790"><time>2023-08-20T06:14:56.007</time></trkpt><trkpt lat="56.5131973" lon="85.0731111"><time>2023-08-20T06:14:58.013</time></trkpt><trkpt lat="56.5132443" lon="85.0731455"><time>2023-08-20T06:15:00.027</time></trkpt><trkpt lat="56.5132893" lon="85.0732165"><time>2023-08-20T06:15:02.017</time></trkpt><trkpt lat="56.5133257" lon="85.0732756"><time>2023-08-20T06:15:04.013</time></trkpt><trkpt lat="56.5133716" lon="85.0733215"><time>2023-08-20T06:15:06.010</time></trkpt><trkpt lat="56.5134287" lon="85.0733863"><time>2023-08-20T06:15:08.007</time></trkpt><trkpt lat="56.5134824" lon="85.0734389"><time>2023-08-20T06:15:10.013</time></trkpt><trkpt lat="56.5135236" lon="85.0735097"><time>2023-08-20T06:15:12.010</time></trkpt><trkpt lat="56.5135620" lon="85.0735782"><time>2023-08-20T06:15:14.013</time></trkpt><trkpt lat="56.5136031" lon="85.0736493"><time>2023-08-20T06:15:16.010</time></trkpt><trkpt lat="56.5136450" lon="85.0737515"><time>2023-08-20T06:15:18.043</time></trkpt><trkpt lat="56.5136660" lon="85.0738565"><time>2023-08-20T06:15:20.017</time></trkpt><trkpt lat="56.5136833" lon="85.0739716"><time>2023-08-20T06:15:22.013</time></trkpt><trkpt lat="56.5136818" lon="85.0740873"><time>2023-08-20T06:15:24.017</time></trkpt><trkpt lat="56.5136490" lon="85.0741798"><time>2023-08-20T06:15:26.010</time></trkpt><trkpt lat="56.5135987" lon="85.0742011"><time>2023-08-20T06:15:29.033</time></trkpt><trkpt lat="56.5135793" lon="85.0742994"><time>2023-08-20T06:15:38.017</time></trkpt><trkpt lat="56.5135355" lon="85.0743337"><time>2023-08-20T06:15:40.033</time></trkpt><trkpt lat="56.5134788" lon="85.0743739"><time>2023-08-20T06:15:42.037</time></trkpt><trkpt lat="56.5134231" lon="85.0743890"><time>2023-08-20T06:15:44.033</time></trkpt><trkpt lat="56.5133599" lon="85.0744358"><time>2023-08-20T06:15:47.047</time></trkpt><trkpt lat="56.5133158" lon="85.0744800"><time>2023-08-20T06:15:49.017</time></trkpt><trkpt lat="56.5132594" lon="85.0745199"><time>2023-08-20T06:15:51.020</time></trkpt><trkpt lat="56.5132033" lon="85.0745724"><time>2023-08-20T06:15:53.017</time></trkpt><trkpt lat="56.5131516" lon="85.0746373"><time>2023-08-20T06:15:55.033</time></trkpt><trkpt lat="56.5131055" lon="85.0747221"><time>2023-08-20T06:15:57.027</time></trkpt><trkpt lat="56.5130586" lon="85.0747952"><time>2023-08-20T06:15:59.020</time></trkpt><trkpt lat="56.5130259" lon="85.0748620"><time>2023-08-20T06:16:01.020</time></trkpt><trkpt lat="56.5129772" lon="85.0749562"><time>2023-08-20T06:16:03.047</time></trkpt><trkpt lat="56.5129227" lon="85.0750620"><time>2023-08-20T06:16:05.017</time></trkpt><trkpt lat="56.5128623" lon="85.0751541"><time>2023-08-20T06:16:07.017</time></trkpt><trkpt lat="56.5128044" lon="85.0752391"><time>2023-08-20T06:16:09.023</time></trkpt><trkpt lat="56.5127516" lon="85.0753317"><time>2023-08-20T06:16:11.023</time></trkpt><trkpt lat="56.5126998" lon="85.0754038"><time>2023-08-20T06:16:13.020</time></trkpt><trkpt lat="56.5126951" lon="85.0753019"><time>2023-08-20T06:16:18.020</time></trkpt><trkpt lat="56.5126480" lon="85.0752461"><time>2023-08-20T06:16:24.020</time></trkpt><trkpt lat="56.5126268" lon="85.0751690"><time>2023-08-20T06:16:28.017</time></trkpt><trkpt lat="56.5126412" lon="85.0750762"><time>2023-08-20T06:16:38.030</time></trkpt><trkpt lat="56.5126152" lon="85.0749890"><time>2023-08-20T06:16:42.017</time></trkpt><trkpt lat="56.5126332" lon="85.0749005"><time>2023-08-20T06:16:46.017</time></trkpt><trkpt lat="56.5126504" lon="85.0748218"><time>2023-08-20T06:16:50.023</time></trkpt><trkpt lat="56.5126860" lon="85.0748815"><time>2023-08-20T06:16:56.017</time></trkpt><trkpt lat="56.5126646" lon="85.0749548"><time>2023-08-20T06:16:59.013</time></trkpt><trkpt lat="56.5126580" lon="85.0750364"><time>2023-08-20T06:17:02.017</time></trkpt><trkpt lat="56.5126509" lon="85.0751207"><time>2023-08-20T06:17:06.027</time></trkpt><trkpt lat="56.5126381" lon="85.0752074"><time>2023-08-20T06:17:09.020</time></trkpt><trkpt lat="56.5126134" lon="85.0752839"><time>2023-08-20T06:17:15.013</time></trkpt><trkpt lat="56.5126507" lon="85.0753361"><time>2023-08-20T06:17:19.030</time></trkpt><trkpt lat="56.5126875" lon="85.0754082"><time>2023-08-20T06:17:23.017</time></trkpt><trkpt lat="56.5127390" lon="85.0754416"><time>2023-08-20T06:17:26.013</time></trkpt><trkpt lat="56.5127740" lon="85.0753567"><time>2023-08-20T06:17:35.023</time></trkpt><trkpt lat="56.5128248" lon="85.0753040"><time>2023-08-20T06:17:37.020</time></trkpt><trkpt lat="56.5128699" lon="85.0752459"><time>2023-08-20T06:17:39.017</time></trkpt><trkpt lat="56.5129064" lon="85.0751847"><time>2023-08-20T06:17:41.020</time></trkpt><trkpt lat="56.5129632" lon="85.0751149"><time>2023-08-20T06:17:44.017</time></trkpt><trkpt lat="56.5130027" lon="85.0750501"><time>2023-08-20T06:17:46.040</time></trkpt><trkpt lat="56.5130359" lon="85.0749891"><time>2023-08-20T06:17:48.017</time></trkpt><trkpt lat="56.5130695" lon="85.0749323"><time>2023-08-20T06:17:50.027</time></trkpt><trkpt lat="56.5131131" lon="85.0748419"><time>2023-08-20T06:17:53.027</time></trkpt><trkpt lat="56.5131464" lon="85.0747776"><time>2023-08-20T06:17:55.020</time></trkpt><trkpt lat="56.5131991" lon="85.0747171"><time>2023-08-20T06:17:58.013</time></trkpt><trkpt lat="56.5132469" lon="85.0746537"><time>2023-08-20T06:18:01.020</time></trkpt><trkpt lat="56.5132749" lon="85.0745805"><time>2023-08-20T06:18:07.027</time></trkpt><trkpt lat="56.5133229" lon="85.0745376"><time>2023-08-20T06:18:11.023</time></trkpt><trkpt lat="56.5133666" lon="85.0745004"><time>2023-08-20T06:18:14.023</time></trkpt><trkpt lat="56.5134174" lon="85.0744438"><time>2023-08-20T06:18:17.030</time></trkpt><trkpt lat="56.5134617" lon="85.0743929"><time>2023-08-20T06:18:20.027</time></trkpt><trkpt lat="56.5135072" lon="85.0743541"><time>2023-08-20T06:18:23.030</time></trkpt><trkpt lat="56.5135474" lon="85.0742953"><time>2023-08-20T06:18:25.033</time></trkpt><trkpt lat="56.5135714" lon="85.0742182"><time>2023-08-20T06:18:27.027</time></trkpt><trkpt lat="56.5136023" lon="85.0741437"><time>2023-08-20T06:18:29.010</time></trkpt><trkpt lat="56.5136061" lon="85.0740302"><time>2023-08-20T06:18:33.017</time></trkpt><trkpt lat="56.5136082" lon="85.0739171"><time>2023-08-20T06:18:36.007</time></trkpt><trkpt lat="56.5136035" lon="85.0737924"><time>2023-08-20T06:18:39.013</time></trkpt><trkpt lat="56.5135776" lon="85.0737129"><time>2023-08-20T06:18:41.007</time></trkpt><trkpt lat="56.5135417" lon="85.0736289"><time>2023-08-20T06:18:43.023</time></trkpt><trkpt lat="56.5134966" lon="85.0735513"><time>2023-08-20T06:18:45.017</time></trkpt><trkpt lat="56.5134489" lon="85.0734838"><time>2023-08-20T06:18:47.017</time></trkpt><trkpt lat="56.5134076" lon="85.0734151"><time>2023-08-20T06:18:49.020</time></trkpt><trkpt lat="56.5133776" lon="85.0733222"><time>2023-08-20T06:18:51.023</time></trkpt><trkpt lat="56.5133407" lon="85.0732246"><time>2023-08-20T06:18:53.010</time></trkpt><trkpt lat="56.5133007" lon="85.0731330"><time>2023-08-20T06:18:55.017</time></trkpt><trkpt lat="56.5132660" lon="85.0730396"><time>2023-08-20T06:18:57.023</time></trkpt><trkpt lat="56.5132382" lon="85.0729423"><time>2023-08-20T06:18:59.017</time></trkpt><trkpt lat="56.5132037" lon="85.0728656"><time>2023-08-20T06:19:01.020</time></trkpt><trkpt lat="56.5131819" lon="85.0727724"><time>2023-08-20T06:19:03.020</time></trkpt><trkpt lat="56.5131734" lon="85.0726752"><time>2023-08-20T06:19:05.023</time></trkpt><trkpt lat="56.5131731" lon="85.0725666"><time>2023-08-20T06:19:07.017</time></trkpt><trkpt lat="56.5131783" lon="85.0724414"><time>2023-08-20T06:19:09.243</time></trkpt><trkpt lat="56.5131989" lon="85.0723297"><time>2023-08-20T06:19:11.033</time></trkpt><trkpt lat="56.5132252" lon="85.0722274"><time>2023-08-20T06:19:13.023</time></trkpt><trkpt lat="56.5132616" lon="85.0721281"><time>2023-08-20T06:19:15.020</time></trkpt><trkpt lat="56.5133018" lon="85.0720353"><time>2023-08-20T06:19:17.020</time></trkpt><trkpt lat="56.5133464" lon="85.0719557"><time>2023-08-20T06:19:19.027</time></trkpt><trkpt lat="56.5133910" lon="85.0718853"><time>2023-08-20T06:19:21.040</time></trkpt><trkpt lat="56.5134429" lon="85.0718254"><time>2023-08-20T06:19:23.020</time></trkpt><trkpt lat="56.5135032" lon="85.0717650"><time>2023-08-20T06:19:25.020</time></trkpt><trkpt lat="56.5135624" lon="85.0717202"><time>2023-08-20T06:19:27.023</time></trkpt><trkpt lat="56.5136227" lon="85.0716773"><time>2023-08-20T06:19:29.020</time></trkpt><trkpt lat="56.5136857" lon="85.0716398"><time>2023-08-20T06:19:31.013</time></trkpt><trkpt lat="56.5137485" lon="85.0716053"><time>2023-08-20T06:19:33.033</time></trkpt><trkpt lat="56.5138092" lon="85.0715598"><time>2023-08-20T06:19:35.023</time></trkpt><trkpt lat="56.5138742" lon="85.0715200"><time>2023-08-20T06:19:37.040</time></trkpt><trkpt lat="56.5139464" lon="85.0714911"><time>2023-08-20T06:19:39.027</time></trkpt><trkpt lat="56.5140161" lon="85.0714521"><time>2023-08-20T06:19:41.100</time></trkpt><trkpt lat="56.5140817" lon="85.0713944"><time>2023-08-20T06:19:43.130</time></trkpt><trkpt lat="56.5141607" lon="85.0713604"><time>2023-08-20T06:19:45.027</time></trkpt><trkpt lat="56.5142064" lon="85.0713573"><time>2023-08-20T06:19:46.033</time></trkpt><trkpt lat="56.5142886" lon="85.0713429"><time>2023-08-20T06:19:48.023</time></trkpt><trkpt lat="56.5143707" lon="85.0713178"><time>2023-08-20T06:19:50.017</time></trkpt><trkpt lat="56.5144321" lon="85.0712647"><time>2023-08-20T06:19:52.007</time></trkpt></trkseg></trk></gpx>